<?xml version="1.0" encoding="UTF-8" standalone="no" ?>
<gpx xmlns="http://www.topografix.com/GPX/1/1" creator="www.cicloide.com" version="1.1" xmlns:xsi="http://www.w3.org/2001/XMLSchema-instance" xsi:schemaLocation="http://www.topografix.com/GPX/1/1 http://www.topografix.com/GPX/1/1/gpx.xsd">
  <trk>
    <name>www.cicloide.com 17500</name>
    <desc>www.cicloide.com 17500</desc>
    <trkseg>
      <trkpt lat="41.606920439" lon="2.542348633">
        <ele>137.61</ele>
        <time>2014-03-22T15:47:05Z</time>
      </trkpt>
      <trkpt lat="41.606946926" lon="2.542308819">
        <ele>137.61</ele>
        <time>2014-03-22T15:47:22Z</time>
      </trkpt>
      <trkpt lat="41.606949775" lon="2.542301610">
        <ele>137.61</ele>
        <time>2014-03-22T15:47:34Z</time>
      </trkpt>
      <trkpt lat="41.606950362" lon="2.542304209">
        <ele>137.61</ele>
        <time>2014-03-22T15:47:39Z</time>
      </trkpt>
      <trkpt lat="41.606948770" lon="2.542305550">
        <ele>137.61</ele>
        <time>2014-03-22T15:47:40Z</time>
      </trkpt>
      <trkpt lat="41.606940723" lon="2.542295156">
        <ele>137.61</ele>
        <time>2014-03-22T15:47:52Z</time>
      </trkpt>
      <trkpt lat="41.606848606" lon="2.542211756">
        <ele>137.61</ele>
        <time>2014-03-22T15:47:58Z</time>
      </trkpt>
      <trkpt lat="41.606834357" lon="2.542186191">
        <ele>137.61</ele>
        <time>2014-03-22T15:47:59Z</time>
      </trkpt>
      <trkpt lat="41.606769900" lon="2.542046130">
        <ele>137.61</ele>
        <time>2014-03-22T15:48:02Z</time>
      </trkpt>
      <trkpt lat="41.606728912" lon="2.541917719">
        <ele>136.16</ele>
        <time>2014-03-22T15:48:04Z</time>
      </trkpt>
      <trkpt lat="41.606702006" lon="2.541768605">
        <ele>135.20</ele>
        <time>2014-03-22T15:48:06Z</time>
      </trkpt>
      <trkpt lat="41.606657331" lon="2.541552687">
        <ele>133.76</ele>
        <time>2014-03-22T15:48:09Z</time>
      </trkpt>
      <trkpt lat="41.606635119" lon="2.541211208">
        <ele>131.84</ele>
        <time>2014-03-22T15:48:13Z</time>
      </trkpt>
      <trkpt lat="41.606687422" lon="2.540991184">
        <ele>131.84</ele>
        <time>2014-03-22T15:48:18Z</time>
      </trkpt>
      <trkpt lat="41.606699911" lon="2.540964026">
        <ele>133.76</ele>
        <time>2014-03-22T15:48:23Z</time>
      </trkpt>
      <trkpt lat="41.606696810" lon="2.540964529">
        <ele>133.76</ele>
        <time>2014-03-22T15:48:24Z</time>
      </trkpt>
      <trkpt lat="41.606656828" lon="2.541031752">
        <ele>134.72</ele>
        <time>2014-03-22T15:48:36Z</time>
      </trkpt>
      <trkpt lat="41.606644171" lon="2.541015240">
        <ele>133.76</ele>
        <time>2014-03-22T15:48:53Z</time>
      </trkpt>
      <trkpt lat="41.606638723" lon="2.541009205">
        <ele>133.76</ele>
        <time>2014-03-22T15:48:57Z</time>
      </trkpt>
      <trkpt lat="41.606629335" lon="2.540953968">
        <ele>133.28</ele>
        <time>2014-03-22T15:49:05Z</time>
      </trkpt>
      <trkpt lat="41.606607794" lon="2.540900575">
        <ele>132.80</ele>
        <time>2014-03-22T15:49:12Z</time>
      </trkpt>
      <trkpt lat="41.606686416" lon="2.540837292">
        <ele>132.80</ele>
        <time>2014-03-22T15:49:17Z</time>
      </trkpt>
      <trkpt lat="41.606712148" lon="2.540846177">
        <ele>132.80</ele>
        <time>2014-03-22T15:49:18Z</time>
      </trkpt>
      <trkpt lat="41.606946590" lon="2.540935779">
        <ele>134.24</ele>
        <time>2014-03-22T15:49:27Z</time>
      </trkpt>
      <trkpt lat="41.607188827" lon="2.541014066">
        <ele>135.20</ele>
        <time>2014-03-22T15:49:36Z</time>
      </trkpt>
      <trkpt lat="41.607401057" lon="2.541036111">
        <ele>135.20</ele>
        <time>2014-03-22T15:49:44Z</time>
      </trkpt>
      <trkpt lat="41.607577664" lon="2.541015994">
        <ele>135.68</ele>
        <time>2014-03-22T15:49:51Z</time>
      </trkpt>
      <trkpt lat="41.607801377" lon="2.540938964">
        <ele>136.16</ele>
        <time>2014-03-22T15:50:00Z</time>
      </trkpt>
      <trkpt lat="41.608006817" lon="2.540846679">
        <ele>136.16</ele>
        <time>2014-03-22T15:50:07Z</time>
      </trkpt>
      <trkpt lat="41.608204630" lon="2.540738972">
        <ele>136.16</ele>
        <time>2014-03-22T15:50:13Z</time>
      </trkpt>
      <trkpt lat="41.608375621" lon="2.540691614">
        <ele>136.16</ele>
        <time>2014-03-22T15:50:20Z</time>
      </trkpt>
      <trkpt lat="41.608547115" lon="2.540643335">
        <ele>136.64</ele>
        <time>2014-03-22T15:50:27Z</time>
      </trkpt>
      <trkpt lat="41.608742916" lon="2.540635875">
        <ele>137.13</ele>
        <time>2014-03-22T15:50:33Z</time>
      </trkpt>
      <trkpt lat="41.608933772" lon="2.540582147">
        <ele>137.61</ele>
        <time>2014-03-22T15:50:41Z</time>
      </trkpt>
      <trkpt lat="41.609154887" lon="2.540559264">
        <ele>138.57</ele>
        <time>2014-03-22T15:50:49Z</time>
      </trkpt>
      <trkpt lat="41.609338366" lon="2.540564964">
        <ele>139.53</ele>
        <time>2014-03-22T15:50:56Z</time>
      </trkpt>
      <trkpt lat="41.609513800" lon="2.540540153">
        <ele>140.01</ele>
        <time>2014-03-22T15:51:03Z</time>
      </trkpt>
      <trkpt lat="41.609680348" lon="2.540527748">
        <ele>140.49</ele>
        <time>2014-03-22T15:51:09Z</time>
      </trkpt>
      <trkpt lat="41.609853602" lon="2.540495226">
        <ele>140.97</ele>
        <time>2014-03-22T15:51:16Z</time>
      </trkpt>
      <trkpt lat="41.610017133" lon="2.540390285">
        <ele>141.93</ele>
        <time>2014-03-22T15:51:23Z</time>
      </trkpt>
      <trkpt lat="41.610032807" lon="2.540375617">
        <ele>142.41</ele>
        <time>2014-03-22T15:51:24Z</time>
      </trkpt>
      <trkpt lat="41.610195667" lon="2.540267574">
        <ele>142.89</ele>
        <time>2014-03-22T15:51:32Z</time>
      </trkpt>
      <trkpt lat="41.610350900" lon="2.540158777">
        <ele>143.85</ele>
        <time>2014-03-22T15:51:39Z</time>
      </trkpt>
      <trkpt lat="41.610556005" lon="2.540047297">
        <ele>144.34</ele>
        <time>2014-03-22T15:51:47Z</time>
      </trkpt>
      <trkpt lat="41.610754154" lon="2.539954091">
        <ele>145.30</ele>
        <time>2014-03-22T15:51:55Z</time>
      </trkpt>
      <trkpt lat="41.610975687" lon="2.539843617">
        <ele>146.26</ele>
        <time>2014-03-22T15:52:04Z</time>
      </trkpt>
      <trkpt lat="41.611118264" lon="2.539747477">
        <ele>147.22</ele>
        <time>2014-03-22T15:52:10Z</time>
      </trkpt>
      <trkpt lat="41.611296044" lon="2.539644715">
        <ele>147.70</ele>
        <time>2014-03-22T15:52:18Z</time>
      </trkpt>
      <trkpt lat="41.611465693" lon="2.539536923">
        <ele>148.66</ele>
        <time>2014-03-22T15:52:25Z</time>
      </trkpt>
      <trkpt lat="41.611626123" lon="2.539360065">
        <ele>149.14</ele>
        <time>2014-03-22T15:52:33Z</time>
      </trkpt>
      <trkpt lat="41.611826031" lon="2.539159402">
        <ele>150.10</ele>
        <time>2014-03-22T15:52:42Z</time>
      </trkpt>
      <trkpt lat="41.611955113" lon="2.538959745">
        <ele>151.06</ele>
        <time>2014-03-22T15:52:50Z</time>
      </trkpt>
      <trkpt lat="41.612065335" lon="2.538774170">
        <ele>152.51</ele>
        <time>2014-03-22T15:52:57Z</time>
      </trkpt>
      <trkpt lat="41.612202379" lon="2.538482815">
        <ele>153.47</ele>
        <time>2014-03-22T15:53:07Z</time>
      </trkpt>
      <trkpt lat="41.612340513" lon="2.538260611">
        <ele>153.95</ele>
        <time>2014-03-22T15:53:15Z</time>
      </trkpt>
      <trkpt lat="41.612539080" lon="2.538023990">
        <ele>155.87</ele>
        <time>2014-03-22T15:53:25Z</time>
      </trkpt>
      <trkpt lat="41.612716190" lon="2.537821064">
        <ele>156.83</ele>
        <time>2014-03-22T15:53:34Z</time>
      </trkpt>
      <trkpt lat="41.612885169" lon="2.537676979">
        <ele>157.31</ele>
        <time>2014-03-22T15:53:42Z</time>
      </trkpt>
      <trkpt lat="41.613083820" lon="2.537537169">
        <ele>157.79</ele>
        <time>2014-03-22T15:53:50Z</time>
      </trkpt>
      <trkpt lat="41.613254140" lon="2.537376991">
        <ele>158.75</ele>
        <time>2014-03-22T15:53:58Z</time>
      </trkpt>
      <trkpt lat="41.613433764" lon="2.537145315">
        <ele>159.72</ele>
        <time>2014-03-22T15:54:07Z</time>
      </trkpt>
      <trkpt lat="41.613610203" lon="2.536908442">
        <ele>160.20</ele>
        <time>2014-03-22T15:54:16Z</time>
      </trkpt>
      <trkpt lat="41.613625710" lon="2.536876172">
        <ele>160.20</ele>
        <time>2014-03-22T15:54:17Z</time>
      </trkpt>
      <trkpt lat="41.613622357" lon="2.536753126">
        <ele>160.68</ele>
        <time>2014-03-22T15:54:21Z</time>
      </trkpt>
      <trkpt lat="41.613689748" lon="2.536512984">
        <ele>161.16</ele>
        <time>2014-03-22T15:54:29Z</time>
      </trkpt>
      <trkpt lat="41.613807346" lon="2.536235459">
        <ele>162.12</ele>
        <time>2014-03-22T15:54:38Z</time>
      </trkpt>
      <trkpt lat="41.613858894" lon="2.536054075">
        <ele>162.60</ele>
        <time>2014-03-22T15:54:44Z</time>
      </trkpt>
      <trkpt lat="41.613949335" lon="2.535821561">
        <ele>163.08</ele>
        <time>2014-03-22T15:54:52Z</time>
      </trkpt>
      <trkpt lat="41.614055366" lon="2.535532218">
        <ele>164.04</ele>
        <time>2014-03-22T15:55:01Z</time>
      </trkpt>
      <trkpt lat="41.614140191" lon="2.535241198">
        <ele>165.00</ele>
        <time>2014-03-22T15:55:10Z</time>
      </trkpt>
      <trkpt lat="41.614227866" lon="2.534959566">
        <ele>165.96</ele>
        <time>2014-03-22T15:55:19Z</time>
      </trkpt>
      <trkpt lat="41.614316127" lon="2.534666618">
        <ele>167.41</ele>
        <time>2014-03-22T15:55:28Z</time>
      </trkpt>
      <trkpt lat="41.614396761" lon="2.534438966">
        <ele>167.89</ele>
        <time>2014-03-22T15:55:36Z</time>
      </trkpt>
      <trkpt lat="41.614467169" lon="2.534167308">
        <ele>168.85</ele>
        <time>2014-03-22T15:55:45Z</time>
      </trkpt>
      <trkpt lat="41.614568003" lon="2.533814766">
        <ele>169.33</ele>
        <time>2014-03-22T15:55:56Z</time>
      </trkpt>
      <trkpt lat="41.614673029" lon="2.533456439">
        <ele>170.77</ele>
        <time>2014-03-22T15:56:07Z</time>
      </trkpt>
      <trkpt lat="41.614779646" lon="2.533153853">
        <ele>171.25</ele>
        <time>2014-03-22T15:56:16Z</time>
      </trkpt>
      <trkpt lat="41.614868327" lon="2.532863755">
        <ele>172.21</ele>
        <time>2014-03-22T15:56:25Z</time>
      </trkpt>
      <trkpt lat="41.614969999" lon="2.532522947">
        <ele>173.17</ele>
        <time>2014-03-22T15:56:35Z</time>
      </trkpt>
      <trkpt lat="41.615060608" lon="2.532252211">
        <ele>173.66</ele>
        <time>2014-03-22T15:56:44Z</time>
      </trkpt>
      <trkpt lat="41.615071001" lon="2.532222707">
        <ele>173.66</ele>
        <time>2014-03-22T15:56:49Z</time>
      </trkpt>
      <trkpt lat="41.615048370" lon="2.532222120">
        <ele>173.66</ele>
        <time>2014-03-22T15:57:10Z</time>
      </trkpt>
      <trkpt lat="41.615052226" lon="2.532218684">
        <ele>173.66</ele>
        <time>2014-03-22T15:57:27Z</time>
      </trkpt>
      <trkpt lat="41.615032612" lon="2.532204183">
        <ele>174.14</ele>
        <time>2014-03-22T15:57:42Z</time>
      </trkpt>
      <trkpt lat="41.615023644" lon="2.532232765">
        <ele>173.66</ele>
        <time>2014-03-22T15:58:00Z</time>
      </trkpt>
      <trkpt lat="41.615040827" lon="2.532246847">
        <ele>173.66</ele>
        <time>2014-03-22T15:58:14Z</time>
      </trkpt>
      <trkpt lat="41.615048957" lon="2.532193454">
        <ele>173.66</ele>
        <time>2014-03-22T15:58:26Z</time>
      </trkpt>
      <trkpt lat="41.615068906" lon="2.531992205">
        <ele>173.66</ele>
        <time>2014-03-22T15:58:33Z</time>
      </trkpt>
      <trkpt lat="41.615093884" lon="2.531672686">
        <ele>174.14</ele>
        <time>2014-03-22T15:58:42Z</time>
      </trkpt>
      <trkpt lat="41.615125903" lon="2.531360041">
        <ele>175.58</ele>
        <time>2014-03-22T15:58:51Z</time>
      </trkpt>
      <trkpt lat="41.615147193" lon="2.531106992">
        <ele>175.58</ele>
        <time>2014-03-22T15:58:58Z</time>
      </trkpt>
      <trkpt lat="41.615192958" lon="2.530742379">
        <ele>177.50</ele>
        <time>2014-03-22T15:59:08Z</time>
      </trkpt>
      <trkpt lat="41.615213913" lon="2.530389501">
        <ele>177.98</ele>
        <time>2014-03-22T15:59:18Z</time>
      </trkpt>
      <trkpt lat="41.615204944" lon="2.530045340">
        <ele>179.42</ele>
        <time>2014-03-22T15:59:28Z</time>
      </trkpt>
      <trkpt lat="41.615210476" lon="2.529625490">
        <ele>180.87</ele>
        <time>2014-03-22T15:59:40Z</time>
      </trkpt>
      <trkpt lat="41.615230006" lon="2.529280324">
        <ele>181.35</ele>
        <time>2014-03-22T15:59:50Z</time>
      </trkpt>
      <trkpt lat="41.615243585" lon="2.529018557">
        <ele>182.79</ele>
        <time>2014-03-22T15:59:58Z</time>
      </trkpt>
      <trkpt lat="41.615307958" lon="2.528669534">
        <ele>183.27</ele>
        <time>2014-03-22T16:00:08Z</time>
      </trkpt>
      <trkpt lat="41.615368727" lon="2.528335683">
        <ele>183.75</ele>
        <time>2014-03-22T16:00:18Z</time>
      </trkpt>
      <trkpt lat="41.615441565" lon="2.527966041">
        <ele>185.67</ele>
        <time>2014-03-22T16:00:29Z</time>
      </trkpt>
      <trkpt lat="41.615518008" lon="2.527561866">
        <ele>186.63</ele>
        <time>2014-03-22T16:00:41Z</time>
      </trkpt>
      <trkpt lat="41.615575173" lon="2.527302111">
        <ele>187.59</ele>
        <time>2014-03-22T16:00:49Z</time>
      </trkpt>
      <trkpt lat="41.615617837" lon="2.527051324">
        <ele>188.56</ele>
        <time>2014-03-22T16:00:57Z</time>
      </trkpt>
      <trkpt lat="41.615621609" lon="2.526790563">
        <ele>190.00</ele>
        <time>2014-03-22T16:01:05Z</time>
      </trkpt>
      <trkpt lat="41.615601492" lon="2.526522426">
        <ele>190.96</ele>
        <time>2014-03-22T16:01:13Z</time>
      </trkpt>
      <trkpt lat="41.615560253" lon="2.526262503">
        <ele>191.44</ele>
        <time>2014-03-22T16:01:21Z</time>
      </trkpt>
      <trkpt lat="41.615538460" lon="2.525999647">
        <ele>191.92</ele>
        <time>2014-03-22T16:01:29Z</time>
      </trkpt>
      <trkpt lat="41.615530665" lon="2.525598321">
        <ele>192.88</ele>
        <time>2014-03-22T16:01:40Z</time>
      </trkpt>
      <trkpt lat="41.615537203" lon="2.525248209">
        <ele>194.32</ele>
        <time>2014-03-22T16:01:50Z</time>
      </trkpt>
      <trkpt lat="41.615559583" lon="2.524903713">
        <ele>195.28</ele>
        <time>2014-03-22T16:02:00Z</time>
      </trkpt>
      <trkpt lat="41.615585734" lon="2.524606323">
        <ele>196.73</ele>
        <time>2014-03-22T16:02:09Z</time>
      </trkpt>
      <trkpt lat="41.615614735" lon="2.524241459">
        <ele>198.17</ele>
        <time>2014-03-22T16:02:20Z</time>
      </trkpt>
      <trkpt lat="41.615629823" lon="2.523986481">
        <ele>200.09</ele>
        <time>2014-03-22T16:02:28Z</time>
      </trkpt>
      <trkpt lat="41.615645162" lon="2.523752710">
        <ele>200.57</ele>
        <time>2014-03-22T16:02:35Z</time>
      </trkpt>
      <trkpt lat="41.615681958" lon="2.523461355">
        <ele>201.53</ele>
        <time>2014-03-22T16:02:43Z</time>
      </trkpt>
      <trkpt lat="41.615728394" lon="2.523062125">
        <ele>202.49</ele>
        <time>2014-03-22T16:02:54Z</time>
      </trkpt>
      <trkpt lat="41.615755551" lon="2.522824917">
        <ele>202.98</ele>
        <time>2014-03-22T16:03:01Z</time>
      </trkpt>
      <trkpt lat="41.615794611" lon="2.522498107">
        <ele>204.42</ele>
        <time>2014-03-22T16:03:11Z</time>
      </trkpt>
      <trkpt lat="41.615843478" lon="2.522233155">
        <ele>205.38</ele>
        <time>2014-03-22T16:03:19Z</time>
      </trkpt>
      <trkpt lat="41.615889913" lon="2.521894945">
        <ele>206.82</ele>
        <time>2014-03-22T16:03:29Z</time>
      </trkpt>
      <trkpt lat="41.615931152" lon="2.521578277">
        <ele>206.82</ele>
        <time>2014-03-22T16:03:38Z</time>
      </trkpt>
      <trkpt lat="41.615972140" lon="2.521287760">
        <ele>207.30</ele>
        <time>2014-03-22T16:03:47Z</time>
      </trkpt>
      <trkpt lat="41.616012289" lon="2.521043092">
        <ele>207.78</ele>
        <time>2014-03-22T16:03:54Z</time>
      </trkpt>
      <trkpt lat="41.616057971" lon="2.520799263">
        <ele>208.26</ele>
        <time>2014-03-22T16:04:02Z</time>
      </trkpt>
      <trkpt lat="41.616130809" lon="2.520546632">
        <ele>208.74</ele>
        <time>2014-03-22T16:04:10Z</time>
      </trkpt>
      <trkpt lat="41.616206163" lon="2.520320321">
        <ele>209.70</ele>
        <time>2014-03-22T16:04:17Z</time>
      </trkpt>
      <trkpt lat="41.616279001" lon="2.520061739">
        <ele>210.19</ele>
        <time>2014-03-22T16:04:25Z</time>
      </trkpt>
      <trkpt lat="41.616376148" lon="2.519772731">
        <ele>211.15</ele>
        <time>2014-03-22T16:04:35Z</time>
      </trkpt>
      <trkpt lat="41.616425349" lon="2.519560166">
        <ele>211.63</ele>
        <time>2014-03-22T16:04:43Z</time>
      </trkpt>
      <trkpt lat="41.616469522" lon="2.519316001">
        <ele>212.59</ele>
        <time>2014-03-22T16:04:51Z</time>
      </trkpt>
      <trkpt lat="41.616530291" lon="2.519022299">
        <ele>213.07</ele>
        <time>2014-03-22T16:05:00Z</time>
      </trkpt>
      <trkpt lat="41.616610506" lon="2.518769166">
        <ele>213.55</ele>
        <time>2014-03-22T16:05:08Z</time>
      </trkpt>
      <trkpt lat="41.616675130" lon="2.518503292">
        <ele>213.55</ele>
        <time>2014-03-22T16:05:14Z</time>
      </trkpt>
      <trkpt lat="41.616691475" lon="2.518229203">
        <ele>213.55</ele>
        <time>2014-03-22T16:05:22Z</time>
      </trkpt>
      <trkpt lat="41.616706227" lon="2.517916391">
        <ele>214.51</ele>
        <time>2014-03-22T16:05:32Z</time>
      </trkpt>
      <trkpt lat="41.616738665" lon="2.517586814">
        <ele>215.47</ele>
        <time>2014-03-22T16:05:42Z</time>
      </trkpt>
      <trkpt lat="41.616756183" lon="2.517271571">
        <ele>216.43</ele>
        <time>2014-03-22T16:05:51Z</time>
      </trkpt>
      <trkpt lat="41.616779066" lon="2.517009385">
        <ele>216.91</ele>
        <time>2014-03-22T16:05:59Z</time>
      </trkpt>
      <trkpt lat="41.616803038" lon="2.516704451">
        <ele>217.88</ele>
        <time>2014-03-22T16:06:08Z</time>
      </trkpt>
      <trkpt lat="41.616823993" lon="2.516430112">
        <ele>219.32</ele>
        <time>2014-03-22T16:06:16Z</time>
      </trkpt>
      <trkpt lat="41.616848887" lon="2.516046723">
        <ele>220.28</ele>
        <time>2014-03-22T16:06:27Z</time>
      </trkpt>
      <trkpt lat="41.616862633" lon="2.515737850">
        <ele>221.24</ele>
        <time>2014-03-22T16:06:36Z</time>
      </trkpt>
      <trkpt lat="41.616867495" lon="2.515419506">
        <ele>221.24</ele>
        <time>2014-03-22T16:06:45Z</time>
      </trkpt>
      <trkpt lat="41.616861795" lon="2.515139550">
        <ele>222.68</ele>
        <time>2014-03-22T16:06:53Z</time>
      </trkpt>
      <trkpt lat="41.616869590" lon="2.514804023">
        <ele>223.64</ele>
        <time>2014-03-22T16:07:03Z</time>
      </trkpt>
      <trkpt lat="41.616895490" lon="2.514546530">
        <ele>224.61</ele>
        <time>2014-03-22T16:07:11Z</time>
      </trkpt>
      <trkpt lat="41.616876966" lon="2.514237993">
        <ele>225.57</ele>
        <time>2014-03-22T16:07:20Z</time>
      </trkpt>
      <trkpt lat="41.616876715" lon="2.513921157">
        <ele>226.53</ele>
        <time>2014-03-22T16:07:29Z</time>
      </trkpt>
      <trkpt lat="41.616880235" lon="2.513584372">
        <ele>227.49</ele>
        <time>2014-03-22T16:07:39Z</time>
      </trkpt>
      <trkpt lat="41.616864896" lon="2.513362922">
        <ele>228.45</ele>
        <time>2014-03-22T16:07:46Z</time>
      </trkpt>
      <trkpt lat="41.616869674" lon="2.513142394">
        <ele>228.93</ele>
        <time>2014-03-22T16:07:53Z</time>
      </trkpt>
      <trkpt lat="41.616859029" lon="2.512887752">
        <ele>229.41</ele>
        <time>2014-03-22T16:08:01Z</time>
      </trkpt>
      <trkpt lat="41.616818712" lon="2.512599833">
        <ele>230.37</ele>
        <time>2014-03-22T16:08:10Z</time>
      </trkpt>
      <trkpt lat="41.616745370" lon="2.512378384">
        <ele>231.33</ele>
        <time>2014-03-22T16:08:18Z</time>
      </trkpt>
      <trkpt lat="41.616637914" lon="2.512157437">
        <ele>231.81</ele>
        <time>2014-03-22T16:08:27Z</time>
      </trkpt>
      <trkpt lat="41.616539259" lon="2.511958953">
        <ele>232.78</ele>
        <time>2014-03-22T16:08:35Z</time>
      </trkpt>
      <trkpt lat="41.616452758" lon="2.511763068">
        <ele>233.26</ele>
        <time>2014-03-22T16:08:43Z</time>
      </trkpt>
      <trkpt lat="41.616398779" lon="2.511586629">
        <ele>234.22</ele>
        <time>2014-03-22T16:08:49Z</time>
      </trkpt>
      <trkpt lat="41.616376567" lon="2.511402981">
        <ele>234.22</ele>
        <time>2014-03-22T16:08:55Z</time>
      </trkpt>
      <trkpt lat="41.616386960" lon="2.511165522">
        <ele>235.18</ele>
        <time>2014-03-22T16:09:02Z</time>
      </trkpt>
      <trkpt lat="41.616453764" lon="2.510915490">
        <ele>236.14</ele>
        <time>2014-03-22T16:09:10Z</time>
      </trkpt>
      <trkpt lat="41.616517550" lon="2.510767130">
        <ele>237.10</ele>
        <time>2014-03-22T16:09:17Z</time>
      </trkpt>
      <trkpt lat="41.616622408" lon="2.510632014">
        <ele>238.54</ele>
        <time>2014-03-22T16:09:26Z</time>
      </trkpt>
      <trkpt lat="41.616696588" lon="2.510490528">
        <ele>240.47</ele>
        <time>2014-03-22T16:09:34Z</time>
      </trkpt>
      <trkpt lat="41.616756602" lon="2.510328505">
        <ele>241.91</ele>
        <time>2014-03-22T16:09:43Z</time>
      </trkpt>
      <trkpt lat="41.616761883" lon="2.510312831">
        <ele>241.91</ele>
        <time>2014-03-22T16:09:44Z</time>
      </trkpt>
      <trkpt lat="41.616774791" lon="2.510187354">
        <ele>243.35</ele>
        <time>2014-03-22T16:09:52Z</time>
      </trkpt>
      <trkpt lat="41.616783676" lon="2.510042515">
        <ele>244.79</ele>
        <time>2014-03-22T16:10:02Z</time>
      </trkpt>
      <trkpt lat="41.616803541" lon="2.509890467">
        <ele>245.75</ele>
        <time>2014-03-22T16:10:11Z</time>
      </trkpt>
      <trkpt lat="41.616860705" lon="2.509726349">
        <ele>247.20</ele>
        <time>2014-03-22T16:10:20Z</time>
      </trkpt>
      <trkpt lat="41.616915188" lon="2.509576816">
        <ele>247.20</ele>
        <time>2014-03-22T16:10:27Z</time>
      </trkpt>
      <trkpt lat="41.616864477" lon="2.509508336">
        <ele>247.20</ele>
        <time>2014-03-22T16:10:33Z</time>
      </trkpt>
      <trkpt lat="41.616798176" lon="2.509573044">
        <ele>248.64</ele>
        <time>2014-03-22T16:10:40Z</time>
      </trkpt>
      <trkpt lat="41.616717123" lon="2.509711681">
        <ele>249.60</ele>
        <time>2014-03-22T16:10:49Z</time>
      </trkpt>
      <trkpt lat="41.616591982" lon="2.509837745">
        <ele>250.56</ele>
        <time>2014-03-22T16:10:59Z</time>
      </trkpt>
      <trkpt lat="41.616472288" lon="2.509801367">
        <ele>251.52</ele>
        <time>2014-03-22T16:11:07Z</time>
      </trkpt>
      <trkpt lat="41.616388469" lon="2.509725008">
        <ele>252.96</ele>
        <time>2014-03-22T16:11:15Z</time>
      </trkpt>
      <trkpt lat="41.616353684" lon="2.509576565">
        <ele>254.41</ele>
        <time>2014-03-22T16:11:24Z</time>
      </trkpt>
      <trkpt lat="41.616345051" lon="2.509398198">
        <ele>256.33</ele>
        <time>2014-03-22T16:11:35Z</time>
      </trkpt>
      <trkpt lat="41.616322922" lon="2.509199379">
        <ele>258.25</ele>
        <time>2014-03-22T16:11:47Z</time>
      </trkpt>
      <trkpt lat="41.616294843" lon="2.509055378">
        <ele>260.17</ele>
        <time>2014-03-22T16:11:56Z</time>
      </trkpt>
      <trkpt lat="41.616252347" lon="2.508859158">
        <ele>263.06</ele>
        <time>2014-03-22T16:12:08Z</time>
      </trkpt>
      <trkpt lat="41.616220747" lon="2.508721443">
        <ele>264.50</ele>
        <time>2014-03-22T16:12:17Z</time>
      </trkpt>
      <trkpt lat="41.616187555" lon="2.508577107">
        <ele>266.42</ele>
        <time>2014-03-22T16:12:27Z</time>
      </trkpt>
      <trkpt lat="41.616160230" lon="2.508436374">
        <ele>267.86</ele>
        <time>2014-03-22T16:12:36Z</time>
      </trkpt>
      <trkpt lat="41.616121338" lon="2.508272089">
        <ele>268.83</ele>
        <time>2014-03-22T16:12:46Z</time>
      </trkpt>
      <trkpt lat="41.616114465" lon="2.508257589">
        <ele>268.83</ele>
        <time>2014-03-22T16:12:47Z</time>
      </trkpt>
      <trkpt lat="41.616091079" lon="2.508198161">
        <ele>269.31</ele>
        <time>2014-03-22T16:12:51Z</time>
      </trkpt>
      <trkpt lat="41.616053444" lon="2.508072097">
        <ele>270.75</ele>
        <time>2014-03-22T16:12:59Z</time>
      </trkpt>
      <trkpt lat="41.616031987" lon="2.508008478">
        <ele>272.19</ele>
        <time>2014-03-22T16:13:03Z</time>
      </trkpt>
      <trkpt lat="41.616001225" lon="2.507879397">
        <ele>272.19</ele>
        <time>2014-03-22T16:13:09Z</time>
      </trkpt>
      <trkpt lat="41.615935176" lon="2.507717459">
        <ele>274.11</ele>
        <time>2014-03-22T16:13:20Z</time>
      </trkpt>
      <trkpt lat="41.615893937" lon="2.507635819">
        <ele>275.56</ele>
        <time>2014-03-22T16:13:26Z</time>
      </trkpt>
      <trkpt lat="41.615872144" lon="2.507547222">
        <ele>276.52</ele>
        <time>2014-03-22T16:13:31Z</time>
      </trkpt>
      <trkpt lat="41.615832665" lon="2.507359803">
        <ele>277.48</ele>
        <time>2014-03-22T16:13:41Z</time>
      </trkpt>
      <trkpt lat="41.615798048" lon="2.507234493">
        <ele>278.44</ele>
        <time>2014-03-22T16:13:49Z</time>
      </trkpt>
      <trkpt lat="41.615778853" lon="2.507112621">
        <ele>280.36</ele>
        <time>2014-03-22T16:13:57Z</time>
      </trkpt>
      <trkpt lat="41.615740967" lon="2.506993598">
        <ele>280.84</ele>
        <time>2014-03-22T16:14:04Z</time>
      </trkpt>
      <trkpt lat="41.615747505" lon="2.506820846">
        <ele>282.28</ele>
        <time>2014-03-22T16:14:14Z</time>
      </trkpt>
      <trkpt lat="41.615751109" lon="2.506760329">
        <ele>283.25</ele>
        <time>2014-03-22T16:14:18Z</time>
      </trkpt>
      <trkpt lat="41.615763933" lon="2.506716408">
        <ele>284.21</ele>
        <time>2014-03-22T16:14:21Z</time>
      </trkpt>
      <trkpt lat="41.615776339" lon="2.506565366">
        <ele>285.65</ele>
        <time>2014-03-22T16:14:30Z</time>
      </trkpt>
      <trkpt lat="41.615808525" lon="2.506422790">
        <ele>287.57</ele>
        <time>2014-03-22T16:14:39Z</time>
      </trkpt>
      <trkpt lat="41.615815231" lon="2.506380210">
        <ele>288.53</ele>
        <time>2014-03-22T16:14:42Z</time>
      </trkpt>
      <trkpt lat="41.615829983" lon="2.506294379">
        <ele>289.97</ele>
        <time>2014-03-22T16:14:49Z</time>
      </trkpt>
      <trkpt lat="41.615860828" lon="2.506229587">
        <ele>290.94</ele>
        <time>2014-03-22T16:14:54Z</time>
      </trkpt>
      <trkpt lat="41.615884465" lon="2.506167729">
        <ele>291.42</ele>
        <time>2014-03-22T16:14:58Z</time>
      </trkpt>
      <trkpt lat="41.615942049" lon="2.505978800">
        <ele>293.82</ele>
        <time>2014-03-22T16:15:11Z</time>
      </trkpt>
      <trkpt lat="41.615994268" lon="2.505842846">
        <ele>295.26</ele>
        <time>2014-03-22T16:15:21Z</time>
      </trkpt>
      <trkpt lat="41.616034920" lon="2.505704545">
        <ele>297.18</ele>
        <time>2014-03-22T16:15:30Z</time>
      </trkpt>
      <trkpt lat="41.616088397" lon="2.505562471">
        <ele>299.11</ele>
        <time>2014-03-22T16:15:40Z</time>
      </trkpt>
      <trkpt lat="41.616149249" lon="2.505372370">
        <ele>300.55</ele>
        <time>2014-03-22T16:15:52Z</time>
      </trkpt>
      <trkpt lat="41.616181520" lon="2.505240858">
        <ele>301.99</ele>
        <time>2014-03-22T16:16:00Z</time>
      </trkpt>
      <trkpt lat="41.616182609" lon="2.505033657">
        <ele>304.88</ele>
        <time>2014-03-22T16:16:10Z</time>
      </trkpt>
      <trkpt lat="41.616108094" lon="2.504866187">
        <ele>305.84</ele>
        <time>2014-03-22T16:16:20Z</time>
      </trkpt>
      <trkpt lat="41.615983707" lon="2.504840203">
        <ele>307.28</ele>
        <time>2014-03-22T16:16:29Z</time>
      </trkpt>
      <trkpt lat="41.615865606" lon="2.504813548">
        <ele>307.76</ele>
        <time>2014-03-22T16:16:37Z</time>
      </trkpt>
      <trkpt lat="41.615727724" lon="2.504805334">
        <ele>308.72</ele>
        <time>2014-03-22T16:16:46Z</time>
      </trkpt>
      <trkpt lat="41.615590596" lon="2.504817572">
        <ele>310.64</ele>
        <time>2014-03-22T16:16:56Z</time>
      </trkpt>
      <trkpt lat="41.615478530" lon="2.504822936">
        <ele>312.09</ele>
        <time>2014-03-22T16:17:06Z</time>
      </trkpt>
      <trkpt lat="41.615459503" lon="2.504812291">
        <ele>312.09</ele>
        <time>2014-03-22T16:17:08Z</time>
      </trkpt>
      <trkpt lat="41.615410217" lon="2.504740877">
        <ele>313.05</ele>
        <time>2014-03-22T16:17:14Z</time>
      </trkpt>
      <trkpt lat="41.615380461" lon="2.504609365">
        <ele>314.97</ele>
        <time>2014-03-22T16:17:23Z</time>
      </trkpt>
      <trkpt lat="41.615384736" lon="2.504502412">
        <ele>315.93</ele>
        <time>2014-03-22T16:17:30Z</time>
      </trkpt>
      <trkpt lat="41.615394459" lon="2.504336367">
        <ele>318.33</ele>
        <time>2014-03-22T16:17:41Z</time>
      </trkpt>
      <trkpt lat="41.615402506" lon="2.504176859">
        <ele>319.78</ele>
        <time>2014-03-22T16:17:51Z</time>
      </trkpt>
      <trkpt lat="41.615418850" lon="2.504034702">
        <ele>322.18</ele>
        <time>2014-03-22T16:18:00Z</time>
      </trkpt>
      <trkpt lat="41.615436285" lon="2.503899166">
        <ele>324.10</ele>
        <time>2014-03-22T16:18:09Z</time>
      </trkpt>
      <trkpt lat="41.615445170" lon="2.503758937">
        <ele>325.54</ele>
        <time>2014-03-22T16:18:18Z</time>
      </trkpt>
      <trkpt lat="41.615441817" lon="2.503703784">
        <ele>326.50</ele>
        <time>2014-03-22T16:18:22Z</time>
      </trkpt>
      <trkpt lat="41.615440392" lon="2.503563304">
        <ele>327.95</ele>
        <time>2014-03-22T16:18:31Z</time>
      </trkpt>
      <trkpt lat="41.615437710" lon="2.503517706">
        <ele>328.43</ele>
        <time>2014-03-22T16:18:34Z</time>
      </trkpt>
      <trkpt lat="41.615428573" lon="2.503375633">
        <ele>328.91</ele>
        <time>2014-03-22T16:18:42Z</time>
      </trkpt>
      <trkpt lat="41.615414743" lon="2.503310170">
        <ele>329.39</ele>
        <time>2014-03-22T16:18:45Z</time>
      </trkpt>
      <trkpt lat="41.615351711" lon="2.503086960">
        <ele>329.39</ele>
        <time>2014-03-22T16:18:53Z</time>
      </trkpt>
      <trkpt lat="41.615224223" lon="2.502857212">
        <ele>328.91</ele>
        <time>2014-03-22T16:19:01Z</time>
      </trkpt>
      <trkpt lat="41.615199831" lon="2.502798958">
        <ele>328.91</ele>
        <time>2014-03-22T16:19:03Z</time>
      </trkpt>
      <trkpt lat="41.615157586" lon="2.502552195">
        <ele>328.91</ele>
        <time>2014-03-22T16:19:11Z</time>
      </trkpt>
      <trkpt lat="41.615095979" lon="2.502312137">
        <ele>329.87</ele>
        <time>2014-03-22T16:19:20Z</time>
      </trkpt>
      <trkpt lat="41.614999169" lon="2.502077444">
        <ele>331.31</ele>
        <time>2014-03-22T16:19:30Z</time>
      </trkpt>
      <trkpt lat="41.614970838" lon="2.501962109">
        <ele>332.27</ele>
        <time>2014-03-22T16:19:35Z</time>
      </trkpt>
      <trkpt lat="41.614955164" lon="2.501728254">
        <ele>333.23</ele>
        <time>2014-03-22T16:19:45Z</time>
      </trkpt>
      <trkpt lat="41.614962959" lon="2.501519209">
        <ele>333.23</ele>
        <time>2014-03-22T16:19:51Z</time>
      </trkpt>
      <trkpt lat="41.614839829" lon="2.501436144">
        <ele>332.75</ele>
        <time>2014-03-22T16:19:57Z</time>
      </trkpt>
      <trkpt lat="41.614819041" lon="2.501438659">
        <ele>332.75</ele>
        <time>2014-03-22T16:19:58Z</time>
      </trkpt>
      <trkpt lat="41.614634472" lon="2.501364060">
        <ele>334.20</ele>
        <time>2014-03-22T16:20:07Z</time>
      </trkpt>
      <trkpt lat="41.614501870" lon="2.501272194">
        <ele>334.68</ele>
        <time>2014-03-22T16:20:15Z</time>
      </trkpt>
      <trkpt lat="41.614363904" lon="2.501166582">
        <ele>336.60</ele>
        <time>2014-03-22T16:20:24Z</time>
      </trkpt>
      <trkpt lat="41.614322330" lon="2.501072453">
        <ele>337.56</ele>
        <time>2014-03-22T16:20:30Z</time>
      </trkpt>
      <trkpt lat="41.614276648" lon="2.500922166">
        <ele>338.52</ele>
        <time>2014-03-22T16:20:38Z</time>
      </trkpt>
      <trkpt lat="41.614207246" lon="2.500746314">
        <ele>340.92</ele>
        <time>2014-03-22T16:20:49Z</time>
      </trkpt>
      <trkpt lat="41.614131642" lon="2.500615137">
        <ele>343.33</ele>
        <time>2014-03-22T16:20:59Z</time>
      </trkpt>
      <trkpt lat="41.614088139" lon="2.500538778">
        <ele>344.77</ele>
        <time>2014-03-22T16:21:06Z</time>
      </trkpt>
      <trkpt lat="41.614028209" lon="2.500444314">
        <ele>347.65</ele>
        <time>2014-03-22T16:21:15Z</time>
      </trkpt>
      <trkpt lat="41.613977666" lon="2.500341300">
        <ele>349.58</ele>
        <time>2014-03-22T16:21:24Z</time>
      </trkpt>
      <trkpt lat="41.613900972" lon="2.500232084">
        <ele>351.50</ele>
        <time>2014-03-22T16:21:33Z</time>
      </trkpt>
      <trkpt lat="41.613854536" lon="2.500109373">
        <ele>353.42</ele>
        <time>2014-03-22T16:21:42Z</time>
      </trkpt>
      <trkpt lat="41.613860068" lon="2.500085987">
        <ele>353.90</ele>
        <time>2014-03-22T16:21:44Z</time>
      </trkpt>
      <trkpt lat="41.613921842" lon="2.500095794">
        <ele>354.86</ele>
        <time>2014-03-22T16:21:51Z</time>
      </trkpt>
      <trkpt lat="41.613929805" lon="2.500102751">
        <ele>355.34</ele>
        <time>2014-03-22T16:21:52Z</time>
      </trkpt>
      <trkpt lat="41.613985964" lon="2.500169136">
        <ele>357.27</ele>
        <time>2014-03-22T16:22:00Z</time>
      </trkpt>
      <trkpt lat="41.614000549" lon="2.500176512">
        <ele>357.27</ele>
        <time>2014-03-22T16:22:02Z</time>
      </trkpt>
      <trkpt lat="41.614022174" lon="2.500195455">
        <ele>357.75</ele>
        <time>2014-03-22T16:22:05Z</time>
      </trkpt>
      <trkpt lat="41.614103814" lon="2.500233425">
        <ele>358.71</ele>
        <time>2014-03-22T16:22:13Z</time>
      </trkpt>
      <trkpt lat="41.614201295" lon="2.500290338">
        <ele>360.63</ele>
        <time>2014-03-22T16:22:24Z</time>
      </trkpt>
      <trkpt lat="41.614310428" lon="2.500336103">
        <ele>362.55</ele>
        <time>2014-03-22T16:22:35Z</time>
      </trkpt>
      <trkpt lat="41.614334651" lon="2.500353789">
        <ele>363.52</ele>
        <time>2014-03-22T16:22:38Z</time>
      </trkpt>
      <trkpt lat="41.614418806" lon="2.500422102">
        <ele>364.96</ele>
        <time>2014-03-22T16:22:47Z</time>
      </trkpt>
      <trkpt lat="41.614513689" lon="2.500497036">
        <ele>366.40</ele>
        <time>2014-03-22T16:22:56Z</time>
      </trkpt>
      <trkpt lat="41.614612427" lon="2.500573227">
        <ele>368.32</ele>
        <time>2014-03-22T16:23:06Z</time>
      </trkpt>
      <trkpt lat="41.614623911" lon="2.500577167">
        <ele>368.80</ele>
        <time>2014-03-22T16:23:07Z</time>
      </trkpt>
      <trkpt lat="41.614743101" lon="2.500568450">
        <ele>369.76</ele>
        <time>2014-03-22T16:23:16Z</time>
      </trkpt>
      <trkpt lat="41.614813761" lon="2.500528803">
        <ele>369.76</ele>
        <time>2014-03-22T16:23:22Z</time>
      </trkpt>
      <trkpt lat="41.614964970" lon="2.500557050">
        <ele>370.24</ele>
        <time>2014-03-22T16:23:32Z</time>
      </trkpt>
      <trkpt lat="41.615115174" lon="2.500656627">
        <ele>370.73</ele>
        <time>2014-03-22T16:23:42Z</time>
      </trkpt>
      <trkpt lat="41.615252218" lon="2.500595356">
        <ele>371.69</ele>
        <time>2014-03-22T16:23:52Z</time>
      </trkpt>
      <trkpt lat="41.615358920" lon="2.500530312">
        <ele>372.65</ele>
        <time>2014-03-22T16:24:00Z</time>
      </trkpt>
      <trkpt lat="41.615479871" lon="2.500480607">
        <ele>373.61</ele>
        <time>2014-03-22T16:24:09Z</time>
      </trkpt>
      <trkpt lat="41.615598055" lon="2.500486978">
        <ele>374.57</ele>
        <time>2014-03-22T16:24:17Z</time>
      </trkpt>
      <trkpt lat="41.615688245" lon="2.500489827">
        <ele>376.01</ele>
        <time>2014-03-22T16:24:24Z</time>
      </trkpt>
      <trkpt lat="41.615720264" lon="2.500465604">
        <ele>376.49</ele>
        <time>2014-03-22T16:24:27Z</time>
      </trkpt>
      <trkpt lat="41.615757982" lon="2.500332499">
        <ele>378.42</ele>
        <time>2014-03-22T16:24:37Z</time>
      </trkpt>
      <trkpt lat="41.615689334" lon="2.500268461">
        <ele>379.86</ele>
        <time>2014-03-22T16:24:45Z</time>
      </trkpt>
      <trkpt lat="41.615591099" lon="2.500271227">
        <ele>381.78</ele>
        <time>2014-03-22T16:24:55Z</time>
      </trkpt>
      <trkpt lat="41.615504430" lon="2.500274077">
        <ele>383.70</ele>
        <time>2014-03-22T16:25:04Z</time>
      </trkpt>
      <trkpt lat="41.615405942" lon="2.500268461">
        <ele>385.15</ele>
        <time>2014-03-22T16:25:13Z</time>
      </trkpt>
      <trkpt lat="41.615270491" lon="2.500251195">
        <ele>386.59</ele>
        <time>2014-03-22T16:25:23Z</time>
      </trkpt>
      <trkpt lat="41.615258085" lon="2.500243148">
        <ele>386.59</ele>
        <time>2014-03-22T16:25:24Z</time>
      </trkpt>
      <trkpt lat="41.615148534" lon="2.500111301">
        <ele>388.51</ele>
        <time>2014-03-22T16:25:35Z</time>
      </trkpt>
      <trkpt lat="41.615112576" lon="2.500054890">
        <ele>388.51</ele>
        <time>2014-03-22T16:25:39Z</time>
      </trkpt>
      <trkpt lat="41.615006209" lon="2.500001162">
        <ele>389.95</ele>
        <time>2014-03-22T16:25:49Z</time>
      </trkpt>
      <trkpt lat="41.614907973" lon="2.500026727">
        <ele>391.87</ele>
        <time>2014-03-22T16:25:58Z</time>
      </trkpt>
      <trkpt lat="41.614769337" lon="2.499997055">
        <ele>394.76</ele>
        <time>2014-03-22T16:26:09Z</time>
      </trkpt>
      <trkpt lat="41.614688200" lon="2.499870991">
        <ele>396.68</ele>
        <time>2014-03-22T16:26:20Z</time>
      </trkpt>
      <trkpt lat="41.614620809" lon="2.499706622">
        <ele>399.57</ele>
        <time>2014-03-22T16:26:32Z</time>
      </trkpt>
      <trkpt lat="41.614574625" lon="2.499582319">
        <ele>401.49</ele>
        <time>2014-03-22T16:26:41Z</time>
      </trkpt>
      <trkpt lat="41.614557023" lon="2.499438821">
        <ele>403.41</ele>
        <time>2014-03-22T16:26:50Z</time>
      </trkpt>
      <trkpt lat="41.614581163" lon="2.499275457">
        <ele>404.85</ele>
        <time>2014-03-22T16:27:01Z</time>
      </trkpt>
      <trkpt lat="41.614618714" lon="2.499158446">
        <ele>405.81</ele>
        <time>2014-03-22T16:27:09Z</time>
      </trkpt>
      <trkpt lat="41.614634053" lon="2.499117039">
        <ele>405.81</ele>
        <time>2014-03-22T16:27:12Z</time>
      </trkpt>
      <trkpt lat="41.614664814" lon="2.498972619">
        <ele>407.26</ele>
        <time>2014-03-22T16:27:21Z</time>
      </trkpt>
      <trkpt lat="41.614662216" lon="2.498911766">
        <ele>407.74</ele>
        <time>2014-03-22T16:27:25Z</time>
      </trkpt>
      <trkpt lat="41.614668167" lon="2.498724515">
        <ele>408.70</ele>
        <time>2014-03-22T16:27:36Z</time>
      </trkpt>
      <trkpt lat="41.614688535" lon="2.498569617">
        <ele>410.14</ele>
        <time>2014-03-22T16:27:45Z</time>
      </trkpt>
      <trkpt lat="41.614703706" lon="2.498411115">
        <ele>411.10</ele>
        <time>2014-03-22T16:27:55Z</time>
      </trkpt>
      <trkpt lat="41.614710747" lon="2.498289326">
        <ele>412.06</ele>
        <time>2014-03-22T16:28:03Z</time>
      </trkpt>
      <trkpt lat="41.614706305" lon="2.498273904">
        <ele>412.06</ele>
        <time>2014-03-22T16:28:04Z</time>
      </trkpt>
      <trkpt lat="41.614713262" lon="2.498094196">
        <ele>413.98</ele>
        <time>2014-03-22T16:28:15Z</time>
      </trkpt>
      <trkpt lat="41.614701108" lon="2.497999564">
        <ele>414.95</ele>
        <time>2014-03-22T16:28:21Z</time>
      </trkpt>
      <trkpt lat="41.614652074" lon="2.497801583">
        <ele>414.95</ele>
        <time>2014-03-22T16:28:29Z</time>
      </trkpt>
      <trkpt lat="41.614616199" lon="2.497702593">
        <ele>414.95</ele>
        <time>2014-03-22T16:28:31Z</time>
      </trkpt>
      <trkpt lat="41.614568003" lon="2.497597987">
        <ele>412.06</ele>
        <time>2014-03-22T16:28:33Z</time>
      </trkpt>
      <trkpt lat="41.614371532" lon="2.497480054">
        <ele>410.14</ele>
        <time>2014-03-22T16:28:37Z</time>
      </trkpt>
      <trkpt lat="41.614228369" lon="2.497572925">
        <ele>410.14</ele>
        <time>2014-03-22T16:28:40Z</time>
      </trkpt>
      <trkpt lat="41.614205486" lon="2.497597400">
        <ele>410.14</ele>
        <time>2014-03-22T16:28:41Z</time>
      </trkpt>
      <trkpt lat="41.614149160" lon="2.497651212">
        <ele>411.58</ele>
        <time>2014-03-22T16:28:46Z</time>
      </trkpt>
      <trkpt lat="41.614042961" lon="2.497741569">
        <ele>413.50</ele>
        <time>2014-03-22T16:28:56Z</time>
      </trkpt>
      <trkpt lat="41.613911868" lon="2.497785742">
        <ele>415.43</ele>
        <time>2014-03-22T16:29:06Z</time>
      </trkpt>
      <trkpt lat="41.613819919" lon="2.497774761">
        <ele>416.39</ele>
        <time>2014-03-22T16:29:13Z</time>
      </trkpt>
      <trkpt lat="41.613719420" lon="2.497661187">
        <ele>417.35</ele>
        <time>2014-03-22T16:29:22Z</time>
      </trkpt>
      <trkpt lat="41.613646413" lon="2.497509139">
        <ele>418.31</ele>
        <time>2014-03-22T16:29:31Z</time>
      </trkpt>
      <trkpt lat="41.613562007" lon="2.497397827">
        <ele>418.79</ele>
        <time>2014-03-22T16:29:39Z</time>
      </trkpt>
      <trkpt lat="41.613408032" lon="2.497350302">
        <ele>420.23</ele>
        <time>2014-03-22T16:29:49Z</time>
      </trkpt>
      <trkpt lat="41.613272413" lon="2.497383075">
        <ele>421.19</ele>
        <time>2014-03-22T16:29:58Z</time>
      </trkpt>
      <trkpt lat="41.613158335" lon="2.497403611">
        <ele>422.64</ele>
        <time>2014-03-22T16:30:07Z</time>
      </trkpt>
      <trkpt lat="41.613102595" lon="2.497361701">
        <ele>423.12</ele>
        <time>2014-03-22T16:30:12Z</time>
      </trkpt>
      <trkpt lat="41.613046520" lon="2.497287689">
        <ele>423.60</ele>
        <time>2014-03-22T16:30:18Z</time>
      </trkpt>
      <trkpt lat="41.613022967" lon="2.497204289">
        <ele>424.08</ele>
        <time>2014-03-22T16:30:23Z</time>
      </trkpt>
      <trkpt lat="41.612950380" lon="2.497050900">
        <ele>425.52</ele>
        <time>2014-03-22T16:30:33Z</time>
      </trkpt>
      <trkpt lat="41.612880475" lon="2.496898182">
        <ele>426.96</ele>
        <time>2014-03-22T16:30:43Z</time>
      </trkpt>
      <trkpt lat="41.612847366" lon="2.496807741">
        <ele>427.92</ele>
        <time>2014-03-22T16:30:48Z</time>
      </trkpt>
      <trkpt lat="41.612807552" lon="2.496635325">
        <ele>429.37</ele>
        <time>2014-03-22T16:30:58Z</time>
      </trkpt>
      <trkpt lat="41.612797662" lon="2.496564079">
        <ele>429.85</ele>
        <time>2014-03-22T16:31:02Z</time>
      </trkpt>
      <trkpt lat="41.612716860" lon="2.496390071">
        <ele>431.29</ele>
        <time>2014-03-22T16:31:13Z</time>
      </trkpt>
      <trkpt lat="41.612660450" lon="2.496283621">
        <ele>432.25</ele>
        <time>2014-03-22T16:31:20Z</time>
      </trkpt>
      <trkpt lat="41.612624659" lon="2.496138614">
        <ele>432.73</ele>
        <time>2014-03-22T16:31:27Z</time>
      </trkpt>
      <trkpt lat="41.612615607" lon="2.496014562">
        <ele>433.69</ele>
        <time>2014-03-22T16:31:34Z</time>
      </trkpt>
      <trkpt lat="41.612590880" lon="2.495857736">
        <ele>435.61</ele>
        <time>2014-03-22T16:31:43Z</time>
      </trkpt>
      <trkpt lat="41.612568836" lon="2.495678364">
        <ele>436.10</ele>
        <time>2014-03-22T16:31:52Z</time>
      </trkpt>
      <trkpt lat="41.612569925" lon="2.495659169">
        <ele>436.10</ele>
        <time>2014-03-22T16:31:53Z</time>
      </trkpt>
      <trkpt lat="41.612590210" lon="2.495624300">
        <ele>436.10</ele>
        <time>2014-03-22T16:32:01Z</time>
      </trkpt>
      <trkpt lat="41.612594987" lon="2.495624803">
        <ele>436.58</ele>
        <time>2014-03-22T16:32:12Z</time>
      </trkpt>
      <trkpt lat="41.612584426" lon="2.495619606">
        <ele>436.58</ele>
        <time>2014-03-22T16:32:31Z</time>
      </trkpt>
      <trkpt lat="41.612564309" lon="2.495631341">
        <ele>436.58</ele>
        <time>2014-03-22T16:32:49Z</time>
      </trkpt>
      <trkpt lat="41.612567075" lon="2.495645758">
        <ele>436.58</ele>
        <time>2014-03-22T16:33:05Z</time>
      </trkpt>
      <trkpt lat="41.612545450" lon="2.495663947">
        <ele>436.58</ele>
        <time>2014-03-22T16:33:28Z</time>
      </trkpt>
      <trkpt lat="41.612554251" lon="2.495640729">
        <ele>436.58</ele>
        <time>2014-03-22T16:33:53Z</time>
      </trkpt>
      <trkpt lat="41.612532123" lon="2.495627318">
        <ele>436.58</ele>
        <time>2014-03-22T16:34:18Z</time>
      </trkpt>
      <trkpt lat="41.612539750" lon="2.495632347">
        <ele>436.58</ele>
        <time>2014-03-22T16:34:40Z</time>
      </trkpt>
      <trkpt lat="41.612579732" lon="2.495624636">
        <ele>436.58</ele>
        <time>2014-03-22T16:35:06Z</time>
      </trkpt>
      <trkpt lat="41.612565567" lon="2.495624803">
        <ele>436.58</ele>
        <time>2014-03-22T16:35:32Z</time>
      </trkpt>
      <trkpt lat="41.612555760" lon="2.495611811">
        <ele>436.58</ele>
        <time>2014-03-22T16:35:52Z</time>
      </trkpt>
      <trkpt lat="41.612556430" lon="2.495616002">
        <ele>436.58</ele>
        <time>2014-03-22T16:36:12Z</time>
      </trkpt>
      <trkpt lat="41.612562549" lon="2.495646177">
        <ele>436.58</ele>
        <time>2014-03-22T16:36:35Z</time>
      </trkpt>
      <trkpt lat="41.612549809" lon="2.495624971">
        <ele>436.58</ele>
        <time>2014-03-22T16:37:01Z</time>
      </trkpt>
      <trkpt lat="41.612547965" lon="2.495602843">
        <ele>436.58</ele>
        <time>2014-03-22T16:37:26Z</time>
      </trkpt>
      <trkpt lat="41.612566740" lon="2.495641064">
        <ele>436.58</ele>
        <time>2014-03-22T16:37:49Z</time>
      </trkpt>
      <trkpt lat="41.612552491" lon="2.495635700">
        <ele>436.58</ele>
        <time>2014-03-22T16:38:12Z</time>
      </trkpt>
      <trkpt lat="41.612573697" lon="2.495661181">
        <ele>436.10</ele>
        <time>2014-03-22T16:38:30Z</time>
      </trkpt>
      <trkpt lat="41.612558945" lon="2.495656068">
        <ele>436.10</ele>
        <time>2014-03-22T16:38:46Z</time>
      </trkpt>
      <trkpt lat="41.612551485" lon="2.495655313">
        <ele>436.10</ele>
        <time>2014-03-22T16:39:07Z</time>
      </trkpt>
      <trkpt lat="41.612524412" lon="2.495624049">
        <ele>436.10</ele>
        <time>2014-03-22T16:39:28Z</time>
      </trkpt>
      <trkpt lat="41.612523909" lon="2.495624133">
        <ele>436.58</ele>
        <time>2014-03-22T16:39:49Z</time>
      </trkpt>
      <trkpt lat="41.612524663" lon="2.495646596">
        <ele>436.58</ele>
        <time>2014-03-22T16:40:14Z</time>
      </trkpt>
      <trkpt lat="41.612526256" lon="2.495675346">
        <ele>436.58</ele>
        <time>2014-03-22T16:40:32Z</time>
      </trkpt>
      <trkpt lat="41.612528519" lon="2.495679705">
        <ele>436.58</ele>
        <time>2014-03-22T16:40:51Z</time>
      </trkpt>
      <trkpt lat="41.612552072" lon="2.495679202">
        <ele>436.58</ele>
        <time>2014-03-22T16:41:06Z</time>
      </trkpt>
      <trkpt lat="41.612559280" lon="2.495673167">
        <ele>436.58</ele>
        <time>2014-03-22T16:41:18Z</time>
      </trkpt>
      <trkpt lat="41.612573781" lon="2.495644920">
        <ele>436.58</ele>
        <time>2014-03-22T16:41:25Z</time>
      </trkpt>
      <trkpt lat="41.612595239" lon="2.495626396">
        <ele>436.58</ele>
        <time>2014-03-22T16:41:37Z</time>
      </trkpt>
      <trkpt lat="41.612580654" lon="2.495623630">
        <ele>436.58</ele>
        <time>2014-03-22T16:41:44Z</time>
      </trkpt>
      <trkpt lat="41.612563723" lon="2.495615332">
        <ele>436.58</ele>
        <time>2014-03-22T16:41:48Z</time>
      </trkpt>
      <trkpt lat="41.612386278" lon="2.495598233">
        <ele>434.17</ele>
        <time>2014-03-22T16:41:56Z</time>
      </trkpt>
      <trkpt lat="41.612343949" lon="2.495598987">
        <ele>433.21</ele>
        <time>2014-03-22T16:41:57Z</time>
      </trkpt>
      <trkpt lat="41.612202463" lon="2.495659253">
        <ele>432.25</ele>
        <time>2014-03-22T16:42:00Z</time>
      </trkpt>
      <trkpt lat="41.611905576" lon="2.495720105">
        <ele>431.77</ele>
        <time>2014-03-22T16:42:06Z</time>
      </trkpt>
      <trkpt lat="41.611768699" lon="2.495571913">
        <ele>431.29</ele>
        <time>2014-03-22T16:42:10Z</time>
      </trkpt>
      <trkpt lat="41.611723353" lon="2.495277792">
        <ele>431.29</ele>
        <time>2014-03-22T16:42:17Z</time>
      </trkpt>
      <trkpt lat="41.611670882" lon="2.494980905">
        <ele>430.81</ele>
        <time>2014-03-22T16:42:24Z</time>
      </trkpt>
      <trkpt lat="41.611623189" lon="2.494601289">
        <ele>430.81</ele>
        <time>2014-03-22T16:42:32Z</time>
      </trkpt>
      <trkpt lat="41.611526211" lon="2.494200299">
        <ele>430.81</ele>
        <time>2014-03-22T16:42:40Z</time>
      </trkpt>
      <trkpt lat="41.611358657" lon="2.493799308">
        <ele>430.81</ele>
        <time>2014-03-22T16:42:49Z</time>
      </trkpt>
      <trkpt lat="41.611234856" lon="2.493646171">
        <ele>430.81</ele>
        <time>2014-03-22T16:42:53Z</time>
      </trkpt>
      <trkpt lat="41.611069816" lon="2.493262531">
        <ele>430.81</ele>
        <time>2014-03-22T16:43:01Z</time>
      </trkpt>
      <trkpt lat="41.611032517" lon="2.493118782">
        <ele>430.33</ele>
        <time>2014-03-22T16:43:04Z</time>
      </trkpt>
      <trkpt lat="41.610892874" lon="2.492698513">
        <ele>429.85</ele>
        <time>2014-03-22T16:43:11Z</time>
      </trkpt>
      <trkpt lat="41.610891952" lon="2.492363908">
        <ele>429.37</ele>
        <time>2014-03-22T16:43:16Z</time>
      </trkpt>
      <trkpt lat="41.610936376" lon="2.492118150">
        <ele>429.37</ele>
        <time>2014-03-22T16:43:20Z</time>
      </trkpt>
      <trkpt lat="41.610927994" lon="2.491864598">
        <ele>428.89</ele>
        <time>2014-03-22T16:43:24Z</time>
      </trkpt>
      <trkpt lat="41.610899747" lon="2.491727470">
        <ele>428.40</ele>
        <time>2014-03-22T16:43:26Z</time>
      </trkpt>
      <trkpt lat="41.610712999" lon="2.491289264">
        <ele>427.92</ele>
        <time>2014-03-22T16:43:33Z</time>
      </trkpt>
      <trkpt lat="41.610701012" lon="2.491091618">
        <ele>427.92</ele>
        <time>2014-03-22T16:43:36Z</time>
      </trkpt>
      <trkpt lat="41.610720375" lon="2.490555596">
        <ele>427.92</ele>
        <time>2014-03-22T16:43:45Z</time>
      </trkpt>
      <trkpt lat="41.610723895" lon="2.490194084">
        <ele>427.92</ele>
        <time>2014-03-22T16:43:52Z</time>
      </trkpt>
      <trkpt lat="41.610600262" lon="2.489935419">
        <ele>429.37</ele>
        <time>2014-03-22T16:43:59Z</time>
      </trkpt>
      <trkpt lat="41.610496410" lon="2.489645070">
        <ele>430.33</ele>
        <time>2014-03-22T16:44:07Z</time>
      </trkpt>
      <trkpt lat="41.610364563" lon="2.489403336">
        <ele>431.29</ele>
        <time>2014-03-22T16:44:15Z</time>
      </trkpt>
      <trkpt lat="41.610208743" lon="2.489359750">
        <ele>432.25</ele>
        <time>2014-03-22T16:44:21Z</time>
      </trkpt>
      <trkpt lat="41.610047308" lon="2.489514312">
        <ele>432.73</ele>
        <time>2014-03-22T16:44:28Z</time>
      </trkpt>
      <trkpt lat="41.609911437" lon="2.489719669">
        <ele>432.25</ele>
        <time>2014-03-22T16:44:36Z</time>
      </trkpt>
      <trkpt lat="41.609758300" lon="2.490045222">
        <ele>433.21</ele>
        <time>2014-03-22T16:44:46Z</time>
      </trkpt>
      <trkpt lat="41.609707757" lon="2.490319394">
        <ele>433.21</ele>
        <time>2014-03-22T16:44:53Z</time>
      </trkpt>
      <trkpt lat="41.609632487" lon="2.490734130">
        <ele>433.21</ele>
        <time>2014-03-22T16:45:02Z</time>
      </trkpt>
      <trkpt lat="41.609605498" lon="2.490884418">
        <ele>433.21</ele>
        <time>2014-03-22T16:45:05Z</time>
      </trkpt>
      <trkpt lat="41.609577251" lon="2.491004782">
        <ele>432.25</ele>
        <time>2014-03-22T16:45:07Z</time>
      </trkpt>
      <trkpt lat="41.609432914" lon="2.491145933">
        <ele>431.29</ele>
        <time>2014-03-22T16:45:11Z</time>
      </trkpt>
      <trkpt lat="41.609385640" lon="2.491151968">
        <ele>431.29</ele>
        <time>2014-03-22T16:45:12Z</time>
      </trkpt>
      <trkpt lat="41.609277933" lon="2.491149118">
        <ele>429.85</ele>
        <time>2014-03-22T16:45:14Z</time>
      </trkpt>
      <trkpt lat="41.608965204" lon="2.491241655">
        <ele>427.44</ele>
        <time>2014-03-22T16:45:19Z</time>
      </trkpt>
      <trkpt lat="41.608743419" lon="2.491546756">
        <ele>424.56</ele>
        <time>2014-03-22T16:45:24Z</time>
      </trkpt>
      <trkpt lat="41.608684746" lon="2.491946153">
        <ele>422.16</ele>
        <time>2014-03-22T16:45:28Z</time>
      </trkpt>
      <trkpt lat="41.608702934" lon="2.492146146">
        <ele>420.23</ele>
        <time>2014-03-22T16:45:30Z</time>
      </trkpt>
      <trkpt lat="41.608630347" lon="2.492441021">
        <ele>418.79</ele>
        <time>2014-03-22T16:45:34Z</time>
      </trkpt>
      <trkpt lat="41.608500176" lon="2.492508328">
        <ele>418.31</ele>
        <time>2014-03-22T16:45:37Z</time>
      </trkpt>
      <trkpt lat="41.608434797" lon="2.492461641">
        <ele>418.79</ele>
        <time>2014-03-22T16:45:39Z</time>
      </trkpt>
      <trkpt lat="41.608228099" lon="2.492163999">
        <ele>418.31</ele>
        <time>2014-03-22T16:45:47Z</time>
      </trkpt>
      <trkpt lat="41.608098851" lon="2.491856886">
        <ele>419.27</ele>
        <time>2014-03-22T16:45:55Z</time>
      </trkpt>
      <trkpt lat="41.607969434" lon="2.491643902">
        <ele>420.23</ele>
        <time>2014-03-22T16:46:02Z</time>
      </trkpt>
      <trkpt lat="41.607752846" lon="2.491547343">
        <ele>421.19</ele>
        <time>2014-03-22T16:46:10Z</time>
      </trkpt>
      <trkpt lat="41.607714205" lon="2.491353972">
        <ele>421.68</ele>
        <time>2014-03-22T16:46:15Z</time>
      </trkpt>
      <trkpt lat="41.607751421" lon="2.491271829">
        <ele>421.68</ele>
        <time>2014-03-22T16:46:17Z</time>
      </trkpt>
      <trkpt lat="41.607963483" lon="2.490903864">
        <ele>422.16</ele>
        <time>2014-03-22T16:46:27Z</time>
      </trkpt>
      <trkpt lat="41.607947809" lon="2.490605803">
        <ele>422.16</ele>
        <time>2014-03-22T16:46:33Z</time>
      </trkpt>
      <trkpt lat="41.607758378" lon="2.490383851">
        <ele>422.16</ele>
        <time>2014-03-22T16:46:39Z</time>
      </trkpt>
      <trkpt lat="41.607528043" lon="2.490216715">
        <ele>422.16</ele>
        <time>2014-03-22T16:46:46Z</time>
      </trkpt>
      <trkpt lat="41.607322351" lon="2.490137003">
        <ele>422.16</ele>
        <time>2014-03-22T16:46:52Z</time>
      </trkpt>
      <trkpt lat="41.607004425" lon="2.490109176">
        <ele>422.16</ele>
        <time>2014-03-22T16:47:01Z</time>
      </trkpt>
      <trkpt lat="41.606755148" lon="2.490009766">
        <ele>422.16</ele>
        <time>2014-03-22T16:47:08Z</time>
      </trkpt>
      <trkpt lat="41.606684321" lon="2.489818994">
        <ele>423.12</ele>
        <time>2014-03-22T16:47:12Z</time>
      </trkpt>
      <trkpt lat="41.606696642" lon="2.489717657">
        <ele>423.12</ele>
        <time>2014-03-22T16:47:14Z</time>
      </trkpt>
      <trkpt lat="41.606820862" lon="2.489693433">
        <ele>421.19</ele>
        <time>2014-03-22T16:47:19Z</time>
      </trkpt>
      <trkpt lat="41.606900993" lon="2.489694858">
        <ele>420.23</ele>
        <time>2014-03-22T16:47:21Z</time>
      </trkpt>
      <trkpt lat="41.606980369" lon="2.489694607">
        <ele>418.79</ele>
        <time>2014-03-22T16:47:23Z</time>
      </trkpt>
      <trkpt lat="41.607076007" lon="2.489681782">
        <ele>416.87</ele>
        <time>2014-03-22T16:47:25Z</time>
      </trkpt>
      <trkpt lat="41.607426873" lon="2.489515318">
        <ele>413.50</ele>
        <time>2014-03-22T16:47:30Z</time>
      </trkpt>
      <trkpt lat="41.607947809" lon="2.489274673">
        <ele>412.54</ele>
        <time>2014-03-22T16:47:37Z</time>
      </trkpt>
      <trkpt lat="41.608230446" lon="2.489045512">
        <ele>412.54</ele>
        <time>2014-03-22T16:47:43Z</time>
      </trkpt>
      <trkpt lat="41.608333209" lon="2.488878125">
        <ele>412.54</ele>
        <time>2014-03-22T16:47:47Z</time>
      </trkpt>
      <trkpt lat="41.608366233" lon="2.488800509">
        <ele>413.98</ele>
        <time>2014-03-22T16:47:49Z</time>
      </trkpt>
      <trkpt lat="41.608409065" lon="2.488501610">
        <ele>415.43</ele>
        <time>2014-03-22T16:47:56Z</time>
      </trkpt>
      <trkpt lat="41.608379980" lon="2.488109421">
        <ele>415.91</ele>
        <time>2014-03-22T16:48:05Z</time>
      </trkpt>
      <trkpt lat="41.608375118" lon="2.487712370">
        <ele>416.39</ele>
        <time>2014-03-22T16:48:13Z</time>
      </trkpt>
      <trkpt lat="41.608424487" lon="2.487354715">
        <ele>416.39</ele>
        <time>2014-03-22T16:48:20Z</time>
      </trkpt>
      <trkpt lat="41.608417614" lon="2.487144664">
        <ele>416.39</ele>
        <time>2014-03-22T16:48:24Z</time>
      </trkpt>
      <trkpt lat="41.608392636" lon="2.486978786">
        <ele>416.39</ele>
        <time>2014-03-22T16:48:27Z</time>
      </trkpt>
      <trkpt lat="41.608392469" lon="2.486860098">
        <ele>414.95</ele>
        <time>2014-03-22T16:48:29Z</time>
      </trkpt>
      <trkpt lat="41.608510234" lon="2.486653485">
        <ele>413.98</ele>
        <time>2014-03-22T16:48:33Z</time>
      </trkpt>
      <trkpt lat="41.608550551" lon="2.486626076">
        <ele>413.98</ele>
        <time>2014-03-22T16:48:34Z</time>
      </trkpt>
      <trkpt lat="41.608811480" lon="2.486436812">
        <ele>414.95</ele>
        <time>2014-03-22T16:48:43Z</time>
      </trkpt>
      <trkpt lat="41.608824975" lon="2.486417618">
        <ele>414.95</ele>
        <time>2014-03-22T16:48:44Z</time>
      </trkpt>
      <trkpt lat="41.608977190" lon="2.486276802">
        <ele>416.87</ele>
        <time>2014-03-22T16:48:52Z</time>
      </trkpt>
      <trkpt lat="41.609103338" lon="2.486106565">
        <ele>418.79</ele>
        <time>2014-03-22T16:49:00Z</time>
      </trkpt>
      <trkpt lat="41.609174081" lon="2.485840775">
        <ele>421.19</ele>
        <time>2014-03-22T16:49:10Z</time>
      </trkpt>
      <trkpt lat="41.609189420" lon="2.485644387">
        <ele>422.64</ele>
        <time>2014-03-22T16:49:17Z</time>
      </trkpt>
      <trkpt lat="41.609217164" lon="2.485461159">
        <ele>424.08</ele>
        <time>2014-03-22T16:49:24Z</time>
      </trkpt>
      <trkpt lat="41.609293020" lon="2.485217748">
        <ele>425.04</ele>
        <time>2014-03-22T16:49:33Z</time>
      </trkpt>
      <trkpt lat="41.609442218" lon="2.485115741">
        <ele>425.04</ele>
        <time>2014-03-22T16:49:40Z</time>
      </trkpt>
      <trkpt lat="41.609570713" lon="2.485024126">
        <ele>425.52</ele>
        <time>2014-03-22T16:49:47Z</time>
      </trkpt>
      <trkpt lat="41.609718737" lon="2.484801000">
        <ele>426.48</ele>
        <time>2014-03-22T16:49:57Z</time>
      </trkpt>
      <trkpt lat="41.609773303" lon="2.484564798">
        <ele>427.92</ele>
        <time>2014-03-22T16:50:06Z</time>
      </trkpt>
      <trkpt lat="41.609833569" lon="2.484284004">
        <ele>428.40</ele>
        <time>2014-03-22T16:50:15Z</time>
      </trkpt>
      <trkpt lat="41.609792246" lon="2.483957026">
        <ele>428.89</ele>
        <time>2014-03-22T16:50:23Z</time>
      </trkpt>
      <trkpt lat="41.609670793" lon="2.483489735">
        <ele>428.89</ele>
        <time>2014-03-22T16:50:33Z</time>
      </trkpt>
      <trkpt lat="41.609644390" lon="2.483396780">
        <ele>428.89</ele>
        <time>2014-03-22T16:50:35Z</time>
      </trkpt>
      <trkpt lat="41.609566270" lon="2.483253030">
        <ele>427.44</ele>
        <time>2014-03-22T16:50:38Z</time>
      </trkpt>
      <trkpt lat="41.609343815" lon="2.482937032">
        <ele>426.00</ele>
        <time>2014-03-22T16:50:44Z</time>
      </trkpt>
      <trkpt lat="41.609257649" lon="2.482818848">
        <ele>425.04</ele>
        <time>2014-03-22T16:50:46Z</time>
      </trkpt>
      <trkpt lat="41.609147008" lon="2.482652802">
        <ele>423.60</ele>
        <time>2014-03-22T16:50:49Z</time>
      </trkpt>
      <trkpt lat="41.609016920" lon="2.482509304">
        <ele>422.64</ele>
        <time>2014-03-22T16:50:52Z</time>
      </trkpt>
      <trkpt lat="41.608861352" lon="2.482430095">
        <ele>422.16</ele>
        <time>2014-03-22T16:50:55Z</time>
      </trkpt>
      <trkpt lat="41.608659935" lon="2.482228175">
        <ele>420.71</ele>
        <time>2014-03-22T16:51:00Z</time>
      </trkpt>
      <trkpt lat="41.608669407" lon="2.482018460">
        <ele>420.23</ele>
        <time>2014-03-22T16:51:03Z</time>
      </trkpt>
      <trkpt lat="41.608711903" lon="2.481871022">
        <ele>419.75</ele>
        <time>2014-03-22T16:51:05Z</time>
      </trkpt>
      <trkpt lat="41.608723721" lon="2.481410939">
        <ele>417.83</ele>
        <time>2014-03-22T16:51:11Z</time>
      </trkpt>
      <trkpt lat="41.608599753" lon="2.481127547">
        <ele>415.91</ele>
        <time>2014-03-22T16:51:15Z</time>
      </trkpt>
      <trkpt lat="41.608404790" lon="2.480984133">
        <ele>415.43</ele>
        <time>2014-03-22T16:51:18Z</time>
      </trkpt>
      <trkpt lat="41.608086278" lon="2.480676685">
        <ele>412.54</ele>
        <time>2014-03-22T16:51:24Z</time>
      </trkpt>
      <trkpt lat="41.607882849" lon="2.480030608">
        <ele>411.58</ele>
        <time>2014-03-22T16:51:33Z</time>
      </trkpt>
      <trkpt lat="41.607841107" lon="2.479897335">
        <ele>411.58</ele>
        <time>2014-03-22T16:51:35Z</time>
      </trkpt>
      <trkpt lat="41.607806071" lon="2.479560802">
        <ele>411.58</ele>
        <time>2014-03-22T16:51:40Z</time>
      </trkpt>
      <trkpt lat="41.607668859" lon="2.479054200">
        <ele>409.18</ele>
        <time>2014-03-22T16:51:47Z</time>
      </trkpt>
      <trkpt lat="41.607542460" lon="2.478675421">
        <ele>406.77</ele>
        <time>2014-03-22T16:51:51Z</time>
      </trkpt>
      <trkpt lat="41.607471046" lon="2.478367722">
        <ele>405.33</ele>
        <time>2014-03-22T16:51:54Z</time>
      </trkpt>
      <trkpt lat="41.607293769" lon="2.477820635">
        <ele>403.89</ele>
        <time>2014-03-22T16:52:00Z</time>
      </trkpt>
      <trkpt lat="41.607116240" lon="2.477408748">
        <ele>403.41</ele>
        <time>2014-03-22T16:52:06Z</time>
      </trkpt>
      <trkpt lat="41.607043401" lon="2.477289222">
        <ele>403.41</ele>
        <time>2014-03-22T16:52:08Z</time>
      </trkpt>
      <trkpt lat="41.606850031" lon="2.477069700">
        <ele>403.41</ele>
        <time>2014-03-22T16:52:14Z</time>
      </trkpt>
      <trkpt lat="41.606785993" lon="2.476942714">
        <ele>403.41</ele>
        <time>2014-03-22T16:52:20Z</time>
      </trkpt>
      <trkpt lat="41.606778449" lon="2.476927292">
        <ele>403.41</ele>
        <time>2014-03-22T16:52:29Z</time>
      </trkpt>
      <trkpt lat="41.606770235" lon="2.476908013">
        <ele>403.41</ele>
        <time>2014-03-22T16:52:41Z</time>
      </trkpt>
      <trkpt lat="41.606755315" lon="2.476897871">
        <ele>403.41</ele>
        <time>2014-03-22T16:52:49Z</time>
      </trkpt>
      <trkpt lat="41.606762188" lon="2.476900218">
        <ele>403.41</ele>
        <time>2014-03-22T16:53:08Z</time>
      </trkpt>
      <trkpt lat="41.606760847" lon="2.476898877">
        <ele>404.85</ele>
        <time>2014-03-22T16:53:17Z</time>
      </trkpt>
      <trkpt lat="41.606765122" lon="2.476894435">
        <ele>404.85</ele>
        <time>2014-03-22T16:53:32Z</time>
      </trkpt>
      <trkpt lat="41.606767804" lon="2.476891752">
        <ele>404.85</ele>
        <time>2014-03-22T16:53:49Z</time>
      </trkpt>
      <trkpt lat="41.606764200" lon="2.476864260">
        <ele>404.85</ele>
        <time>2014-03-22T16:54:00Z</time>
      </trkpt>
      <trkpt lat="41.606746682" lon="2.476740543">
        <ele>406.29</ele>
        <time>2014-03-22T16:54:07Z</time>
      </trkpt>
      <trkpt lat="41.606722710" lon="2.476553794">
        <ele>408.22</ele>
        <time>2014-03-22T16:54:16Z</time>
      </trkpt>
      <trkpt lat="41.606702342" lon="2.476354724">
        <ele>409.18</ele>
        <time>2014-03-22T16:54:25Z</time>
      </trkpt>
      <trkpt lat="41.606560520" lon="2.476176273">
        <ele>406.77</ele>
        <time>2014-03-22T16:54:30Z</time>
      </trkpt>
      <trkpt lat="41.606495895" lon="2.476093711">
        <ele>406.29</ele>
        <time>2014-03-22T16:54:32Z</time>
      </trkpt>
      <trkpt lat="41.606252820" lon="2.475790957">
        <ele>403.41</ele>
        <time>2014-03-22T16:54:38Z</time>
      </trkpt>
      <trkpt lat="41.606112339" lon="2.475598425">
        <ele>401.97</ele>
        <time>2014-03-22T16:54:41Z</time>
      </trkpt>
      <trkpt lat="41.605768430" lon="2.475078244">
        <ele>399.57</ele>
        <time>2014-03-22T16:54:48Z</time>
      </trkpt>
      <trkpt lat="41.605678660" lon="2.474899709">
        <ele>399.08</ele>
        <time>2014-03-22T16:54:50Z</time>
      </trkpt>
      <trkpt lat="41.605566342" lon="2.474522775">
        <ele>398.12</ele>
        <time>2014-03-22T16:54:54Z</time>
      </trkpt>
      <trkpt lat="41.605554105" lon="2.474331668">
        <ele>397.64</ele>
        <time>2014-03-22T16:54:56Z</time>
      </trkpt>
      <trkpt lat="41.605616801" lon="2.474045510">
        <ele>397.64</ele>
        <time>2014-03-22T16:55:00Z</time>
      </trkpt>
      <trkpt lat="41.605883849" lon="2.473525245">
        <ele>395.72</ele>
        <time>2014-03-22T16:55:08Z</time>
      </trkpt>
      <trkpt lat="41.606107227" lon="2.473103551">
        <ele>392.84</ele>
        <time>2014-03-22T16:55:13Z</time>
      </trkpt>
      <trkpt lat="41.606229183" lon="2.472627543">
        <ele>391.87</ele>
        <time>2014-03-22T16:55:18Z</time>
      </trkpt>
      <trkpt lat="41.606174449" lon="2.472390587">
        <ele>391.39</ele>
        <time>2014-03-22T16:55:21Z</time>
      </trkpt>
      <trkpt lat="41.605954676" lon="2.472055646">
        <ele>391.39</ele>
        <time>2014-03-22T16:55:28Z</time>
      </trkpt>
      <trkpt lat="41.605775303" lon="2.471881302">
        <ele>391.87</ele>
        <time>2014-03-22T16:55:35Z</time>
      </trkpt>
      <trkpt lat="41.605739010" lon="2.471838303">
        <ele>392.84</ele>
        <time>2014-03-22T16:55:37Z</time>
      </trkpt>
      <trkpt lat="41.605560559" lon="2.471688518">
        <ele>393.80</ele>
        <time>2014-03-22T16:55:45Z</time>
      </trkpt>
      <trkpt lat="41.605470034" lon="2.471610902">
        <ele>393.80</ele>
        <time>2014-03-22T16:55:48Z</time>
      </trkpt>
      <trkpt lat="41.605357046" lon="2.471470170">
        <ele>392.36</ele>
        <time>2014-03-22T16:55:51Z</time>
      </trkpt>
      <trkpt lat="41.605234754" lon="2.471254336">
        <ele>390.43</ele>
        <time>2014-03-22T16:55:54Z</time>
      </trkpt>
      <trkpt lat="41.605036774" lon="2.470945044">
        <ele>388.03</ele>
        <time>2014-03-22T16:55:59Z</time>
      </trkpt>
      <trkpt lat="41.604869722" lon="2.470534749">
        <ele>382.74</ele>
        <time>2014-03-22T16:56:04Z</time>
      </trkpt>
      <trkpt lat="41.604789172" lon="2.470250184">
        <ele>379.38</ele>
        <time>2014-03-22T16:56:07Z</time>
      </trkpt>
      <trkpt lat="41.604768972" lon="2.470160497">
        <ele>378.42</ele>
        <time>2014-03-22T16:56:08Z</time>
      </trkpt>
      <trkpt lat="41.604778527" lon="2.469894121">
        <ele>376.97</ele>
        <time>2014-03-22T16:56:11Z</time>
      </trkpt>
      <trkpt lat="41.604788166" lon="2.469800662">
        <ele>375.53</ele>
        <time>2014-03-22T16:56:12Z</time>
      </trkpt>
      <trkpt lat="41.604752040" lon="2.469413838">
        <ele>374.57</ele>
        <time>2014-03-22T16:56:16Z</time>
      </trkpt>
      <trkpt lat="41.604685320" lon="2.469223904">
        <ele>373.61</ele>
        <time>2014-03-22T16:56:18Z</time>
      </trkpt>
      <trkpt lat="41.604475521" lon="2.468847808">
        <ele>373.61</ele>
        <time>2014-03-22T16:56:24Z</time>
      </trkpt>
      <trkpt lat="41.604330766" lon="2.468564332">
        <ele>375.53</ele>
        <time>2014-03-22T16:56:32Z</time>
      </trkpt>
      <trkpt lat="41.604280810" lon="2.468366854">
        <ele>376.01</ele>
        <time>2014-03-22T16:56:38Z</time>
      </trkpt>
      <trkpt lat="41.604179892" lon="2.468145823">
        <ele>377.45</ele>
        <time>2014-03-22T16:56:45Z</time>
      </trkpt>
      <trkpt lat="41.604065898" lon="2.467979023">
        <ele>379.38</ele>
        <time>2014-03-22T16:56:53Z</time>
      </trkpt>
      <trkpt lat="41.603966488" lon="2.467722369">
        <ele>381.78</ele>
        <time>2014-03-22T16:57:03Z</time>
      </trkpt>
      <trkpt lat="41.603895158" lon="2.467558419">
        <ele>382.74</ele>
        <time>2014-03-22T16:57:10Z</time>
      </trkpt>
      <trkpt lat="41.603807903" lon="2.467385668">
        <ele>382.74</ele>
        <time>2014-03-22T16:57:17Z</time>
      </trkpt>
      <trkpt lat="41.603727017" lon="2.467097750">
        <ele>382.74</ele>
        <time>2014-03-22T16:57:23Z</time>
      </trkpt>
      <trkpt lat="41.603683935" lon="2.466970429">
        <ele>381.30</ele>
        <time>2014-03-22T16:57:25Z</time>
      </trkpt>
      <trkpt lat="41.603620400" lon="2.466836486">
        <ele>380.34</ele>
        <time>2014-03-22T16:57:27Z</time>
      </trkpt>
      <trkpt lat="41.603570527" lon="2.466709668">
        <ele>379.38</ele>
        <time>2014-03-22T16:57:29Z</time>
      </trkpt>
      <trkpt lat="41.603550411" lon="2.466649737">
        <ele>378.90</ele>
        <time>2014-03-22T16:57:30Z</time>
      </trkpt>
      <trkpt lat="41.603482350" lon="2.466479166">
        <ele>378.42</ele>
        <time>2014-03-22T16:57:33Z</time>
      </trkpt>
      <trkpt lat="41.603346647" lon="2.466210526">
        <ele>378.42</ele>
        <time>2014-03-22T16:57:40Z</time>
      </trkpt>
      <trkpt lat="41.603225863" lon="2.466005504">
        <ele>378.42</ele>
        <time>2014-03-22T16:57:47Z</time>
      </trkpt>
      <trkpt lat="41.603142212" lon="2.465861252">
        <ele>378.42</ele>
        <time>2014-03-22T16:57:52Z</time>
      </trkpt>
      <trkpt lat="41.603117569" lon="2.465814062">
        <ele>379.86</ele>
        <time>2014-03-22T16:57:54Z</time>
      </trkpt>
      <trkpt lat="41.603026961" lon="2.465614237">
        <ele>380.82</ele>
        <time>2014-03-22T16:58:02Z</time>
      </trkpt>
      <trkpt lat="41.602959570" lon="2.465408126">
        <ele>382.26</ele>
        <time>2014-03-22T16:58:10Z</time>
      </trkpt>
      <trkpt lat="41.602893018" lon="2.465245349">
        <ele>384.66</ele>
        <time>2014-03-22T16:58:17Z</time>
      </trkpt>
      <trkpt lat="41.602801320" lon="2.465038065">
        <ele>385.63</ele>
        <time>2014-03-22T16:58:26Z</time>
      </trkpt>
      <trkpt lat="41.602688081" lon="2.464828685">
        <ele>387.55</ele>
        <time>2014-03-22T16:58:36Z</time>
      </trkpt>
      <trkpt lat="41.602569980" lon="2.464693653">
        <ele>388.99</ele>
        <time>2014-03-22T16:58:44Z</time>
      </trkpt>
      <trkpt lat="41.602486077" lon="2.464594159">
        <ele>389.95</ele>
        <time>2014-03-22T16:58:51Z</time>
      </trkpt>
      <trkpt lat="41.602358588" lon="2.464476561">
        <ele>391.39</ele>
        <time>2014-03-22T16:58:59Z</time>
      </trkpt>
      <trkpt lat="41.602230932" lon="2.464339852">
        <ele>391.87</ele>
        <time>2014-03-22T16:59:06Z</time>
      </trkpt>
      <trkpt lat="41.602023060" lon="2.464128880">
        <ele>391.87</ele>
        <time>2014-03-22T16:59:13Z</time>
      </trkpt>
      <trkpt lat="41.601934380" lon="2.463978509">
        <ele>390.43</ele>
        <time>2014-03-22T16:59:16Z</time>
      </trkpt>
      <trkpt lat="41.601858775" lon="2.463817660">
        <ele>389.95</ele>
        <time>2014-03-22T16:59:19Z</time>
      </trkpt>
      <trkpt lat="41.601704045" lon="2.463441983">
        <ele>388.51</ele>
        <time>2014-03-22T16:59:26Z</time>
      </trkpt>
      <trkpt lat="41.601590051" lon="2.463074772">
        <ele>388.03</ele>
        <time>2014-03-22T16:59:33Z</time>
      </trkpt>
      <trkpt lat="41.601491815" lon="2.462790541">
        <ele>388.03</ele>
        <time>2014-03-22T16:59:42Z</time>
      </trkpt>
      <trkpt lat="41.601363069" lon="2.462572193">
        <ele>388.99</ele>
        <time>2014-03-22T16:59:50Z</time>
      </trkpt>
      <trkpt lat="41.601252596" lon="2.462397095">
        <ele>389.47</ele>
        <time>2014-03-22T16:59:57Z</time>
      </trkpt>
      <trkpt lat="41.601139273" lon="2.462209424">
        <ele>391.39</ele>
        <time>2014-03-22T17:00:05Z</time>
      </trkpt>
      <trkpt lat="41.600999630" lon="2.462104315">
        <ele>391.39</ele>
        <time>2014-03-22T17:00:11Z</time>
      </trkpt>
      <trkpt lat="41.600807936" lon="2.462059220">
        <ele>391.39</ele>
        <time>2014-03-22T17:00:18Z</time>
      </trkpt>
      <trkpt lat="41.600589252" lon="2.462005828">
        <ele>389.95</ele>
        <time>2014-03-22T17:00:24Z</time>
      </trkpt>
      <trkpt lat="41.600382638" lon="2.461907424">
        <ele>389.95</ele>
        <time>2014-03-22T17:00:31Z</time>
      </trkpt>
      <trkpt lat="41.600150627" lon="2.461791335">
        <ele>389.47</ele>
        <time>2014-03-22T17:00:38Z</time>
      </trkpt>
      <trkpt lat="41.599935044" lon="2.461650770">
        <ele>386.11</ele>
        <time>2014-03-22T17:00:43Z</time>
      </trkpt>
      <trkpt lat="41.599774866" lon="2.461510709">
        <ele>384.66</ele>
        <time>2014-03-22T17:00:46Z</time>
      </trkpt>
      <trkpt lat="41.599687946" lon="2.461430410">
        <ele>383.70</ele>
        <time>2014-03-22T17:00:48Z</time>
      </trkpt>
      <trkpt lat="41.599613179" lon="2.461356565">
        <ele>381.30</ele>
        <time>2014-03-22T17:00:50Z</time>
      </trkpt>
      <trkpt lat="41.599411678" lon="2.461136289">
        <ele>377.45</ele>
        <time>2014-03-22T17:00:56Z</time>
      </trkpt>
      <trkpt lat="41.599351580" lon="2.461074095">
        <ele>377.45</ele>
        <time>2014-03-22T17:00:58Z</time>
      </trkpt>
      <trkpt lat="41.599218056" lon="2.460848622">
        <ele>373.61</ele>
        <time>2014-03-22T17:01:02Z</time>
      </trkpt>
      <trkpt lat="41.599182014" lon="2.460796822">
        <ele>374.09</ele>
        <time>2014-03-22T17:01:03Z</time>
      </trkpt>
      <trkpt lat="41.599147649" lon="2.460751308">
        <ele>372.65</ele>
        <time>2014-03-22T17:01:04Z</time>
      </trkpt>
      <trkpt lat="41.599077073" lon="2.460668076">
        <ele>371.69</ele>
        <time>2014-03-22T17:01:06Z</time>
      </trkpt>
      <trkpt lat="41.599009934" lon="2.460575372">
        <ele>370.24</ele>
        <time>2014-03-22T17:01:08Z</time>
      </trkpt>
      <trkpt lat="41.598799045" lon="2.460360209">
        <ele>367.36</ele>
        <time>2014-03-22T17:01:13Z</time>
      </trkpt>
      <trkpt lat="41.598673065" lon="2.460198270">
        <ele>364.96</ele>
        <time>2014-03-22T17:01:16Z</time>
      </trkpt>
      <trkpt lat="41.598538117" lon="2.460051838">
        <ele>364.00</ele>
        <time>2014-03-22T17:01:19Z</time>
      </trkpt>
      <trkpt lat="41.598500063" lon="2.460021664">
        <ele>363.04</ele>
        <time>2014-03-22T17:01:20Z</time>
      </trkpt>
      <trkpt lat="41.598353547" lon="2.460025352">
        <ele>360.63</ele>
        <time>2014-03-22T17:01:24Z</time>
      </trkpt>
      <trkpt lat="41.598133103" lon="2.460048150">
        <ele>357.27</ele>
        <time>2014-03-22T17:01:29Z</time>
      </trkpt>
      <trkpt lat="41.598062276" lon="2.460104812">
        <ele>356.31</ele>
        <time>2014-03-22T17:01:31Z</time>
      </trkpt>
      <trkpt lat="41.598019780" lon="2.460141190">
        <ele>355.83</ele>
        <time>2014-03-22T17:01:32Z</time>
      </trkpt>
      <trkpt lat="41.597829846" lon="2.460151080">
        <ele>352.94</ele>
        <time>2014-03-22T17:01:37Z</time>
      </trkpt>
      <trkpt lat="41.597647288" lon="2.459929379">
        <ele>351.50</ele>
        <time>2014-03-22T17:01:42Z</time>
      </trkpt>
      <trkpt lat="41.597501694" lon="2.459791916">
        <ele>349.58</ele>
        <time>2014-03-22T17:01:46Z</time>
      </trkpt>
      <trkpt lat="41.597315532" lon="2.459632576">
        <ele>347.17</ele>
        <time>2014-03-22T17:01:50Z</time>
      </trkpt>
      <trkpt lat="41.597222158" lon="2.459537190">
        <ele>345.73</ele>
        <time>2014-03-22T17:01:52Z</time>
      </trkpt>
      <trkpt lat="41.596958212" lon="2.459399894">
        <ele>342.37</ele>
        <time>2014-03-22T17:01:58Z</time>
      </trkpt>
      <trkpt lat="41.596908758" lon="2.459385729">
        <ele>342.37</ele>
        <time>2014-03-22T17:01:59Z</time>
      </trkpt>
      <trkpt lat="41.596728045" lon="2.459197471">
        <ele>338.52</ele>
        <time>2014-03-22T17:02:04Z</time>
      </trkpt>
      <trkpt lat="41.596644477" lon="2.458921623">
        <ele>337.08</ele>
        <time>2014-03-22T17:02:08Z</time>
      </trkpt>
      <trkpt lat="41.596698708" lon="2.458687684">
        <ele>334.68</ele>
        <time>2014-03-22T17:02:13Z</time>
      </trkpt>
      <trkpt lat="41.596777917" lon="2.458617779">
        <ele>334.20</ele>
        <time>2014-03-22T17:02:15Z</time>
      </trkpt>
      <trkpt lat="41.596885121" lon="2.458399514">
        <ele>331.79</ele>
        <time>2014-03-22T17:02:20Z</time>
      </trkpt>
      <trkpt lat="41.596869196" lon="2.458145291">
        <ele>331.31</ele>
        <time>2014-03-22T17:02:25Z</time>
      </trkpt>
      <trkpt lat="41.596898532" lon="2.458029034">
        <ele>331.31</ele>
        <time>2014-03-22T17:02:30Z</time>
      </trkpt>
      <trkpt lat="41.596909848" lon="2.457983855">
        <ele>333.23</ele>
        <time>2014-03-22T17:02:32Z</time>
      </trkpt>
      <trkpt lat="41.596967683" lon="2.457889559">
        <ele>334.68</ele>
        <time>2014-03-22T17:02:38Z</time>
      </trkpt>
      <trkpt lat="41.596977574" lon="2.457842201">
        <ele>335.16</ele>
        <time>2014-03-22T17:02:41Z</time>
      </trkpt>
      <trkpt lat="41.596954272" lon="2.457775230">
        <ele>335.64</ele>
        <time>2014-03-22T17:02:45Z</time>
      </trkpt>
      <trkpt lat="41.596869363" lon="2.457649585">
        <ele>336.60</ele>
        <time>2014-03-22T17:02:53Z</time>
      </trkpt>
      <trkpt lat="41.596864083" lon="2.457633827">
        <ele>337.08</ele>
        <time>2014-03-22T17:02:54Z</time>
      </trkpt>
      <trkpt lat="41.596764171" lon="2.457388908">
        <ele>338.04</ele>
        <time>2014-03-22T17:03:05Z</time>
      </trkpt>
      <trkpt lat="41.596716394" lon="2.457181372">
        <ele>339.00</ele>
        <time>2014-03-22T17:03:13Z</time>
      </trkpt>
      <trkpt lat="41.596797698" lon="2.456994120">
        <ele>340.44</ele>
        <time>2014-03-22T17:03:21Z</time>
      </trkpt>
      <trkpt lat="41.596891995" lon="2.456821369">
        <ele>341.89</ele>
        <time>2014-03-22T17:03:29Z</time>
      </trkpt>
      <trkpt lat="41.597007162" lon="2.456677871">
        <ele>343.33</ele>
        <time>2014-03-22T17:03:37Z</time>
      </trkpt>
      <trkpt lat="41.597127442" lon="2.456440160">
        <ele>343.81</ele>
        <time>2014-03-22T17:03:46Z</time>
      </trkpt>
      <trkpt lat="41.597164071" lon="2.456119888">
        <ele>340.44</ele>
        <time>2014-03-22T17:03:53Z</time>
      </trkpt>
      <trkpt lat="41.597186451" lon="2.455858037">
        <ele>337.08</ele>
        <time>2014-03-22T17:03:57Z</time>
      </trkpt>
      <trkpt lat="41.597119563" lon="2.455578081">
        <ele>336.12</ele>
        <time>2014-03-22T17:04:02Z</time>
      </trkpt>
      <trkpt lat="41.597085449" lon="2.455543548">
        <ele>336.12</ele>
        <time>2014-03-22T17:04:03Z</time>
      </trkpt>
      <trkpt lat="41.596899706" lon="2.455321930">
        <ele>336.12</ele>
        <time>2014-03-22T17:04:11Z</time>
      </trkpt>
      <trkpt lat="41.596873722" lon="2.455135852">
        <ele>336.12</ele>
        <time>2014-03-22T17:04:17Z</time>
      </trkpt>
      <trkpt lat="41.596846648" lon="2.454843659">
        <ele>337.08</ele>
        <time>2014-03-22T17:04:25Z</time>
      </trkpt>
      <trkpt lat="41.596827454" lon="2.454491954">
        <ele>337.08</ele>
        <time>2014-03-22T17:04:33Z</time>
      </trkpt>
      <trkpt lat="41.596731481" lon="2.454287520">
        <ele>335.16</ele>
        <time>2014-03-22T17:04:39Z</time>
      </trkpt>
      <trkpt lat="41.596550432" lon="2.454065232">
        <ele>331.79</ele>
        <time>2014-03-22T17:04:43Z</time>
      </trkpt>
      <trkpt lat="41.596333760" lon="2.453797598">
        <ele>328.43</ele>
        <time>2014-03-22T17:04:47Z</time>
      </trkpt>
      <trkpt lat="41.596140976" lon="2.453519067">
        <ele>325.06</ele>
        <time>2014-03-22T17:04:51Z</time>
      </trkpt>
      <trkpt lat="41.596056654" lon="2.453193262">
        <ele>321.70</ele>
        <time>2014-03-22T17:04:56Z</time>
      </trkpt>
      <trkpt lat="41.596037627" lon="2.453140373">
        <ele>321.70</ele>
        <time>2014-03-22T17:04:57Z</time>
      </trkpt>
      <trkpt lat="41.595920113" lon="2.453072060">
        <ele>320.26</ele>
        <time>2014-03-22T17:05:01Z</time>
      </trkpt>
      <trkpt lat="41.595879461" lon="2.453171888">
        <ele>319.78</ele>
        <time>2014-03-22T17:05:04Z</time>
      </trkpt>
      <trkpt lat="41.595887507" lon="2.453567095">
        <ele>319.78</ele>
        <time>2014-03-22T17:05:14Z</time>
      </trkpt>
      <trkpt lat="41.595894297" lon="2.453716545">
        <ele>318.81</ele>
        <time>2014-03-22T17:05:17Z</time>
      </trkpt>
      <trkpt lat="41.595917012" lon="2.453824839">
        <ele>318.33</ele>
        <time>2014-03-22T17:05:19Z</time>
      </trkpt>
      <trkpt lat="41.595895302" lon="2.454075374">
        <ele>315.93</ele>
        <time>2014-03-22T17:05:24Z</time>
      </trkpt>
      <trkpt lat="41.595779548" lon="2.454088198">
        <ele>314.97</ele>
        <time>2014-03-22T17:05:27Z</time>
      </trkpt>
      <trkpt lat="41.595679217" lon="2.454022652">
        <ele>313.05</ele>
        <time>2014-03-22T17:05:29Z</time>
      </trkpt>
      <trkpt lat="41.595392137" lon="2.453800112">
        <ele>307.76</ele>
        <time>2014-03-22T17:05:34Z</time>
      </trkpt>
      <trkpt lat="41.595243693" lon="2.453684358">
        <ele>305.36</ele>
        <time>2014-03-22T17:05:37Z</time>
      </trkpt>
      <trkpt lat="41.595146296" lon="2.453552343">
        <ele>303.91</ele>
        <time>2014-03-22T17:05:40Z</time>
      </trkpt>
      <trkpt lat="41.594995589" lon="2.453328714">
        <ele>301.03</ele>
        <time>2014-03-22T17:05:45Z</time>
      </trkpt>
      <trkpt lat="41.594902382" lon="2.453286637">
        <ele>300.07</ele>
        <time>2014-03-22T17:05:47Z</time>
      </trkpt>
      <trkpt lat="41.594666096" lon="2.453287391">
        <ele>297.67</ele>
        <time>2014-03-22T17:05:53Z</time>
      </trkpt>
      <trkpt lat="41.594454453" lon="2.453433236">
        <ele>295.74</ele>
        <time>2014-03-22T17:05:58Z</time>
      </trkpt>
      <trkpt lat="41.594233925" lon="2.453517893">
        <ele>294.78</ele>
        <time>2014-03-22T17:06:03Z</time>
      </trkpt>
      <trkpt lat="41.594003088" lon="2.453459388">
        <ele>293.34</ele>
        <time>2014-03-22T17:06:08Z</time>
      </trkpt>
      <trkpt lat="41.593951539" lon="2.453436338">
        <ele>292.38</ele>
        <time>2014-03-22T17:06:09Z</time>
      </trkpt>
      <trkpt lat="41.593737884" lon="2.453493167">
        <ele>290.46</ele>
        <time>2014-03-22T17:06:13Z</time>
      </trkpt>
      <trkpt lat="41.593531522" lon="2.453661140">
        <ele>289.01</ele>
        <time>2014-03-22T17:06:17Z</time>
      </trkpt>
      <trkpt lat="41.593322980" lon="2.453776391">
        <ele>287.09</ele>
        <time>2014-03-22T17:06:21Z</time>
      </trkpt>
      <trkpt lat="41.593097675" lon="2.453743953">
        <ele>284.21</ele>
        <time>2014-03-22T17:06:25Z</time>
      </trkpt>
      <trkpt lat="41.593047718" lon="2.453711180">
        <ele>283.73</ele>
        <time>2014-03-22T17:06:26Z</time>
      </trkpt>
      <trkpt lat="41.592805062" lon="2.453423094">
        <ele>278.92</ele>
        <time>2014-03-22T17:06:33Z</time>
      </trkpt>
      <trkpt lat="41.592710766" lon="2.453402056">
        <ele>278.44</ele>
        <time>2014-03-22T17:06:38Z</time>
      </trkpt>
      <trkpt lat="41.592695679" lon="2.453600204">
        <ele>277.00</ele>
        <time>2014-03-22T17:06:43Z</time>
      </trkpt>
      <trkpt lat="41.592726356" lon="2.453731129">
        <ele>275.56</ele>
        <time>2014-03-22T17:06:45Z</time>
      </trkpt>
      <trkpt lat="41.592784108" lon="2.453984430">
        <ele>271.71</ele>
        <time>2014-03-22T17:06:49Z</time>
      </trkpt>
      <trkpt lat="41.592690146" lon="2.454144022">
        <ele>268.35</ele>
        <time>2014-03-22T17:06:54Z</time>
      </trkpt>
      <trkpt lat="41.592476073" lon="2.454074619">
        <ele>264.98</ele>
        <time>2014-03-22T17:06:58Z</time>
      </trkpt>
      <trkpt lat="41.592429134" lon="2.454037488">
        <ele>264.50</ele>
        <time>2014-03-22T17:06:59Z</time>
      </trkpt>
      <trkpt lat="41.592242804" lon="2.453663822">
        <ele>259.21</ele>
        <time>2014-03-22T17:07:07Z</time>
      </trkpt>
      <trkpt lat="41.592181197" lon="2.453563659">
        <ele>257.29</ele>
        <time>2014-03-22T17:07:12Z</time>
      </trkpt>
      <trkpt lat="41.592143898" lon="2.453482019">
        <ele>255.37</ele>
        <time>2014-03-22T17:07:15Z</time>
      </trkpt>
      <trkpt lat="41.591989419" lon="2.453277668">
        <ele>252.00</ele>
        <time>2014-03-22T17:07:19Z</time>
      </trkpt>
      <trkpt lat="41.591892860" lon="2.453152526">
        <ele>249.60</ele>
        <time>2014-03-22T17:07:22Z</time>
      </trkpt>
      <trkpt lat="41.591888501" lon="2.452831583">
        <ele>247.68</ele>
        <time>2014-03-22T17:07:29Z</time>
      </trkpt>
      <trkpt lat="41.591954886" lon="2.452738460">
        <ele>246.72</ele>
        <time>2014-03-22T17:07:32Z</time>
      </trkpt>
      <trkpt lat="41.591946672" lon="2.452637794">
        <ele>245.27</ele>
        <time>2014-03-22T17:07:37Z</time>
      </trkpt>
      <trkpt lat="41.591928734" lon="2.452618096">
        <ele>244.79</ele>
        <time>2014-03-22T17:07:39Z</time>
      </trkpt>
      <trkpt lat="41.591800910" lon="2.452547018">
        <ele>241.91</ele>
        <time>2014-03-22T17:07:45Z</time>
      </trkpt>
      <trkpt lat="41.591694293" lon="2.452420283">
        <ele>238.06</ele>
        <time>2014-03-22T17:07:50Z</time>
      </trkpt>
      <trkpt lat="41.591673338" lon="2.452392539">
        <ele>238.06</ele>
        <time>2014-03-22T17:07:51Z</time>
      </trkpt>
      <trkpt lat="41.591662441" lon="2.452261781">
        <ele>237.10</ele>
        <time>2014-03-22T17:07:55Z</time>
      </trkpt>
      <trkpt lat="41.591723378" lon="2.451999009">
        <ele>236.14</ele>
        <time>2014-03-22T17:08:01Z</time>
      </trkpt>
      <trkpt lat="41.591757744" lon="2.451771356">
        <ele>235.18</ele>
        <time>2014-03-22T17:08:05Z</time>
      </trkpt>
      <trkpt lat="41.591735699" lon="2.451575136">
        <ele>233.26</ele>
        <time>2014-03-22T17:08:09Z</time>
      </trkpt>
      <trkpt lat="41.591717510" lon="2.451398529">
        <ele>231.81</ele>
        <time>2014-03-22T17:08:12Z</time>
      </trkpt>
      <trkpt lat="41.591735280" lon="2.451274393">
        <ele>231.33</ele>
        <time>2014-03-22T17:08:14Z</time>
      </trkpt>
      <trkpt lat="41.591799737" lon="2.450696377">
        <ele>229.89</ele>
        <time>2014-03-22T17:08:23Z</time>
      </trkpt>
      <trkpt lat="41.591865786" lon="2.450185835">
        <ele>227.01</ele>
        <time>2014-03-22T17:08:30Z</time>
      </trkpt>
      <trkpt lat="41.591921694" lon="2.449789874">
        <ele>225.57</ele>
        <time>2014-03-22T17:08:37Z</time>
      </trkpt>
      <trkpt lat="41.591907109" lon="2.449590720">
        <ele>224.12</ele>
        <time>2014-03-22T17:08:41Z</time>
      </trkpt>
      <trkpt lat="41.591892105" lon="2.449519390">
        <ele>223.64</ele>
        <time>2014-03-22T17:08:43Z</time>
      </trkpt>
      <trkpt lat="41.591907025" lon="2.449452503">
        <ele>223.16</ele>
        <time>2014-03-22T17:08:49Z</time>
      </trkpt>
      <trkpt lat="41.592012470" lon="2.449413695">
        <ele>223.16</ele>
        <time>2014-03-22T17:08:56Z</time>
      </trkpt>
      <trkpt lat="41.592112214" lon="2.449402044">
        <ele>224.61</ele>
        <time>2014-03-22T17:09:01Z</time>
      </trkpt>
      <trkpt lat="41.592246576" lon="2.449405145">
        <ele>225.57</ele>
        <time>2014-03-22T17:09:07Z</time>
      </trkpt>
      <trkpt lat="41.592384375" lon="2.449403469">
        <ele>227.01</ele>
        <time>2014-03-22T17:09:14Z</time>
      </trkpt>
      <trkpt lat="41.592561652" lon="2.449407073">
        <ele>228.93</ele>
        <time>2014-03-22T17:09:23Z</time>
      </trkpt>
      <trkpt lat="41.592715460" lon="2.449405983">
        <ele>230.85</ele>
        <time>2014-03-22T17:09:31Z</time>
      </trkpt>
      <trkpt lat="41.592898772" lon="2.449415874">
        <ele>232.78</ele>
        <time>2014-03-22T17:09:41Z</time>
      </trkpt>
      <trkpt lat="41.593095328" lon="2.449469602">
        <ele>234.70</ele>
        <time>2014-03-22T17:09:51Z</time>
      </trkpt>
      <trkpt lat="41.593229522" lon="2.449546883">
        <ele>236.62</ele>
        <time>2014-03-22T17:09:59Z</time>
      </trkpt>
      <trkpt lat="41.593362375" lon="2.449606395">
        <ele>238.06</ele>
        <time>2014-03-22T17:10:07Z</time>
      </trkpt>
      <trkpt lat="41.593499671" lon="2.449654674">
        <ele>239.51</ele>
        <time>2014-03-22T17:10:15Z</time>
      </trkpt>
      <trkpt lat="41.593612072" lon="2.449692477">
        <ele>240.47</ele>
        <time>2014-03-22T17:10:21Z</time>
      </trkpt>
      <trkpt lat="41.593814579" lon="2.449740086">
        <ele>242.39</ele>
        <time>2014-03-22T17:10:32Z</time>
      </trkpt>
      <trkpt lat="41.593873504" lon="2.449764645">
        <ele>243.35</ele>
        <time>2014-03-22T17:10:36Z</time>
      </trkpt>
      <trkpt lat="41.593947348" lon="2.449719634">
        <ele>244.31</ele>
        <time>2014-03-22T17:10:41Z</time>
      </trkpt>
      <trkpt lat="41.593952377" lon="2.449482761">
        <ele>245.27</ele>
        <time>2014-03-22T17:10:51Z</time>
      </trkpt>
      <trkpt lat="41.593932764" lon="2.449350830">
        <ele>246.23</ele>
        <time>2014-03-22T17:10:58Z</time>
      </trkpt>
      <trkpt lat="41.593921364" lon="2.449228035">
        <ele>247.68</ele>
        <time>2014-03-22T17:11:06Z</time>
      </trkpt>
      <trkpt lat="41.593892111" lon="2.449081855">
        <ele>249.60</ele>
        <time>2014-03-22T17:11:14Z</time>
      </trkpt>
      <trkpt lat="41.593854309" lon="2.448926874">
        <ele>250.56</ele>
        <time>2014-03-22T17:11:20Z</time>
      </trkpt>
      <trkpt lat="41.593772418" lon="2.448758816">
        <ele>251.52</ele>
        <time>2014-03-22T17:11:29Z</time>
      </trkpt>
      <trkpt lat="41.593679463" lon="2.448655719">
        <ele>252.96</ele>
        <time>2014-03-22T17:11:37Z</time>
      </trkpt>
      <trkpt lat="41.593602181" lon="2.448574918">
        <ele>254.41</ele>
        <time>2014-03-22T17:11:44Z</time>
      </trkpt>
      <trkpt lat="41.593594638" lon="2.448567122">
        <ele>254.41</ele>
        <time>2014-03-22T17:11:45Z</time>
      </trkpt>
      <trkpt lat="41.593533617" lon="2.448454134">
        <ele>256.81</ele>
        <time>2014-03-22T17:11:55Z</time>
      </trkpt>
      <trkpt lat="41.593482739" lon="2.448311139">
        <ele>256.81</ele>
        <time>2014-03-22T17:12:03Z</time>
      </trkpt>
      <trkpt lat="41.593418953" lon="2.448114919">
        <ele>258.73</ele>
        <time>2014-03-22T17:12:12Z</time>
      </trkpt>
      <trkpt lat="41.593356256" lon="2.447934624">
        <ele>259.69</ele>
        <time>2014-03-22T17:12:20Z</time>
      </trkpt>
      <trkpt lat="41.593385593" lon="2.447792383">
        <ele>260.17</ele>
        <time>2014-03-22T17:12:27Z</time>
      </trkpt>
      <trkpt lat="41.593444434" lon="2.447754497">
        <ele>261.14</ele>
        <time>2014-03-22T17:12:31Z</time>
      </trkpt>
      <trkpt lat="41.593565217" lon="2.447711246">
        <ele>261.62</ele>
        <time>2014-03-22T17:12:39Z</time>
      </trkpt>
      <trkpt lat="41.593701339" lon="2.447691046">
        <ele>262.10</ele>
        <time>2014-03-22T17:12:47Z</time>
      </trkpt>
      <trkpt lat="41.593882807" lon="2.447663218">
        <ele>263.06</ele>
        <time>2014-03-22T17:12:58Z</time>
      </trkpt>
      <trkpt lat="41.594054050" lon="2.447630612">
        <ele>263.54</ele>
        <time>2014-03-22T17:13:08Z</time>
      </trkpt>
      <trkpt lat="41.594178605" lon="2.447635222">
        <ele>264.02</ele>
        <time>2014-03-22T17:13:16Z</time>
      </trkpt>
      <trkpt lat="41.594260412" lon="2.447668918">
        <ele>264.50</ele>
        <time>2014-03-22T17:13:22Z</time>
      </trkpt>
      <trkpt lat="41.594291090" lon="2.447667744">
        <ele>264.98</ele>
        <time>2014-03-22T17:13:25Z</time>
      </trkpt>
      <trkpt lat="41.594443305" lon="2.447717030">
        <ele>264.98</ele>
        <time>2014-03-22T17:13:35Z</time>
      </trkpt>
      <trkpt lat="41.594478174" lon="2.447721807">
        <ele>265.94</ele>
        <time>2014-03-22T17:13:37Z</time>
      </trkpt>
      <trkpt lat="41.594604489" lon="2.447782911">
        <ele>265.94</ele>
        <time>2014-03-22T17:13:44Z</time>
      </trkpt>
      <trkpt lat="41.594624103" lon="2.447791042">
        <ele>265.94</ele>
        <time>2014-03-22T17:13:45Z</time>
      </trkpt>
      <trkpt lat="41.594787215" lon="2.447789282">
        <ele>265.94</ele>
        <time>2014-03-22T17:13:53Z</time>
      </trkpt>
      <trkpt lat="41.594928115" lon="2.447760951">
        <ele>266.42</ele>
        <time>2014-03-22T17:13:59Z</time>
      </trkpt>
      <trkpt lat="41.595016208" lon="2.447589960">
        <ele>266.42</ele>
        <time>2014-03-22T17:14:05Z</time>
      </trkpt>
      <trkpt lat="41.595057112" lon="2.447321488">
        <ele>266.42</ele>
        <time>2014-03-22T17:14:12Z</time>
      </trkpt>
      <trkpt lat="41.595116456" lon="2.447092662">
        <ele>266.42</ele>
        <time>2014-03-22T17:14:20Z</time>
      </trkpt>
      <trkpt lat="41.595087371" lon="2.446950002">
        <ele>266.42</ele>
        <time>2014-03-22T17:14:26Z</time>
      </trkpt>
      <trkpt lat="41.595084353" lon="2.446872637">
        <ele>266.42</ele>
        <time>2014-03-22T17:14:33Z</time>
      </trkpt>
      <trkpt lat="41.595075468" lon="2.446804827">
        <ele>266.42</ele>
        <time>2014-03-22T17:14:47Z</time>
      </trkpt>
      <trkpt lat="41.595070104" lon="2.446780604">
        <ele>266.42</ele>
        <time>2014-03-22T17:14:50Z</time>
      </trkpt>
      <trkpt lat="41.595041103" lon="2.446713716">
        <ele>266.42</ele>
        <time>2014-03-22T17:14:53Z</time>
      </trkpt>
      <trkpt lat="41.594962648" lon="2.446465360">
        <ele>264.02</ele>
        <time>2014-03-22T17:14:59Z</time>
      </trkpt>
      <trkpt lat="41.594949824" lon="2.446416494">
        <ele>264.02</ele>
        <time>2014-03-22T17:15:00Z</time>
      </trkpt>
      <trkpt lat="41.594887379" lon="2.446124384">
        <ele>262.58</ele>
        <time>2014-03-22T17:15:05Z</time>
      </trkpt>
      <trkpt lat="41.594756369" lon="2.445582159">
        <ele>261.14</ele>
        <time>2014-03-22T17:15:13Z</time>
      </trkpt>
      <trkpt lat="41.594602478" lon="2.445170105">
        <ele>256.81</ele>
        <time>2014-03-22T17:15:19Z</time>
      </trkpt>
      <trkpt lat="41.594566436" lon="2.444885455">
        <ele>254.41</ele>
        <time>2014-03-22T17:15:23Z</time>
      </trkpt>
      <trkpt lat="41.594576075" lon="2.444701137">
        <ele>254.41</ele>
        <time>2014-03-22T17:15:26Z</time>
      </trkpt>
      <trkpt lat="41.594546822" lon="2.444167629">
        <ele>253.44</ele>
        <time>2014-03-22T17:15:35Z</time>
      </trkpt>
      <trkpt lat="41.594527460" lon="2.444044164">
        <ele>252.96</ele>
        <time>2014-03-22T17:15:37Z</time>
      </trkpt>
      <trkpt lat="41.594464428" lon="2.443807710">
        <ele>252.48</ele>
        <time>2014-03-22T17:15:41Z</time>
      </trkpt>
      <trkpt lat="41.594367784" lon="2.443614423">
        <ele>252.48</ele>
        <time>2014-03-22T17:15:45Z</time>
      </trkpt>
      <trkpt lat="41.594253958" lon="2.443452820">
        <ele>252.00</ele>
        <time>2014-03-22T17:15:48Z</time>
      </trkpt>
      <trkpt lat="41.593996550" lon="2.442819232">
        <ele>248.64</ele>
        <time>2014-03-22T17:15:56Z</time>
      </trkpt>
      <trkpt lat="41.593973919" lon="2.442723846">
        <ele>248.16</ele>
        <time>2014-03-22T17:15:57Z</time>
      </trkpt>
      <trkpt lat="41.593942151" lon="2.442053294">
        <ele>245.75</ele>
        <time>2014-03-22T17:16:04Z</time>
      </trkpt>
      <trkpt lat="41.593916251" lon="2.441614920">
        <ele>242.87</ele>
        <time>2014-03-22T17:16:09Z</time>
      </trkpt>
      <trkpt lat="41.593913150" lon="2.441530766">
        <ele>242.39</ele>
        <time>2014-03-22T17:16:10Z</time>
      </trkpt>
      <trkpt lat="41.593857243" lon="2.441298084">
        <ele>240.47</ele>
        <time>2014-03-22T17:16:13Z</time>
      </trkpt>
      <trkpt lat="41.593760348" lon="2.441042688">
        <ele>237.10</ele>
        <time>2014-03-22T17:16:17Z</time>
      </trkpt>
      <trkpt lat="41.593809214" lon="2.440918384">
        <ele>236.62</ele>
        <time>2014-03-22T17:16:21Z</time>
      </trkpt>
      <trkpt lat="41.593910216" lon="2.440892568">
        <ele>236.62</ele>
        <time>2014-03-22T17:16:25Z</time>
      </trkpt>
      <trkpt lat="41.594111885" lon="2.440903716">
        <ele>238.54</ele>
        <time>2014-03-22T17:16:35Z</time>
      </trkpt>
      <trkpt lat="41.594230740" lon="2.441003880">
        <ele>239.02</ele>
        <time>2014-03-22T17:16:42Z</time>
      </trkpt>
      <trkpt lat="41.594350518" lon="2.441153497">
        <ele>239.51</ele>
        <time>2014-03-22T17:16:50Z</time>
      </trkpt>
      <trkpt lat="41.594417489" lon="2.441311915">
        <ele>239.99</ele>
        <time>2014-03-22T17:16:54Z</time>
      </trkpt>
      <trkpt lat="41.594492842" lon="2.441498496">
        <ele>237.58</ele>
        <time>2014-03-22T17:16:57Z</time>
      </trkpt>
      <trkpt lat="41.594528633" lon="2.441562031">
        <ele>237.58</ele>
        <time>2014-03-22T17:16:58Z</time>
      </trkpt>
      <trkpt lat="41.594682273" lon="2.441747606">
        <ele>236.62</ele>
        <time>2014-03-22T17:17:01Z</time>
      </trkpt>
      <trkpt lat="41.594789059" lon="2.441888338">
        <ele>236.14</ele>
        <time>2014-03-22T17:17:03Z</time>
      </trkpt>
      <trkpt lat="41.595069098" lon="2.442169635">
        <ele>233.26</ele>
        <time>2014-03-22T17:17:08Z</time>
      </trkpt>
      <trkpt lat="41.595182841" lon="2.442271978">
        <ele>231.81</ele>
        <time>2014-03-22T17:17:10Z</time>
      </trkpt>
      <trkpt lat="41.595397920" lon="2.442428468">
        <ele>229.41</ele>
        <time>2014-03-22T17:17:14Z</time>
      </trkpt>
      <trkpt lat="41.595485008" lon="2.442680260">
        <ele>226.53</ele>
        <time>2014-03-22T17:17:18Z</time>
      </trkpt>
      <trkpt lat="41.595502443" lon="2.442904811">
        <ele>225.09</ele>
        <time>2014-03-22T17:17:21Z</time>
      </trkpt>
      <trkpt lat="41.595626327" lon="2.443024254">
        <ele>223.64</ele>
        <time>2014-03-22T17:17:24Z</time>
      </trkpt>
      <trkpt lat="41.595688353" lon="2.443028528">
        <ele>223.64</ele>
        <time>2014-03-22T17:17:25Z</time>
      </trkpt>
      <trkpt lat="41.595917179" lon="2.442991899">
        <ele>222.68</ele>
        <time>2014-03-22T17:17:29Z</time>
      </trkpt>
      <trkpt lat="41.596108203" lon="2.443059122">
        <ele>220.76</ele>
        <time>2014-03-22T17:17:33Z</time>
      </trkpt>
      <trkpt lat="41.596233848" lon="2.443216870">
        <ele>219.32</ele>
        <time>2014-03-22T17:17:36Z</time>
      </trkpt>
      <trkpt lat="41.596456638" lon="2.443355423">
        <ele>217.88</ele>
        <time>2014-03-22T17:17:40Z</time>
      </trkpt>
      <trkpt lat="41.596817060" lon="2.443474362">
        <ele>214.03</ele>
        <time>2014-03-22T17:17:46Z</time>
      </trkpt>
      <trkpt lat="41.597246717" lon="2.443572682">
        <ele>210.19</ele>
        <time>2014-03-22T17:17:52Z</time>
      </trkpt>
      <trkpt lat="41.597321735" lon="2.443594558">
        <ele>210.19</ele>
        <time>2014-03-22T17:17:53Z</time>
      </trkpt>
      <trkpt lat="41.597571096" lon="2.443702517">
        <ele>209.70</ele>
        <time>2014-03-22T17:17:57Z</time>
      </trkpt>
      <trkpt lat="41.597825739" lon="2.443831934">
        <ele>209.22</ele>
        <time>2014-03-22T17:18:04Z</time>
      </trkpt>
      <trkpt lat="41.597963118" lon="2.443851464">
        <ele>211.63</ele>
        <time>2014-03-22T17:18:11Z</time>
      </trkpt>
      <trkpt lat="41.598104353" lon="2.443921033">
        <ele>213.07</ele>
        <time>2014-03-22T17:18:20Z</time>
      </trkpt>
      <trkpt lat="41.598275260" lon="2.443962356">
        <ele>215.47</ele>
        <time>2014-03-22T17:18:31Z</time>
      </trkpt>
      <trkpt lat="41.598414903" lon="2.444010552">
        <ele>217.40</ele>
        <time>2014-03-22T17:18:40Z</time>
      </trkpt>
      <trkpt lat="41.598463350" lon="2.444007618">
        <ele>217.88</ele>
        <time>2014-03-22T17:18:43Z</time>
      </trkpt>
      <trkpt lat="41.598550606" lon="2.444037877">
        <ele>219.32</ele>
        <time>2014-03-22T17:18:49Z</time>
      </trkpt>
      <trkpt lat="41.598746155" lon="2.444112392">
        <ele>222.20</ele>
        <time>2014-03-22T17:19:03Z</time>
      </trkpt>
      <trkpt lat="41.598847325" lon="2.444141980">
        <ele>223.64</ele>
        <time>2014-03-22T17:19:11Z</time>
      </trkpt>
      <trkpt lat="41.598936425" lon="2.444188165">
        <ele>225.57</ele>
        <time>2014-03-22T17:19:18Z</time>
      </trkpt>
      <trkpt lat="41.598961989" lon="2.444207695">
        <ele>225.57</ele>
        <time>2014-03-22T17:19:20Z</time>
      </trkpt>
      <trkpt lat="41.599042959" lon="2.444224794">
        <ele>226.53</ele>
        <time>2014-03-22T17:19:26Z</time>
      </trkpt>
      <trkpt lat="41.599098028" lon="2.444314145">
        <ele>227.01</ele>
        <time>2014-03-22T17:19:32Z</time>
      </trkpt>
      <trkpt lat="41.599171621" lon="2.444513047">
        <ele>227.97</ele>
        <time>2014-03-22T17:19:41Z</time>
      </trkpt>
      <trkpt lat="41.599275053" lon="2.444839439">
        <ele>228.45</ele>
        <time>2014-03-22T17:19:53Z</time>
      </trkpt>
      <trkpt lat="41.599357196" lon="2.445107073">
        <ele>228.93</ele>
        <time>2014-03-22T17:20:02Z</time>
      </trkpt>
      <trkpt lat="41.599435399" lon="2.445384095">
        <ele>229.41</ele>
        <time>2014-03-22T17:20:11Z</time>
      </trkpt>
      <trkpt lat="41.599513770" lon="2.445631445">
        <ele>230.37</ele>
        <time>2014-03-22T17:20:19Z</time>
      </trkpt>
      <trkpt lat="41.599665650" lon="2.445971247">
        <ele>230.37</ele>
        <time>2014-03-22T17:20:28Z</time>
      </trkpt>
      <trkpt lat="41.599777046" lon="2.446231421">
        <ele>228.93</ele>
        <time>2014-03-22T17:20:33Z</time>
      </trkpt>
      <trkpt lat="41.599816273" lon="2.446348181">
        <ele>228.45</ele>
        <time>2014-03-22T17:20:35Z</time>
      </trkpt>
      <trkpt lat="41.600033699" lon="2.446563345">
        <ele>228.45</ele>
        <time>2014-03-22T17:20:41Z</time>
      </trkpt>
      <trkpt lat="41.600422285" lon="2.446603913">
        <ele>227.49</ele>
        <time>2014-03-22T17:20:49Z</time>
      </trkpt>
      <trkpt lat="41.600676256" lon="2.446622940">
        <ele>227.49</ele>
        <time>2014-03-22T17:20:56Z</time>
      </trkpt>
      <trkpt lat="41.600805924" lon="2.446790327">
        <ele>228.45</ele>
        <time>2014-03-22T17:21:02Z</time>
      </trkpt>
      <trkpt lat="41.600895527" lon="2.447082855">
        <ele>228.93</ele>
        <time>2014-03-22T17:21:09Z</time>
      </trkpt>
      <trkpt lat="41.600974065" lon="2.447354764">
        <ele>229.89</ele>
        <time>2014-03-22T17:21:16Z</time>
      </trkpt>
      <trkpt lat="41.601076157" lon="2.447679311">
        <ele>230.85</ele>
        <time>2014-03-22T17:21:25Z</time>
      </trkpt>
      <trkpt lat="41.601186882" lon="2.447796574">
        <ele>230.85</ele>
        <time>2014-03-22T17:21:29Z</time>
      </trkpt>
      <trkpt lat="41.601295679" lon="2.448020622">
        <ele>230.85</ele>
        <time>2014-03-22T17:21:33Z</time>
      </trkpt>
      <trkpt lat="41.601383354" lon="2.448117852">
        <ele>229.41</ele>
        <time>2014-03-22T17:21:35Z</time>
      </trkpt>
      <trkpt lat="41.601474381" lon="2.448306864">
        <ele>227.01</ele>
        <time>2014-03-22T17:21:38Z</time>
      </trkpt>
      <trkpt lat="41.601478656" lon="2.448456062">
        <ele>227.01</ele>
        <time>2014-03-22T17:21:40Z</time>
      </trkpt>
      <trkpt lat="41.601463317" lon="2.448585395">
        <ele>227.01</ele>
        <time>2014-03-22T17:21:42Z</time>
      </trkpt>
      <trkpt lat="41.601482511" lon="2.448788824">
        <ele>226.53</ele>
        <time>2014-03-22T17:21:46Z</time>
      </trkpt>
      <trkpt lat="41.601602205" lon="2.449169362">
        <ele>226.53</ele>
        <time>2014-03-22T17:21:56Z</time>
      </trkpt>
      <trkpt lat="41.601625674" lon="2.449234657">
        <ele>227.97</ele>
        <time>2014-03-22T17:21:58Z</time>
      </trkpt>
      <trkpt lat="41.601742183" lon="2.449540261">
        <ele>228.45</ele>
        <time>2014-03-22T17:22:07Z</time>
      </trkpt>
      <trkpt lat="41.601806221" lon="2.449772608">
        <ele>228.93</ele>
        <time>2014-03-22T17:22:13Z</time>
      </trkpt>
      <trkpt lat="41.601799264" lon="2.449993806">
        <ele>228.93</ele>
        <time>2014-03-22T17:22:19Z</time>
      </trkpt>
      <trkpt lat="41.601841257" lon="2.450185333">
        <ele>229.41</ele>
        <time>2014-03-22T17:22:25Z</time>
      </trkpt>
      <trkpt lat="41.601929267" lon="2.450445255">
        <ele>229.41</ele>
        <time>2014-03-22T17:22:33Z</time>
      </trkpt>
      <trkpt lat="41.602000429" lon="2.450746166">
        <ele>231.33</ele>
        <time>2014-03-22T17:22:41Z</time>
      </trkpt>
      <trkpt lat="41.602065138" lon="2.451094015">
        <ele>231.81</ele>
        <time>2014-03-22T17:22:50Z</time>
      </trkpt>
      <trkpt lat="41.602241241" lon="2.451547057">
        <ele>231.81</ele>
        <time>2014-03-22T17:22:59Z</time>
      </trkpt>
      <trkpt lat="41.602303519" lon="2.451779068">
        <ele>230.37</ele>
        <time>2014-03-22T17:23:04Z</time>
      </trkpt>
      <trkpt lat="41.602372670" lon="2.451976881">
        <ele>229.89</ele>
        <time>2014-03-22T17:23:08Z</time>
      </trkpt>
      <trkpt lat="41.602510049" lon="2.452144100">
        <ele>229.41</ele>
        <time>2014-03-22T17:23:12Z</time>
      </trkpt>
      <trkpt lat="41.602685734" lon="2.452353899">
        <ele>228.45</ele>
        <time>2014-03-22T17:23:17Z</time>
      </trkpt>
      <trkpt lat="41.602872734" lon="2.452669645">
        <ele>227.97</ele>
        <time>2014-03-22T17:23:24Z</time>
      </trkpt>
      <trkpt lat="41.602970048" lon="2.452861926">
        <ele>227.49</ele>
        <time>2014-03-22T17:23:28Z</time>
      </trkpt>
      <trkpt lat="41.603153360" lon="2.453036269">
        <ele>227.01</ele>
        <time>2014-03-22T17:23:34Z</time>
      </trkpt>
      <trkpt lat="41.603292500" lon="2.453021517">
        <ele>228.45</ele>
        <time>2014-03-22T17:23:40Z</time>
      </trkpt>
      <trkpt lat="41.603530378" lon="2.452994779">
        <ele>230.37</ele>
        <time>2014-03-22T17:23:51Z</time>
      </trkpt>
      <trkpt lat="41.603616963" lon="2.453024702">
        <ele>230.85</ele>
        <time>2014-03-22T17:23:56Z</time>
      </trkpt>
      <trkpt lat="41.603752079" lon="2.453105336">
        <ele>231.33</ele>
        <time>2014-03-22T17:24:04Z</time>
      </trkpt>
      <trkpt lat="41.603866911" lon="2.453276830">
        <ele>232.30</ele>
        <time>2014-03-22T17:24:12Z</time>
      </trkpt>
      <trkpt lat="41.603941343" lon="2.453487551">
        <ele>232.30</ele>
        <time>2014-03-22T17:24:20Z</time>
      </trkpt>
      <trkpt lat="41.604009907" lon="2.453704978">
        <ele>232.78</ele>
        <time>2014-03-22T17:24:28Z</time>
      </trkpt>
      <trkpt lat="41.604027341" lon="2.453957189">
        <ele>232.78</ele>
        <time>2014-03-22T17:24:34Z</time>
      </trkpt>
      <trkpt lat="41.603966572" lon="2.454229433">
        <ele>233.74</ele>
        <time>2014-03-22T17:24:41Z</time>
      </trkpt>
      <trkpt lat="41.603911168" lon="2.454511652">
        <ele>235.18</ele>
        <time>2014-03-22T17:24:49Z</time>
      </trkpt>
      <trkpt lat="41.603930111" lon="2.454725642">
        <ele>236.14</ele>
        <time>2014-03-22T17:24:56Z</time>
      </trkpt>
      <trkpt lat="41.603997921" lon="2.454992857">
        <ele>236.14</ele>
        <time>2014-03-22T17:25:05Z</time>
      </trkpt>
      <trkpt lat="41.604065143" lon="2.455187988">
        <ele>236.14</ele>
        <time>2014-03-22T17:25:12Z</time>
      </trkpt>
      <trkpt lat="41.604181820" lon="2.455401307">
        <ele>236.14</ele>
        <time>2014-03-22T17:25:19Z</time>
      </trkpt>
      <trkpt lat="41.604314002" lon="2.455593001">
        <ele>236.14</ele>
        <time>2014-03-22T17:25:26Z</time>
      </trkpt>
      <trkpt lat="41.604441575" lon="2.455716550">
        <ele>237.10</ele>
        <time>2014-03-22T17:25:33Z</time>
      </trkpt>
      <trkpt lat="41.604556407" lon="2.455784444">
        <ele>238.06</ele>
        <time>2014-03-22T17:25:39Z</time>
      </trkpt>
      <trkpt lat="41.604711556" lon="2.455863318">
        <ele>238.54</ele>
        <time>2014-03-22T17:25:47Z</time>
      </trkpt>
      <trkpt lat="41.604882966" lon="2.455968594">
        <ele>240.47</ele>
        <time>2014-03-22T17:25:55Z</time>
      </trkpt>
      <trkpt lat="41.604953793" lon="2.456044870">
        <ele>241.43</ele>
        <time>2014-03-22T17:26:01Z</time>
      </trkpt>
      <trkpt lat="41.605041048" lon="2.456174119">
        <ele>243.83</ele>
        <time>2014-03-22T17:26:09Z</time>
      </trkpt>
      <trkpt lat="41.605096118" lon="2.456267493">
        <ele>244.79</ele>
        <time>2014-03-22T17:26:14Z</time>
      </trkpt>
      <trkpt lat="41.605165352" lon="2.456419708">
        <ele>245.75</ele>
        <time>2014-03-22T17:26:22Z</time>
      </trkpt>
      <trkpt lat="41.605202987" lon="2.456576031">
        <ele>246.72</ele>
        <time>2014-03-22T17:26:29Z</time>
      </trkpt>
      <trkpt lat="41.605229893" lon="2.456694719">
        <ele>246.72</ele>
        <time>2014-03-22T17:26:34Z</time>
      </trkpt>
      <trkpt lat="41.605219834" lon="2.456870906">
        <ele>247.20</ele>
        <time>2014-03-22T17:26:41Z</time>
      </trkpt>
      <trkpt lat="41.605210447" lon="2.456954893">
        <ele>247.20</ele>
        <time>2014-03-22T17:26:45Z</time>
      </trkpt>
      <trkpt lat="41.605207262" lon="2.457176929">
        <ele>247.20</ele>
        <time>2014-03-22T17:26:54Z</time>
      </trkpt>
      <trkpt lat="41.605208184" lon="2.457400810">
        <ele>247.68</ele>
        <time>2014-03-22T17:27:01Z</time>
      </trkpt>
      <trkpt lat="41.605235090" lon="2.457571047">
        <ele>247.68</ele>
        <time>2014-03-22T17:27:06Z</time>
      </trkpt>
      <trkpt lat="41.605296277" lon="2.457814541">
        <ele>247.68</ele>
        <time>2014-03-22T17:27:13Z</time>
      </trkpt>
      <trkpt lat="41.605359728" lon="2.458052000">
        <ele>247.68</ele>
        <time>2014-03-22T17:27:20Z</time>
      </trkpt>
      <trkpt lat="41.605441536" lon="2.458338075">
        <ele>248.16</ele>
        <time>2014-03-22T17:27:27Z</time>
      </trkpt>
      <trkpt lat="41.605512950" lon="2.458607301">
        <ele>248.16</ele>
        <time>2014-03-22T17:27:35Z</time>
      </trkpt>
      <trkpt lat="41.605538933" lon="2.458888095">
        <ele>248.16</ele>
        <time>2014-03-22T17:27:43Z</time>
      </trkpt>
      <trkpt lat="41.605544130" lon="2.459141396">
        <ele>248.64</ele>
        <time>2014-03-22T17:27:50Z</time>
      </trkpt>
      <trkpt lat="41.605569527" lon="2.459362595">
        <ele>248.64</ele>
        <time>2014-03-22T17:27:56Z</time>
      </trkpt>
      <trkpt lat="41.605691652" lon="2.459660906">
        <ele>248.64</ele>
        <time>2014-03-22T17:28:04Z</time>
      </trkpt>
      <trkpt lat="41.605778488" lon="2.459923512">
        <ele>248.64</ele>
        <time>2014-03-22T17:28:11Z</time>
      </trkpt>
      <trkpt lat="41.605849734" lon="2.460173376">
        <ele>248.64</ele>
        <time>2014-03-22T17:28:18Z</time>
      </trkpt>
      <trkpt lat="41.605900445" lon="2.460312935">
        <ele>248.64</ele>
        <time>2014-03-22T17:28:22Z</time>
      </trkpt>
      <trkpt lat="41.605991640" lon="2.460629771">
        <ele>248.64</ele>
        <time>2014-03-22T17:28:31Z</time>
      </trkpt>
      <trkpt lat="41.606063305" lon="2.460821297">
        <ele>248.64</ele>
        <time>2014-03-22T17:28:37Z</time>
      </trkpt>
      <trkpt lat="41.606187609" lon="2.461031431">
        <ele>249.60</ele>
        <time>2014-03-22T17:28:44Z</time>
      </trkpt>
      <trkpt lat="41.606274110" lon="2.461199321">
        <ele>249.60</ele>
        <time>2014-03-22T17:28:50Z</time>
      </trkpt>
      <trkpt lat="41.606356504" lon="2.461416496">
        <ele>250.56</ele>
        <time>2014-03-22T17:28:58Z</time>
      </trkpt>
      <trkpt lat="41.606410149" lon="2.461534849">
        <ele>251.04</ele>
        <time>2014-03-22T17:29:02Z</time>
      </trkpt>
      <trkpt lat="41.606513414" lon="2.461746743">
        <ele>252.00</ele>
        <time>2014-03-22T17:29:10Z</time>
      </trkpt>
      <trkpt lat="41.606607626" lon="2.461930391">
        <ele>253.44</ele>
        <time>2014-03-22T17:29:18Z</time>
      </trkpt>
      <trkpt lat="41.606768475" lon="2.462101298">
        <ele>253.93</ele>
        <time>2014-03-22T17:29:26Z</time>
      </trkpt>
      <trkpt lat="41.606922115" lon="2.462178327">
        <ele>254.41</ele>
        <time>2014-03-22T17:29:33Z</time>
      </trkpt>
      <trkpt lat="41.607120096" lon="2.462259045">
        <ele>255.37</ele>
        <time>2014-03-22T17:29:41Z</time>
      </trkpt>
      <trkpt lat="41.607237442" lon="2.462354766">
        <ele>255.85</ele>
        <time>2014-03-22T17:29:46Z</time>
      </trkpt>
      <trkpt lat="41.607389155" lon="2.462460378">
        <ele>256.33</ele>
        <time>2014-03-22T17:29:52Z</time>
      </trkpt>
      <trkpt lat="41.607581352" lon="2.462706052">
        <ele>256.81</ele>
        <time>2014-03-22T17:30:02Z</time>
      </trkpt>
      <trkpt lat="41.607724431" lon="2.462901266">
        <ele>257.77</ele>
        <time>2014-03-22T17:30:10Z</time>
      </trkpt>
      <trkpt lat="41.607880502" lon="2.463148449">
        <ele>258.25</ele>
        <time>2014-03-22T17:30:19Z</time>
      </trkpt>
      <trkpt lat="41.607921154" lon="2.463455646">
        <ele>259.21</ele>
        <time>2014-03-22T17:30:28Z</time>
      </trkpt>
      <trkpt lat="41.607916544" lon="2.463761585">
        <ele>259.21</ele>
        <time>2014-03-22T17:30:36Z</time>
      </trkpt>
      <trkpt lat="41.607872204" lon="2.464029806">
        <ele>259.21</ele>
        <time>2014-03-22T17:30:42Z</time>
      </trkpt>
      <trkpt lat="41.607849657" lon="2.464134244">
        <ele>257.77</ele>
        <time>2014-03-22T17:30:44Z</time>
      </trkpt>
      <trkpt lat="41.607849992" lon="2.464370111">
        <ele>257.29</ele>
        <time>2014-03-22T17:30:49Z</time>
      </trkpt>
      <trkpt lat="41.607945378" lon="2.464628693">
        <ele>257.29</ele>
        <time>2014-03-22T17:30:55Z</time>
      </trkpt>
      <trkpt lat="41.608020815" lon="2.464821225">
        <ele>258.73</ele>
        <time>2014-03-22T17:31:01Z</time>
      </trkpt>
      <trkpt lat="41.608030035" lon="2.464847377">
        <ele>258.73</ele>
        <time>2014-03-22T17:31:02Z</time>
      </trkpt>
      <trkpt lat="41.608080327" lon="2.465095313">
        <ele>259.21</ele>
        <time>2014-03-22T17:31:10Z</time>
      </trkpt>
      <trkpt lat="41.608142185" lon="2.465326319">
        <ele>259.21</ele>
        <time>2014-03-22T17:31:18Z</time>
      </trkpt>
      <trkpt lat="41.608224914" lon="2.465555228">
        <ele>259.21</ele>
        <time>2014-03-22T17:31:25Z</time>
      </trkpt>
      <trkpt lat="41.608361539" lon="2.465750778">
        <ele>259.21</ele>
        <time>2014-03-22T17:31:31Z</time>
      </trkpt>
      <trkpt lat="41.608420632" lon="2.465871729">
        <ele>259.21</ele>
        <time>2014-03-22T17:31:35Z</time>
      </trkpt>
      <trkpt lat="41.608514258" lon="2.466097035">
        <ele>260.65</ele>
        <time>2014-03-22T17:31:43Z</time>
      </trkpt>
      <trkpt lat="41.608621295" lon="2.466283532">
        <ele>261.14</ele>
        <time>2014-03-22T17:31:50Z</time>
      </trkpt>
      <trkpt lat="41.608760015" lon="2.466498109">
        <ele>261.14</ele>
        <time>2014-03-22T17:31:58Z</time>
      </trkpt>
      <trkpt lat="41.608915835" lon="2.466671279">
        <ele>261.62</ele>
        <time>2014-03-22T17:32:05Z</time>
      </trkpt>
      <trkpt lat="41.609011724" lon="2.466869343">
        <ele>262.10</ele>
        <time>2014-03-22T17:32:13Z</time>
      </trkpt>
      <trkpt lat="41.609066374" lon="2.467133206">
        <ele>262.58</ele>
        <time>2014-03-22T17:32:22Z</time>
      </trkpt>
      <trkpt lat="41.609108032" lon="2.467361193">
        <ele>264.02</ele>
        <time>2014-03-22T17:32:30Z</time>
      </trkpt>
      <trkpt lat="41.609132088" lon="2.467587505">
        <ele>264.50</ele>
        <time>2014-03-22T17:32:37Z</time>
      </trkpt>
      <trkpt lat="41.609124376" lon="2.467818594">
        <ele>265.94</ele>
        <time>2014-03-22T17:32:44Z</time>
      </trkpt>
      <trkpt lat="41.609093447" lon="2.468093939">
        <ele>267.38</ele>
        <time>2014-03-22T17:32:53Z</time>
      </trkpt>
      <trkpt lat="41.609027565" lon="2.468397867">
        <ele>267.86</ele>
        <time>2014-03-22T17:33:02Z</time>
      </trkpt>
      <trkpt lat="41.608942741" lon="2.468669189">
        <ele>267.86</ele>
        <time>2014-03-22T17:33:10Z</time>
      </trkpt>
      <trkpt lat="41.608874009" lon="2.468883682">
        <ele>267.86</ele>
        <time>2014-03-22T17:33:16Z</time>
      </trkpt>
      <trkpt lat="41.608923714" lon="2.469058696">
        <ele>267.86</ele>
        <time>2014-03-22T17:33:22Z</time>
      </trkpt>
      <trkpt lat="41.609017507" lon="2.469279559">
        <ele>267.86</ele>
        <time>2014-03-22T17:33:28Z</time>
      </trkpt>
      <trkpt lat="41.609134602" lon="2.469512660">
        <ele>268.35</ele>
        <time>2014-03-22T17:33:36Z</time>
      </trkpt>
      <trkpt lat="41.609227641" lon="2.469784150">
        <ele>269.79</ele>
        <time>2014-03-22T17:33:46Z</time>
      </trkpt>
      <trkpt lat="41.609289081" lon="2.470114816">
        <ele>270.75</ele>
        <time>2014-03-22T17:33:56Z</time>
      </trkpt>
      <trkpt lat="41.609347838" lon="2.470468113">
        <ele>271.71</ele>
        <time>2014-03-22T17:34:08Z</time>
      </trkpt>
      <trkpt lat="41.609414893" lon="2.470787631">
        <ele>272.19</ele>
        <time>2014-03-22T17:34:18Z</time>
      </trkpt>
      <trkpt lat="41.609468202" lon="2.471038334">
        <ele>272.19</ele>
        <time>2014-03-22T17:34:26Z</time>
      </trkpt>
      <trkpt lat="41.609543136" lon="2.471289288">
        <ele>272.19</ele>
        <time>2014-03-22T17:34:34Z</time>
      </trkpt>
      <trkpt lat="41.609572892" lon="2.471535633">
        <ele>272.67</ele>
        <time>2014-03-22T17:34:42Z</time>
      </trkpt>
      <trkpt lat="41.609616813" lon="2.471734787">
        <ele>273.15</ele>
        <time>2014-03-22T17:34:49Z</time>
      </trkpt>
      <trkpt lat="41.609759473" lon="2.471927654">
        <ele>273.63</ele>
        <time>2014-03-22T17:34:57Z</time>
      </trkpt>
      <trkpt lat="41.609951000" lon="2.472022873">
        <ele>274.11</ele>
        <time>2014-03-22T17:35:06Z</time>
      </trkpt>
      <trkpt lat="41.610166247" lon="2.472093029">
        <ele>274.59</ele>
        <time>2014-03-22T17:35:15Z</time>
      </trkpt>
      <trkpt lat="41.610354840" lon="2.472168885">
        <ele>275.07</ele>
        <time>2014-03-22T17:35:23Z</time>
      </trkpt>
      <trkpt lat="41.610551060" lon="2.472290339">
        <ele>275.56</ele>
        <time>2014-03-22T17:35:32Z</time>
      </trkpt>
      <trkpt lat="41.610749544" lon="2.472380193">
        <ele>277.00</ele>
        <time>2014-03-22T17:35:41Z</time>
      </trkpt>
      <trkpt lat="41.610881307" lon="2.472450769">
        <ele>278.92</ele>
        <time>2014-03-22T17:35:49Z</time>
      </trkpt>
      <trkpt lat="41.611019441" lon="2.472516315">
        <ele>281.32</ele>
        <time>2014-03-22T17:35:58Z</time>
      </trkpt>
      <trkpt lat="41.611131591" lon="2.472576581">
        <ele>282.28</ele>
        <time>2014-03-22T17:36:05Z</time>
      </trkpt>
      <trkpt lat="41.611233766" lon="2.472707925">
        <ele>283.73</ele>
        <time>2014-03-22T17:36:15Z</time>
      </trkpt>
      <trkpt lat="41.611301995" lon="2.472895093">
        <ele>286.61</ele>
        <time>2014-03-22T17:36:26Z</time>
      </trkpt>
      <trkpt lat="41.611387323" lon="2.473071532">
        <ele>287.09</ele>
        <time>2014-03-22T17:36:35Z</time>
      </trkpt>
      <trkpt lat="41.611461502" lon="2.473223161">
        <ele>289.01</ele>
        <time>2014-03-22T17:36:45Z</time>
      </trkpt>
      <trkpt lat="41.611517661" lon="2.473300610">
        <ele>290.94</ele>
        <time>2014-03-22T17:36:51Z</time>
      </trkpt>
      <trkpt lat="41.611561750" lon="2.473339670">
        <ele>291.90</ele>
        <time>2014-03-22T17:36:55Z</time>
      </trkpt>
      <trkpt lat="41.611700806" lon="2.473460034">
        <ele>294.30</ele>
        <time>2014-03-22T17:37:07Z</time>
      </trkpt>
      <trkpt lat="41.611715223" lon="2.473459782">
        <ele>294.30</ele>
        <time>2014-03-22T17:37:08Z</time>
      </trkpt>
      <trkpt lat="41.611849417" lon="2.473498339">
        <ele>296.70</ele>
        <time>2014-03-22T17:37:19Z</time>
      </trkpt>
      <trkpt lat="41.611952598" lon="2.473523066">
        <ele>298.15</ele>
        <time>2014-03-22T17:37:28Z</time>
      </trkpt>
      <trkpt lat="41.611964081" lon="2.473526502">
        <ele>298.15</ele>
        <time>2014-03-22T17:37:29Z</time>
      </trkpt>
      <trkpt lat="41.612033484" lon="2.473517869">
        <ele>298.63</ele>
        <time>2014-03-22T17:37:34Z</time>
      </trkpt>
      <trkpt lat="41.612084613" lon="2.473530777">
        <ele>299.59</ele>
        <time>2014-03-22T17:37:38Z</time>
      </trkpt>
      <trkpt lat="41.612183771" lon="2.473651895">
        <ele>300.55</ele>
        <time>2014-03-22T17:37:49Z</time>
      </trkpt>
      <trkpt lat="41.612203217" lon="2.473692212">
        <ele>301.03</ele>
        <time>2014-03-22T17:37:52Z</time>
      </trkpt>
      <trkpt lat="41.612223250" lon="2.473832945">
        <ele>301.99</ele>
        <time>2014-03-22T17:38:00Z</time>
      </trkpt>
      <trkpt lat="41.612260549" lon="2.474006366">
        <ele>302.95</ele>
        <time>2014-03-22T17:38:09Z</time>
      </trkpt>
      <trkpt lat="41.612350068" lon="2.474192193">
        <ele>302.95</ele>
        <time>2014-03-22T17:38:18Z</time>
      </trkpt>
      <trkpt lat="41.612337411" lon="2.474379277">
        <ele>302.95</ele>
        <time>2014-03-22T17:38:24Z</time>
      </trkpt>
      <trkpt lat="41.612327269" lon="2.474614389">
        <ele>302.95</ele>
        <time>2014-03-22T17:38:32Z</time>
      </trkpt>
      <trkpt lat="41.612335232" lon="2.474822093">
        <ele>302.95</ele>
        <time>2014-03-22T17:38:38Z</time>
      </trkpt>
      <trkpt lat="41.612329700" lon="2.475089057">
        <ele>302.95</ele>
        <time>2014-03-22T17:38:46Z</time>
      </trkpt>
      <trkpt lat="41.612326431" lon="2.475168182">
        <ele>302.95</ele>
        <time>2014-03-22T17:38:49Z</time>
      </trkpt>
      <trkpt lat="41.612375046" lon="2.475352751">
        <ele>303.91</ele>
        <time>2014-03-22T17:38:57Z</time>
      </trkpt>
      <trkpt lat="41.612442688" lon="2.475538075">
        <ele>304.88</ele>
        <time>2014-03-22T17:39:05Z</time>
      </trkpt>
      <trkpt lat="41.612554503" lon="2.475818785">
        <ele>304.88</ele>
        <time>2014-03-22T17:39:12Z</time>
      </trkpt>
      <trkpt lat="41.612624072" lon="2.476041911">
        <ele>304.88</ele>
        <time>2014-03-22T17:39:18Z</time>
      </trkpt>
      <trkpt lat="41.612646033" lon="2.476118522">
        <ele>304.88</ele>
        <time>2014-03-22T17:39:21Z</time>
      </trkpt>
      <trkpt lat="41.612751813" lon="2.476325220">
        <ele>305.36</ele>
        <time>2014-03-22T17:39:30Z</time>
      </trkpt>
      <trkpt lat="41.612839823" lon="2.476511549">
        <ele>305.84</ele>
        <time>2014-03-22T17:39:36Z</time>
      </trkpt>
      <trkpt lat="41.612963875" lon="2.476789996">
        <ele>306.80</ele>
        <time>2014-03-22T17:39:45Z</time>
      </trkpt>
      <trkpt lat="41.613044006" lon="2.477031395">
        <ele>307.76</ele>
        <time>2014-03-22T17:39:54Z</time>
      </trkpt>
      <trkpt lat="41.613128244" lon="2.477232058">
        <ele>310.64</ele>
        <time>2014-03-22T17:40:04Z</time>
      </trkpt>
      <trkpt lat="41.613144253" lon="2.477377903">
        <ele>312.09</ele>
        <time>2014-03-22T17:40:12Z</time>
      </trkpt>
      <trkpt lat="41.613121455" lon="2.477545625">
        <ele>313.05</ele>
        <time>2014-03-22T17:40:21Z</time>
      </trkpt>
      <trkpt lat="41.613075103" lon="2.477765147">
        <ele>314.97</ele>
        <time>2014-03-22T17:40:32Z</time>
      </trkpt>
      <trkpt lat="41.613027074" lon="2.477891797">
        <ele>315.93</ele>
        <time>2014-03-22T17:40:40Z</time>
      </trkpt>
      <trkpt lat="41.612929258" lon="2.478037642">
        <ele>317.37</ele>
        <time>2014-03-22T17:40:49Z</time>
      </trkpt>
      <trkpt lat="41.612881984" lon="2.478208047">
        <ele>317.37</ele>
        <time>2014-03-22T17:40:57Z</time>
      </trkpt>
      <trkpt lat="41.612845774" lon="2.478364453">
        <ele>318.33</ele>
        <time>2014-03-22T17:41:04Z</time>
      </trkpt>
      <trkpt lat="41.612834039" lon="2.478520021">
        <ele>318.33</ele>
        <time>2014-03-22T17:41:10Z</time>
      </trkpt>
      <trkpt lat="41.612817024" lon="2.478773490">
        <ele>318.81</ele>
        <time>2014-03-22T17:41:18Z</time>
      </trkpt>
      <trkpt lat="41.612779892" lon="2.479020588">
        <ele>319.30</ele>
        <time>2014-03-22T17:41:26Z</time>
      </trkpt>
      <trkpt lat="41.612738821" lon="2.479292916">
        <ele>319.78</ele>
        <time>2014-03-22T17:41:36Z</time>
      </trkpt>
      <trkpt lat="41.612736893" lon="2.479501542">
        <ele>320.74</ele>
        <time>2014-03-22T17:41:44Z</time>
      </trkpt>
      <trkpt lat="41.612739156" lon="2.479606567">
        <ele>321.22</ele>
        <time>2014-03-22T17:41:48Z</time>
      </trkpt>
      <trkpt lat="41.612776455" lon="2.479809158">
        <ele>323.62</ele>
        <time>2014-03-22T17:41:58Z</time>
      </trkpt>
      <trkpt lat="41.612831105" lon="2.480024656">
        <ele>325.54</ele>
        <time>2014-03-22T17:42:09Z</time>
      </trkpt>
      <trkpt lat="41.612835296" lon="2.480090287">
        <ele>325.54</ele>
        <time>2014-03-22T17:42:12Z</time>
      </trkpt>
      <trkpt lat="41.612869578" lon="2.480286004">
        <ele>327.47</ele>
        <time>2014-03-22T17:42:22Z</time>
      </trkpt>
      <trkpt lat="41.612851725" lon="2.480453475">
        <ele>329.39</ele>
        <time>2014-03-22T17:42:31Z</time>
      </trkpt>
      <trkpt lat="41.612798081" lon="2.480663190">
        <ele>330.35</ele>
        <time>2014-03-22T17:42:39Z</time>
      </trkpt>
      <trkpt lat="41.612783832" lon="2.480833929">
        <ele>331.31</ele>
        <time>2014-03-22T17:42:47Z</time>
      </trkpt>
      <trkpt lat="41.612809145" lon="2.481067449">
        <ele>331.31</ele>
        <time>2014-03-22T17:42:54Z</time>
      </trkpt>
      <trkpt lat="41.612777377" lon="2.481300550">
        <ele>331.31</ele>
        <time>2014-03-22T17:42:59Z</time>
      </trkpt>
      <trkpt lat="41.612875781" lon="2.481509343">
        <ele>329.87</ele>
        <time>2014-03-22T17:43:05Z</time>
      </trkpt>
      <trkpt lat="41.612903274" lon="2.481560892">
        <ele>329.87</ele>
        <time>2014-03-22T17:43:06Z</time>
      </trkpt>
      <trkpt lat="41.612961947" lon="2.481686033">
        <ele>328.91</ele>
        <time>2014-03-22T17:43:08Z</time>
      </trkpt>
      <trkpt lat="41.612989775" lon="2.482042935">
        <ele>326.99</ele>
        <time>2014-03-22T17:43:13Z</time>
      </trkpt>
      <trkpt lat="41.612988434" lon="2.482116612">
        <ele>326.50</ele>
        <time>2014-03-22T17:43:14Z</time>
      </trkpt>
      <trkpt lat="41.613029254" lon="2.482391454">
        <ele>327.47</ele>
        <time>2014-03-22T17:43:19Z</time>
      </trkpt>
      <trkpt lat="41.613083820" lon="2.482616844">
        <ele>329.87</ele>
        <time>2014-03-22T17:43:27Z</time>
      </trkpt>
      <trkpt lat="41.613108044" lon="2.482787164">
        <ele>329.87</ele>
        <time>2014-03-22T17:43:33Z</time>
      </trkpt>
      <trkpt lat="41.613058004" lon="2.482975673">
        <ele>330.35</ele>
        <time>2014-03-22T17:43:40Z</time>
      </trkpt>
      <trkpt lat="41.613035875" lon="2.483049266">
        <ele>330.83</ele>
        <time>2014-03-22T17:43:43Z</time>
      </trkpt>
      <trkpt lat="41.612980806" lon="2.483235261">
        <ele>332.27</ele>
        <time>2014-03-22T17:43:52Z</time>
      </trkpt>
      <trkpt lat="41.612936969" lon="2.483383201">
        <ele>333.71</ele>
        <time>2014-03-22T17:44:00Z</time>
      </trkpt>
      <trkpt lat="41.612907632" lon="2.483513540">
        <ele>335.16</ele>
        <time>2014-03-22T17:44:06Z</time>
      </trkpt>
      <trkpt lat="41.612890701" lon="2.483632060">
        <ele>336.60</ele>
        <time>2014-03-22T17:44:13Z</time>
      </trkpt>
      <trkpt lat="41.612872931" lon="2.483756531">
        <ele>337.08</ele>
        <time>2014-03-22T17:44:19Z</time>
      </trkpt>
      <trkpt lat="41.612835464" lon="2.483908160">
        <ele>338.04</ele>
        <time>2014-03-22T17:44:26Z</time>
      </trkpt>
      <trkpt lat="41.612760614" lon="2.484088622">
        <ele>338.52</ele>
        <time>2014-03-22T17:44:34Z</time>
      </trkpt>
      <trkpt lat="41.612711328" lon="2.484218374">
        <ele>340.44</ele>
        <time>2014-03-22T17:44:42Z</time>
      </trkpt>
      <trkpt lat="41.612641674" lon="2.484360363">
        <ele>341.89</ele>
        <time>2014-03-22T17:44:50Z</time>
      </trkpt>
      <trkpt lat="41.612563723" lon="2.484515596">
        <ele>342.37</ele>
        <time>2014-03-22T17:44:58Z</time>
      </trkpt>
      <trkpt lat="41.612512174" lon="2.484634703">
        <ele>343.33</ele>
        <time>2014-03-22T17:45:05Z</time>
      </trkpt>
      <trkpt lat="41.612449226" lon="2.484828660">
        <ele>344.29</ele>
        <time>2014-03-22T17:45:15Z</time>
      </trkpt>
      <trkpt lat="41.612393151" lon="2.484969560">
        <ele>345.25</ele>
        <time>2014-03-22T17:45:22Z</time>
      </trkpt>
      <trkpt lat="41.612359791" lon="2.485025635">
        <ele>346.69</ele>
        <time>2014-03-22T17:45:26Z</time>
      </trkpt>
      <trkpt lat="41.612314110" lon="2.485070394">
        <ele>347.17</ele>
        <time>2014-03-22T17:45:30Z</time>
      </trkpt>
      <trkpt lat="41.612227608" lon="2.485220682">
        <ele>348.13</ele>
        <time>2014-03-22T17:45:39Z</time>
      </trkpt>
      <trkpt lat="41.612169187" lon="2.485401396">
        <ele>349.58</ele>
        <time>2014-03-22T17:45:47Z</time>
      </trkpt>
      <trkpt lat="41.612148148" lon="2.485518072">
        <ele>351.50</ele>
        <time>2014-03-22T17:45:54Z</time>
      </trkpt>
      <trkpt lat="41.612125433" lon="2.485614045">
        <ele>351.50</ele>
        <time>2014-03-22T17:45:59Z</time>
      </trkpt>
      <trkpt lat="41.612101964" lon="2.485784449">
        <ele>353.42</ele>
        <time>2014-03-22T17:46:07Z</time>
      </trkpt>
      <trkpt lat="41.612112860" lon="2.485839937">
        <ele>353.90</ele>
        <time>2014-03-22T17:46:10Z</time>
      </trkpt>
      <trkpt lat="41.612122667" lon="2.485881008">
        <ele>354.38</ele>
        <time>2014-03-22T17:46:13Z</time>
      </trkpt>
      <trkpt lat="41.612130714" lon="2.485943621">
        <ele>354.86</ele>
        <time>2014-03-22T17:46:17Z</time>
      </trkpt>
      <trkpt lat="41.612138676" lon="2.486105643">
        <ele>356.31</ele>
        <time>2014-03-22T17:46:26Z</time>
      </trkpt>
      <trkpt lat="41.612138090" lon="2.486232797">
        <ele>357.75</ele>
        <time>2014-03-22T17:46:34Z</time>
      </trkpt>
      <trkpt lat="41.612153093" lon="2.486457013">
        <ele>359.19</ele>
        <time>2014-03-22T17:46:44Z</time>
      </trkpt>
      <trkpt lat="41.612233643" lon="2.486602271">
        <ele>360.63</ele>
        <time>2014-03-22T17:46:53Z</time>
      </trkpt>
      <trkpt lat="41.612244288" lon="2.486649629">
        <ele>360.63</ele>
        <time>2014-03-22T17:46:55Z</time>
      </trkpt>
      <trkpt lat="41.612218807" lon="2.486763120">
        <ele>361.59</ele>
        <time>2014-03-22T17:47:01Z</time>
      </trkpt>
      <trkpt lat="41.612177736" lon="2.486868899">
        <ele>362.55</ele>
        <time>2014-03-22T17:47:07Z</time>
      </trkpt>
      <trkpt lat="41.612156362" lon="2.487005273">
        <ele>364.00</ele>
        <time>2014-03-22T17:47:16Z</time>
      </trkpt>
      <trkpt lat="41.612130546" lon="2.487154722">
        <ele>364.96</ele>
        <time>2014-03-22T17:47:25Z</time>
      </trkpt>
      <trkpt lat="41.612133731" lon="2.487339124">
        <ele>366.88</ele>
        <time>2014-03-22T17:47:35Z</time>
      </trkpt>
      <trkpt lat="41.612132977" lon="2.487476671">
        <ele>367.84</ele>
        <time>2014-03-22T17:47:43Z</time>
      </trkpt>
      <trkpt lat="41.612134569" lon="2.487517910">
        <ele>368.32</ele>
        <time>2014-03-22T17:47:45Z</time>
      </trkpt>
      <trkpt lat="41.612148148" lon="2.487579350">
        <ele>368.32</ele>
        <time>2014-03-22T17:47:48Z</time>
      </trkpt>
      <trkpt lat="41.612160218" lon="2.487748832">
        <ele>369.76</ele>
        <time>2014-03-22T17:47:57Z</time>
      </trkpt>
      <trkpt lat="41.612208665" lon="2.487944801">
        <ele>370.24</ele>
        <time>2014-03-22T17:48:05Z</time>
      </trkpt>
      <trkpt lat="41.612217718" lon="2.487989392">
        <ele>370.73</ele>
        <time>2014-03-22T17:48:07Z</time>
      </trkpt>
      <trkpt lat="41.612248228" lon="2.488069607">
        <ele>371.69</ele>
        <time>2014-03-22T17:48:12Z</time>
      </trkpt>
      <trkpt lat="41.612303213" lon="2.488184691">
        <ele>373.13</ele>
        <time>2014-03-22T17:48:21Z</time>
      </trkpt>
      <trkpt lat="41.612318636" lon="2.488271779">
        <ele>373.61</ele>
        <time>2014-03-22T17:48:25Z</time>
      </trkpt>
      <trkpt lat="41.612267842" lon="2.488362890">
        <ele>373.61</ele>
        <time>2014-03-22T17:48:30Z</time>
      </trkpt>
      <trkpt lat="41.612158039" lon="2.488427850">
        <ele>374.57</ele>
        <time>2014-03-22T17:48:39Z</time>
      </trkpt>
      <trkpt lat="41.612136162" lon="2.488430113">
        <ele>375.05</ele>
        <time>2014-03-22T17:48:41Z</time>
      </trkpt>
      <trkpt lat="41.612093498" lon="2.488471771">
        <ele>375.53</ele>
        <time>2014-03-22T17:48:45Z</time>
      </trkpt>
      <trkpt lat="41.612071286" lon="2.488587609">
        <ele>376.01</ele>
        <time>2014-03-22T17:48:53Z</time>
      </trkpt>
      <trkpt lat="41.612082015" lon="2.488664806">
        <ele>376.49</ele>
        <time>2014-03-22T17:48:57Z</time>
      </trkpt>
      <trkpt lat="41.612133563" lon="2.488842167">
        <ele>377.45</ele>
        <time>2014-03-22T17:49:06Z</time>
      </trkpt>
      <trkpt lat="41.612154351" lon="2.489002932">
        <ele>377.94</ele>
        <time>2014-03-22T17:49:13Z</time>
      </trkpt>
      <trkpt lat="41.612172036" lon="2.489176354">
        <ele>378.90</ele>
        <time>2014-03-22T17:49:21Z</time>
      </trkpt>
      <trkpt lat="41.612170695" lon="2.489235195">
        <ele>379.38</ele>
        <time>2014-03-22T17:49:25Z</time>
      </trkpt>
      <trkpt lat="41.612143957" lon="2.489385147">
        <ele>381.30</ele>
        <time>2014-03-22T17:49:33Z</time>
      </trkpt>
      <trkpt lat="41.612137922" lon="2.489519090">
        <ele>382.74</ele>
        <time>2014-03-22T17:49:40Z</time>
      </trkpt>
      <trkpt lat="41.612163906" lon="2.489645573">
        <ele>383.70</ele>
        <time>2014-03-22T17:49:47Z</time>
      </trkpt>
      <trkpt lat="41.612179412" lon="2.489708772">
        <ele>384.18</ele>
        <time>2014-03-22T17:49:50Z</time>
      </trkpt>
      <trkpt lat="41.612197853" lon="2.489853025">
        <ele>385.15</ele>
        <time>2014-03-22T17:49:58Z</time>
      </trkpt>
      <trkpt lat="41.612110848" lon="2.490053017">
        <ele>386.11</ele>
        <time>2014-03-22T17:50:07Z</time>
      </trkpt>
      <trkpt lat="41.612085451" lon="2.490141614">
        <ele>387.55</ele>
        <time>2014-03-22T17:50:14Z</time>
      </trkpt>
      <trkpt lat="41.612032813" lon="2.490310928">
        <ele>389.47</ele>
        <time>2014-03-22T17:50:25Z</time>
      </trkpt>
      <trkpt lat="41.612021749" lon="2.490475884">
        <ele>390.91</ele>
        <time>2014-03-22T17:50:34Z</time>
      </trkpt>
      <trkpt lat="41.611992245" lon="2.490589207">
        <ele>392.84</ele>
        <time>2014-03-22T17:50:41Z</time>
      </trkpt>
      <trkpt lat="41.611951257" lon="2.490725497">
        <ele>394.76</ele>
        <time>2014-03-22T17:50:49Z</time>
      </trkpt>
      <trkpt lat="41.611912700" lon="2.490885507">
        <ele>396.20</ele>
        <time>2014-03-22T17:50:58Z</time>
      </trkpt>
      <trkpt lat="41.611888058" lon="2.491027329">
        <ele>396.68</ele>
        <time>2014-03-22T17:51:06Z</time>
      </trkpt>
      <trkpt lat="41.611869953" lon="2.491161943">
        <ele>397.16</ele>
        <time>2014-03-22T17:51:13Z</time>
      </trkpt>
      <trkpt lat="41.611874646" lon="2.491392361">
        <ele>398.60</ele>
        <time>2014-03-22T17:51:23Z</time>
      </trkpt>
      <trkpt lat="41.611925022" lon="2.491556982">
        <ele>398.60</ele>
        <time>2014-03-22T17:51:30Z</time>
      </trkpt>
      <trkpt lat="41.611996771" lon="2.491732583">
        <ele>400.05</ele>
        <time>2014-03-22T17:51:39Z</time>
      </trkpt>
      <trkpt lat="41.612050583" lon="2.491848588">
        <ele>401.97</ele>
        <time>2014-03-22T17:51:47Z</time>
      </trkpt>
      <trkpt lat="41.612097018" lon="2.491998708">
        <ele>402.45</ele>
        <time>2014-03-22T17:51:55Z</time>
      </trkpt>
      <trkpt lat="41.612201708" lon="2.492133489">
        <ele>403.41</ele>
        <time>2014-03-22T17:52:04Z</time>
      </trkpt>
      <trkpt lat="41.612287958" lon="2.492180344">
        <ele>403.89</ele>
        <time>2014-03-22T17:52:10Z</time>
      </trkpt>
      <trkpt lat="41.612318971" lon="2.492311772">
        <ele>403.89</ele>
        <time>2014-03-22T17:52:16Z</time>
      </trkpt>
      <trkpt lat="41.612201289" lon="2.492475806">
        <ele>405.33</ele>
        <time>2014-03-22T17:52:26Z</time>
      </trkpt>
      <trkpt lat="41.612158206" lon="2.492604384">
        <ele>405.33</ele>
        <time>2014-03-22T17:52:32Z</time>
      </trkpt>
      <trkpt lat="41.612153009" lon="2.492856596">
        <ele>405.81</ele>
        <time>2014-03-22T17:52:41Z</time>
      </trkpt>
      <trkpt lat="41.612141526" lon="2.493097240">
        <ele>406.77</ele>
        <time>2014-03-22T17:52:50Z</time>
      </trkpt>
      <trkpt lat="41.612145130" lon="2.493264711">
        <ele>407.26</ele>
        <time>2014-03-22T17:52:57Z</time>
      </trkpt>
      <trkpt lat="41.612186956" lon="2.493465709">
        <ele>408.22</ele>
        <time>2014-03-22T17:53:06Z</time>
      </trkpt>
      <trkpt lat="41.612305895" lon="2.493633179">
        <ele>409.18</ele>
        <time>2014-03-22T17:53:15Z</time>
      </trkpt>
      <trkpt lat="41.612437072" lon="2.493763350">
        <ele>410.62</ele>
        <time>2014-03-22T17:53:24Z</time>
      </trkpt>
      <trkpt lat="41.612449142" lon="2.493781539">
        <ele>410.62</ele>
        <time>2014-03-22T17:53:25Z</time>
      </trkpt>
      <trkpt lat="41.612435563" lon="2.493896539">
        <ele>411.10</ele>
        <time>2014-03-22T17:53:30Z</time>
      </trkpt>
      <trkpt lat="41.612336489" lon="2.494002653">
        <ele>413.02</ele>
        <time>2014-03-22T17:53:39Z</time>
      </trkpt>
      <trkpt lat="41.612315367" lon="2.494024027">
        <ele>413.50</ele>
        <time>2014-03-22T17:53:42Z</time>
      </trkpt>
      <trkpt lat="41.612258957" lon="2.494167106">
        <ele>413.98</ele>
        <time>2014-03-22T17:53:51Z</time>
      </trkpt>
      <trkpt lat="41.612216041" lon="2.494324016">
        <ele>414.95</ele>
        <time>2014-03-22T17:53:59Z</time>
      </trkpt>
      <trkpt lat="41.612163235" lon="2.494486708">
        <ele>416.39</ele>
        <time>2014-03-22T17:54:08Z</time>
      </trkpt>
      <trkpt lat="41.612119566" lon="2.494601373">
        <ele>417.35</ele>
        <time>2014-03-22T17:54:14Z</time>
      </trkpt>
      <trkpt lat="41.612077991" lon="2.494718216">
        <ele>418.31</ele>
        <time>2014-03-22T17:54:20Z</time>
      </trkpt>
      <trkpt lat="41.612045051" lon="2.494808741">
        <ele>418.79</ele>
        <time>2014-03-22T17:54:24Z</time>
      </trkpt>
      <trkpt lat="41.612053349" lon="2.494938158">
        <ele>419.75</ele>
        <time>2014-03-22T17:54:30Z</time>
      </trkpt>
      <trkpt lat="41.612116297" lon="2.494988365">
        <ele>420.71</ele>
        <time>2014-03-22T17:54:36Z</time>
      </trkpt>
      <trkpt lat="41.612216293" lon="2.494890548">
        <ele>422.16</ele>
        <time>2014-03-22T17:54:48Z</time>
      </trkpt>
      <trkpt lat="41.612281253" lon="2.494815279">
        <ele>423.60</ele>
        <time>2014-03-22T17:54:55Z</time>
      </trkpt>
      <trkpt lat="41.612359372" lon="2.494698854">
        <ele>424.08</ele>
        <time>2014-03-22T17:55:03Z</time>
      </trkpt>
      <trkpt lat="41.612390553" lon="2.494630290">
        <ele>424.08</ele>
        <time>2014-03-22T17:55:07Z</time>
      </trkpt>
      <trkpt lat="41.612428606" lon="2.494597433">
        <ele>424.56</ele>
        <time>2014-03-22T17:55:10Z</time>
      </trkpt>
      <trkpt lat="41.612481161" lon="2.494615287">
        <ele>425.52</ele>
        <time>2014-03-22T17:55:16Z</time>
      </trkpt>
      <trkpt lat="41.612428523" lon="2.494729616">
        <ele>426.96</ele>
        <time>2014-03-22T17:55:25Z</time>
      </trkpt>
      <trkpt lat="41.612393738" lon="2.494831707">
        <ele>427.44</ele>
        <time>2014-03-22T17:55:31Z</time>
      </trkpt>
      <trkpt lat="41.612387619" lon="2.494909575">
        <ele>428.40</ele>
        <time>2014-03-22T17:55:35Z</time>
      </trkpt>
      <trkpt lat="41.612397426" lon="2.495101856">
        <ele>429.85</ele>
        <time>2014-03-22T17:55:44Z</time>
      </trkpt>
      <trkpt lat="41.612411088" lon="2.495143179">
        <ele>430.33</ele>
        <time>2014-03-22T17:55:46Z</time>
      </trkpt>
      <trkpt lat="41.612462553" lon="2.495305788">
        <ele>431.29</ele>
        <time>2014-03-22T17:55:54Z</time>
      </trkpt>
      <trkpt lat="41.612469929" lon="2.495323474">
        <ele>431.29</ele>
        <time>2014-03-22T17:55:55Z</time>
      </trkpt>
      <trkpt lat="41.612491722" lon="2.495443503">
        <ele>432.73</ele>
        <time>2014-03-22T17:56:01Z</time>
      </trkpt>
      <trkpt lat="41.612531536" lon="2.495641986">
        <ele>433.69</ele>
        <time>2014-03-22T17:56:11Z</time>
      </trkpt>
      <trkpt lat="41.612542517" lon="2.495775677">
        <ele>433.69</ele>
        <time>2014-03-22T17:56:18Z</time>
      </trkpt>
      <trkpt lat="41.612564645" lon="2.495810630">
        <ele>433.69</ele>
        <time>2014-03-22T17:56:30Z</time>
      </trkpt>
      <trkpt lat="41.612565902" lon="2.495817922">
        <ele>433.69</ele>
        <time>2014-03-22T17:56:48Z</time>
      </trkpt>
      <trkpt lat="41.612565734" lon="2.495805936">
        <ele>433.69</ele>
        <time>2014-03-22T17:57:01Z</time>
      </trkpt>
      <trkpt lat="41.612573530" lon="2.495830663">
        <ele>433.69</ele>
        <time>2014-03-22T17:57:14Z</time>
      </trkpt>
      <trkpt lat="41.612578223" lon="2.495864945">
        <ele>432.25</ele>
        <time>2014-03-22T17:57:18Z</time>
      </trkpt>
      <trkpt lat="41.612600100" lon="2.496097291">
        <ele>430.33</ele>
        <time>2014-03-22T17:57:24Z</time>
      </trkpt>
      <trkpt lat="41.612686685" lon="2.496366769">
        <ele>428.89</ele>
        <time>2014-03-22T17:57:29Z</time>
      </trkpt>
      <trkpt lat="41.612709652" lon="2.496421838">
        <ele>427.92</ele>
        <time>2014-03-22T17:57:30Z</time>
      </trkpt>
      <trkpt lat="41.612792968" lon="2.496742698">
        <ele>425.52</ele>
        <time>2014-03-22T17:57:35Z</time>
      </trkpt>
      <trkpt lat="41.612955912" lon="2.497178137">
        <ele>421.68</ele>
        <time>2014-03-22T17:57:41Z</time>
      </trkpt>
      <trkpt lat="41.613142745" lon="2.497366395">
        <ele>419.27</ele>
        <time>2014-03-22T17:57:46Z</time>
      </trkpt>
      <trkpt lat="41.613255397" lon="2.497363964">
        <ele>418.31</ele>
        <time>2014-03-22T17:57:48Z</time>
      </trkpt>
      <trkpt lat="41.613541556" lon="2.497424565">
        <ele>416.39</ele>
        <time>2014-03-22T17:57:53Z</time>
      </trkpt>
      <trkpt lat="41.613619926" lon="2.497554904">
        <ele>415.43</ele>
        <time>2014-03-22T17:57:55Z</time>
      </trkpt>
      <trkpt lat="41.613692933" lon="2.497693960">
        <ele>414.47</ele>
        <time>2014-03-22T17:57:57Z</time>
      </trkpt>
      <trkpt lat="41.613914047" lon="2.497818431">
        <ele>412.06</ele>
        <time>2014-03-22T17:58:02Z</time>
      </trkpt>
      <trkpt lat="41.614114626" lon="2.497668227">
        <ele>409.18</ele>
        <time>2014-03-22T17:58:06Z</time>
      </trkpt>
      <trkpt lat="41.614215544" lon="2.497540655">
        <ele>407.26</ele>
        <time>2014-03-22T17:58:08Z</time>
      </trkpt>
      <trkpt lat="41.614391397" lon="2.497443341">
        <ele>405.81</ele>
        <time>2014-03-22T17:58:11Z</time>
      </trkpt>
      <trkpt lat="41.614531291" lon="2.497527244">
        <ele>405.81</ele>
        <time>2014-03-22T17:58:15Z</time>
      </trkpt>
      <trkpt lat="41.614563477" lon="2.497576948">
        <ele>405.81</ele>
        <time>2014-03-22T17:58:18Z</time>
      </trkpt>
      <trkpt lat="41.614638328" lon="2.497732684">
        <ele>408.70</ele>
        <time>2014-03-22T17:58:27Z</time>
      </trkpt>
      <trkpt lat="41.614700186" lon="2.497884816">
        <ele>409.66</ele>
        <time>2014-03-22T17:58:35Z</time>
      </trkpt>
      <trkpt lat="41.614722650" lon="2.498168375">
        <ele>409.66</ele>
        <time>2014-03-22T17:58:42Z</time>
      </trkpt>
      <trkpt lat="41.614647799" lon="2.498767765">
        <ele>404.85</ele>
        <time>2014-03-22T17:58:49Z</time>
      </trkpt>
      <trkpt lat="41.614635562" lon="2.498954682">
        <ele>402.93</ele>
        <time>2014-03-22T17:58:51Z</time>
      </trkpt>
      <trkpt lat="41.614580157" lon="2.499212928">
        <ele>401.49</ele>
        <time>2014-03-22T17:58:54Z</time>
      </trkpt>
      <trkpt lat="41.614561046" lon="2.499288868">
        <ele>400.53</ele>
        <time>2014-03-22T17:58:55Z</time>
      </trkpt>
      <trkpt lat="41.614568087" lon="2.499545606">
        <ele>396.68</ele>
        <time>2014-03-22T17:58:59Z</time>
      </trkpt>
      <trkpt lat="41.614636735" lon="2.499734199">
        <ele>393.32</ele>
        <time>2014-03-22T17:59:02Z</time>
      </trkpt>
      <trkpt lat="41.614692558" lon="2.499850037">
        <ele>391.39</ele>
        <time>2014-03-22T17:59:04Z</time>
      </trkpt>
      <trkpt lat="41.614895401" lon="2.499985991">
        <ele>387.07</ele>
        <time>2014-03-22T17:59:09Z</time>
      </trkpt>
      <trkpt lat="41.615158425" lon="2.500118090">
        <ele>383.22</ele>
        <time>2014-03-22T17:59:14Z</time>
      </trkpt>
      <trkpt lat="41.615295636" lon="2.500247674">
        <ele>381.78</ele>
        <time>2014-03-22T17:59:17Z</time>
      </trkpt>
      <trkpt lat="41.615354561" lon="2.500256140">
        <ele>380.82</ele>
        <time>2014-03-22T17:59:18Z</time>
      </trkpt>
      <trkpt lat="41.615619932" lon="2.500258068">
        <ele>376.97</ele>
        <time>2014-03-22T17:59:22Z</time>
      </trkpt>
      <trkpt lat="41.615676007" lon="2.500255972">
        <ele>376.01</ele>
        <time>2014-03-22T17:59:23Z</time>
      </trkpt>
      <trkpt lat="41.615761251" lon="2.500404835">
        <ele>371.69</ele>
        <time>2014-03-22T17:59:27Z</time>
      </trkpt>
      <trkpt lat="41.615632757" lon="2.500465352">
        <ele>369.76</ele>
        <time>2014-03-22T17:59:30Z</time>
      </trkpt>
      <trkpt lat="41.615512812" lon="2.500450516">
        <ele>369.28</ele>
        <time>2014-03-22T17:59:32Z</time>
      </trkpt>
      <trkpt lat="41.615333271" lon="2.500512375">
        <ele>367.84</ele>
        <time>2014-03-22T17:59:35Z</time>
      </trkpt>
      <trkpt lat="41.615222127" lon="2.500588231">
        <ele>367.36</ele>
        <time>2014-03-22T17:59:37Z</time>
      </trkpt>
      <trkpt lat="41.615010652" lon="2.500543052">
        <ele>365.44</ele>
        <time>2014-03-22T17:59:41Z</time>
      </trkpt>
      <trkpt lat="41.614814012" lon="2.500531402">
        <ele>364.96</ele>
        <time>2014-03-22T17:59:45Z</time>
      </trkpt>
      <trkpt lat="41.614763386" lon="2.500552189">
        <ele>364.96</ele>
        <time>2014-03-22T17:59:46Z</time>
      </trkpt>
      <trkpt lat="41.614552581" lon="2.500503155">
        <ele>362.55</ele>
        <time>2014-03-22T17:59:50Z</time>
      </trkpt>
      <trkpt lat="41.614442778" lon="2.500395363">
        <ele>360.63</ele>
        <time>2014-03-22T17:59:52Z</time>
      </trkpt>
      <trkpt lat="41.614235326" lon="2.500264187">
        <ele>357.27</ele>
        <time>2014-03-22T17:59:55Z</time>
      </trkpt>
      <trkpt lat="41.613996944" lon="2.500115994">
        <ele>352.46</ele>
        <time>2014-03-22T17:59:59Z</time>
      </trkpt>
      <trkpt lat="41.613897786" lon="2.499994122">
        <ele>349.58</ele>
        <time>2014-03-22T18:00:02Z</time>
      </trkpt>
      <trkpt lat="41.613851351" lon="2.500067547">
        <ele>348.13</ele>
        <time>2014-03-22T18:00:06Z</time>
      </trkpt>
      <trkpt lat="41.613904492" lon="2.500165196">
        <ele>346.21</ele>
        <time>2014-03-22T18:00:08Z</time>
      </trkpt>
      <trkpt lat="41.614088223" lon="2.500484128">
        <ele>341.41</ele>
        <time>2014-03-22T18:00:13Z</time>
      </trkpt>
      <trkpt lat="41.614180424" lon="2.500633158">
        <ele>339.00</ele>
        <time>2014-03-22T18:00:15Z</time>
      </trkpt>
      <trkpt lat="41.614275978" lon="2.500894673">
        <ele>334.20</ele>
        <time>2014-03-22T18:00:18Z</time>
      </trkpt>
      <trkpt lat="41.614321911" lon="2.501062730">
        <ele>333.23</ele>
        <time>2014-03-22T18:00:20Z</time>
      </trkpt>
      <trkpt lat="41.614510168" lon="2.501299938">
        <ele>331.79</ele>
        <time>2014-03-22T18:00:24Z</time>
      </trkpt>
      <trkpt lat="41.614578648" lon="2.501348386">
        <ele>330.83</ele>
        <time>2014-03-22T18:00:25Z</time>
      </trkpt>
      <trkpt lat="41.614923983" lon="2.501444275">
        <ele>328.43</ele>
        <time>2014-03-22T18:00:30Z</time>
      </trkpt>
      <trkpt lat="41.614969161" lon="2.501510827">
        <ele>327.95</ele>
        <time>2014-03-22T18:00:32Z</time>
      </trkpt>
      <trkpt lat="41.614995564" lon="2.501819616">
        <ele>327.95</ele>
        <time>2014-03-22T18:00:39Z</time>
      </trkpt>
      <trkpt lat="41.615002940" lon="2.501874266">
        <ele>327.95</ele>
        <time>2014-03-22T18:00:40Z</time>
      </trkpt>
      <trkpt lat="41.615069157" lon="2.502142403">
        <ele>327.95</ele>
        <time>2014-03-22T18:00:44Z</time>
      </trkpt>
      <trkpt lat="41.615148702" lon="2.502488827">
        <ele>326.50</ele>
        <time>2014-03-22T18:00:48Z</time>
      </trkpt>
      <trkpt lat="41.615180050" lon="2.502676247">
        <ele>326.50</ele>
        <time>2014-03-22T18:00:50Z</time>
      </trkpt>
      <trkpt lat="41.615301001" lon="2.502974140">
        <ele>326.02</ele>
        <time>2014-03-22T18:00:54Z</time>
      </trkpt>
      <trkpt lat="41.615373420" lon="2.503092492">
        <ele>326.02</ele>
        <time>2014-03-22T18:00:56Z</time>
      </trkpt>
      <trkpt lat="41.615425975" lon="2.503328024">
        <ele>325.54</ele>
        <time>2014-03-22T18:01:01Z</time>
      </trkpt>
      <trkpt lat="41.615426310" lon="2.503341183">
        <ele>325.54</ele>
        <time>2014-03-22T18:01:10Z</time>
      </trkpt>
      <trkpt lat="41.615420527" lon="2.503352750">
        <ele>325.54</ele>
        <time>2014-03-22T18:01:26Z</time>
      </trkpt>
      <trkpt lat="41.615429328" lon="2.503358785">
        <ele>326.50</ele>
        <time>2014-03-22T18:01:40Z</time>
      </trkpt>
      <trkpt lat="41.615408205" lon="2.503369011">
        <ele>326.50</ele>
        <time>2014-03-22T18:02:07Z</time>
      </trkpt>
      <trkpt lat="41.615375432" lon="2.503370436">
        <ele>326.50</ele>
        <time>2014-03-22T18:02:23Z</time>
      </trkpt>
      <trkpt lat="41.615362524" lon="2.503362725">
        <ele>326.50</ele>
        <time>2014-03-22T18:02:37Z</time>
      </trkpt>
      <trkpt lat="41.615356238" lon="2.503373118">
        <ele>325.54</ele>
        <time>2014-03-22T18:02:45Z</time>
      </trkpt>
      <trkpt lat="41.615339306" lon="2.503380243">
        <ele>325.06</ele>
        <time>2014-03-22T18:03:04Z</time>
      </trkpt>
      <trkpt lat="41.615321285" lon="2.503412178">
        <ele>324.58</ele>
        <time>2014-03-22T18:03:18Z</time>
      </trkpt>
      <trkpt lat="41.615319609" lon="2.503373537">
        <ele>324.10</ele>
        <time>2014-03-22T18:03:37Z</time>
      </trkpt>
      <trkpt lat="41.615310053" lon="2.503346212">
        <ele>324.58</ele>
        <time>2014-03-22T18:03:54Z</time>
      </trkpt>
      <trkpt lat="41.615309215" lon="2.503353588">
        <ele>324.58</ele>
        <time>2014-03-22T18:04:01Z</time>
      </trkpt>
      <trkpt lat="41.615307790" lon="2.503392145">
        <ele>326.02</ele>
        <time>2014-03-22T18:04:21Z</time>
      </trkpt>
      <trkpt lat="41.615307539" lon="2.503394324">
        <ele>326.02</ele>
        <time>2014-03-22T18:04:22Z</time>
      </trkpt>
      <trkpt lat="41.615329751" lon="2.503412932">
        <ele>326.99</ele>
        <time>2014-03-22T18:04:39Z</time>
      </trkpt>
      <trkpt lat="41.615353807" lon="2.503389714">
        <ele>327.95</ele>
        <time>2014-03-22T18:04:53Z</time>
      </trkpt>
      <trkpt lat="41.615366631" lon="2.503358450">
        <ele>329.39</ele>
        <time>2014-03-22T18:05:06Z</time>
      </trkpt>
      <trkpt lat="41.615389262" lon="2.503407400">
        <ele>329.87</ele>
        <time>2014-03-22T18:05:15Z</time>
      </trkpt>
      <trkpt lat="41.615410720" lon="2.503586354">
        <ele>329.87</ele>
        <time>2014-03-22T18:05:20Z</time>
      </trkpt>
      <trkpt lat="41.615413067" lon="2.503689787">
        <ele>327.95</ele>
        <time>2014-03-22T18:05:22Z</time>
      </trkpt>
      <trkpt lat="41.615400243" lon="2.503819622">
        <ele>326.50</ele>
        <time>2014-03-22T18:05:24Z</time>
      </trkpt>
      <trkpt lat="41.615353555" lon="2.504086921">
        <ele>322.66</ele>
        <time>2014-03-22T18:05:28Z</time>
      </trkpt>
      <trkpt lat="41.615327069" lon="2.504463771">
        <ele>317.85</ele>
        <time>2014-03-22T18:05:33Z</time>
      </trkpt>
      <trkpt lat="41.615338719" lon="2.504663848">
        <ele>314.49</ele>
        <time>2014-03-22T18:05:36Z</time>
      </trkpt>
      <trkpt lat="41.615351795" lon="2.504721683">
        <ele>313.53</ele>
        <time>2014-03-22T18:05:37Z</time>
      </trkpt>
      <trkpt lat="41.615521529" lon="2.504827462">
        <ele>312.09</ele>
        <time>2014-03-22T18:05:42Z</time>
      </trkpt>
      <trkpt lat="41.615758234" lon="2.504836599">
        <ele>309.68</ele>
        <time>2014-03-22T18:05:46Z</time>
      </trkpt>
      <trkpt lat="41.615920926" lon="2.504844478">
        <ele>308.72</ele>
        <time>2014-03-22T18:05:49Z</time>
      </trkpt>
      <trkpt lat="41.616128462" lon="2.504979845">
        <ele>306.32</ele>
        <time>2014-03-22T18:05:54Z</time>
      </trkpt>
      <trkpt lat="41.616129133" lon="2.505202133">
        <ele>304.88</ele>
        <time>2014-03-22T18:05:58Z</time>
      </trkpt>
      <trkpt lat="41.616090157" lon="2.505457698">
        <ele>301.03</ele>
        <time>2014-03-22T18:06:02Z</time>
      </trkpt>
      <trkpt lat="41.616041793" lon="2.505587366">
        <ele>300.07</ele>
        <time>2014-03-22T18:06:04Z</time>
      </trkpt>
      <trkpt lat="41.615946575" lon="2.505865561">
        <ele>296.22</ele>
        <time>2014-03-22T18:06:08Z</time>
      </trkpt>
      <trkpt lat="41.615845154" lon="2.506156497">
        <ele>291.42</ele>
        <time>2014-03-22T18:06:13Z</time>
      </trkpt>
      <trkpt lat="41.615803915" lon="2.506244172">
        <ele>290.46</ele>
        <time>2014-03-22T18:06:16Z</time>
      </trkpt>
      <trkpt lat="41.615804502" lon="2.506266970">
        <ele>289.49</ele>
        <time>2014-03-22T18:06:22Z</time>
      </trkpt>
      <trkpt lat="41.615813219" lon="2.506292954">
        <ele>289.49</ele>
        <time>2014-03-22T18:06:40Z</time>
      </trkpt>
      <trkpt lat="41.615817829" lon="2.506298235">
        <ele>289.49</ele>
        <time>2014-03-22T18:06:42Z</time>
      </trkpt>
      <trkpt lat="41.615770136" lon="2.506487498">
        <ele>286.61</ele>
        <time>2014-03-22T18:06:47Z</time>
      </trkpt>
      <trkpt lat="41.615757479" lon="2.506560924">
        <ele>285.65</ele>
        <time>2014-03-22T18:06:48Z</time>
      </trkpt>
      <trkpt lat="41.615735435" lon="2.506780110">
        <ele>283.25</ele>
        <time>2014-03-22T18:06:51Z</time>
      </trkpt>
      <trkpt lat="41.615780194" lon="2.507122176">
        <ele>279.88</ele>
        <time>2014-03-22T18:06:55Z</time>
      </trkpt>
      <trkpt lat="41.615846830" lon="2.507392492">
        <ele>277.96</ele>
        <time>2014-03-22T18:06:58Z</time>
      </trkpt>
      <trkpt lat="41.615958813" lon="2.507697091">
        <ele>274.11</ele>
        <time>2014-03-22T18:07:02Z</time>
      </trkpt>
      <trkpt lat="41.616014217" lon="2.507859783">
        <ele>273.15</ele>
        <time>2014-03-22T18:07:04Z</time>
      </trkpt>
      <trkpt lat="41.616101892" lon="2.508207884">
        <ele>269.31</ele>
        <time>2014-03-22T18:07:08Z</time>
      </trkpt>
      <trkpt lat="41.616195434" lon="2.508606024">
        <ele>264.50</ele>
        <time>2014-03-22T18:07:13Z</time>
      </trkpt>
      <trkpt lat="41.616278415" lon="2.509002404">
        <ele>260.65</ele>
        <time>2014-03-22T18:07:18Z</time>
      </trkpt>
      <trkpt lat="41.616313619" lon="2.509354277">
        <ele>257.29</ele>
        <time>2014-03-22T18:07:22Z</time>
      </trkpt>
      <trkpt lat="41.616327868" lon="2.509527614">
        <ele>254.89</ele>
        <time>2014-03-22T18:07:24Z</time>
      </trkpt>
      <trkpt lat="41.616507743" lon="2.509801032">
        <ele>251.04</ele>
        <time>2014-03-22T18:07:29Z</time>
      </trkpt>
      <trkpt lat="41.616603716" lon="2.509818299">
        <ele>250.08</ele>
        <time>2014-03-22T18:07:31Z</time>
      </trkpt>
      <trkpt lat="41.616639088" lon="2.509779910">
        <ele>249.60</ele>
        <time>2014-03-22T18:07:32Z</time>
      </trkpt>
      <trkpt lat="41.616739252" lon="2.509612020">
        <ele>249.12</ele>
        <time>2014-03-22T18:07:35Z</time>
      </trkpt>
      <trkpt lat="41.616893479" lon="2.509490902">
        <ele>246.23</ele>
        <time>2014-03-22T18:07:40Z</time>
      </trkpt>
      <trkpt lat="41.616886522" lon="2.509605566">
        <ele>246.23</ele>
        <time>2014-03-22T18:07:44Z</time>
      </trkpt>
      <trkpt lat="41.616817958" lon="2.509751914">
        <ele>246.23</ele>
        <time>2014-03-22T18:07:48Z</time>
      </trkpt>
      <trkpt lat="41.616785687" lon="2.509853754">
        <ele>246.23</ele>
        <time>2014-03-22T18:07:50Z</time>
      </trkpt>
      <trkpt lat="41.616760709" lon="2.510225408">
        <ele>242.87</ele>
        <time>2014-03-22T18:07:55Z</time>
      </trkpt>
      <trkpt lat="41.616625258" lon="2.510576610">
        <ele>239.02</ele>
        <time>2014-03-22T18:08:00Z</time>
      </trkpt>
      <trkpt lat="41.616537751" lon="2.510703679">
        <ele>237.10</ele>
        <time>2014-03-22T18:08:02Z</time>
      </trkpt>
      <trkpt lat="41.616465834" lon="2.510830330">
        <ele>235.66</ele>
        <time>2014-03-22T18:08:04Z</time>
      </trkpt>
      <trkpt lat="41.616362234" lon="2.511240624">
        <ele>232.78</ele>
        <time>2014-03-22T18:08:10Z</time>
      </trkpt>
      <trkpt lat="41.616359719" lon="2.511487471">
        <ele>232.30</ele>
        <time>2014-03-22T18:08:17Z</time>
      </trkpt>
      <trkpt lat="41.616420823" lon="2.511702132">
        <ele>232.30</ele>
        <time>2014-03-22T18:08:22Z</time>
      </trkpt>
      <trkpt lat="41.616603884" lon="2.512068086">
        <ele>230.85</ele>
        <time>2014-03-22T18:08:29Z</time>
      </trkpt>
      <trkpt lat="41.616682590" lon="2.512227174">
        <ele>230.85</ele>
        <time>2014-03-22T18:08:32Z</time>
      </trkpt>
      <trkpt lat="41.616744951" lon="2.512412666">
        <ele>230.37</ele>
        <time>2014-03-22T18:08:35Z</time>
      </trkpt>
      <trkpt lat="41.616846540" lon="2.512996130">
        <ele>228.45</ele>
        <time>2014-03-22T18:08:43Z</time>
      </trkpt>
      <trkpt lat="41.616876799" lon="2.513746729">
        <ele>225.57</ele>
        <time>2014-03-22T18:08:54Z</time>
      </trkpt>
      <trkpt lat="41.616865567" lon="2.514301863">
        <ele>224.12</ele>
        <time>2014-03-22T18:09:02Z</time>
      </trkpt>
      <trkpt lat="41.616868584" lon="2.514513673">
        <ele>223.16</ele>
        <time>2014-03-22T18:09:05Z</time>
      </trkpt>
      <trkpt lat="41.616873362" lon="2.514862863">
        <ele>221.72</ele>
        <time>2014-03-22T18:09:10Z</time>
      </trkpt>
      <trkpt lat="41.616859113" lon="2.515599633">
        <ele>219.32</ele>
        <time>2014-03-22T18:09:20Z</time>
      </trkpt>
      <trkpt lat="41.616837655" lon="2.516166836">
        <ele>216.91</ele>
        <time>2014-03-22T18:09:28Z</time>
      </trkpt>
      <trkpt lat="41.616805385" lon="2.516778380">
        <ele>214.51</ele>
        <time>2014-03-22T18:09:36Z</time>
      </trkpt>
      <trkpt lat="41.616747717" lon="2.517496374">
        <ele>212.11</ele>
        <time>2014-03-22T18:09:45Z</time>
      </trkpt>
      <trkpt lat="41.616714776" lon="2.518171452">
        <ele>209.22</ele>
        <time>2014-03-22T18:09:53Z</time>
      </trkpt>
      <trkpt lat="41.616703796" lon="2.518336743">
        <ele>209.22</ele>
        <time>2014-03-22T18:09:55Z</time>
      </trkpt>
      <trkpt lat="41.616597681" lon="2.518712420">
        <ele>208.26</ele>
        <time>2014-03-22T18:10:01Z</time>
      </trkpt>
      <trkpt lat="41.616583348" lon="2.518762879">
        <ele>208.26</ele>
        <time>2014-03-22T18:10:02Z</time>
      </trkpt>
      <trkpt lat="41.616540098" lon="2.518926410">
        <ele>208.26</ele>
        <time>2014-03-22T18:10:05Z</time>
      </trkpt>
      <trkpt lat="41.616433312" lon="2.519527057">
        <ele>207.30</ele>
        <time>2014-03-22T18:10:14Z</time>
      </trkpt>
      <trkpt lat="41.616282773" lon="2.520016644">
        <ele>205.38</ele>
        <time>2014-03-22T18:10:21Z</time>
      </trkpt>
      <trkpt lat="41.616092672" lon="2.520546464">
        <ele>203.94</ele>
        <time>2014-03-22T18:10:28Z</time>
      </trkpt>
      <trkpt lat="41.616068029" lon="2.520626344">
        <ele>203.46</ele>
        <time>2014-03-22T18:10:29Z</time>
      </trkpt>
      <trkpt lat="41.615932577" lon="2.521275019">
        <ele>202.01</ele>
        <time>2014-03-22T18:10:37Z</time>
      </trkpt>
      <trkpt lat="41.615854374" lon="2.521921264">
        <ele>201.05</ele>
        <time>2014-03-22T18:10:45Z</time>
      </trkpt>
      <trkpt lat="41.615787738" lon="2.522451755">
        <ele>199.13</ele>
        <time>2014-03-22T18:10:51Z</time>
      </trkpt>
      <trkpt lat="41.615671397" lon="2.523141753">
        <ele>196.73</ele>
        <time>2014-03-22T18:10:58Z</time>
      </trkpt>
      <trkpt lat="41.615626386" lon="2.523587335">
        <ele>194.80</ele>
        <time>2014-03-22T18:11:03Z</time>
      </trkpt>
      <trkpt lat="41.615575257" lon="2.524252104">
        <ele>192.40</ele>
        <time>2014-03-22T18:11:11Z</time>
      </trkpt>
      <trkpt lat="41.615507028" lon="2.525081577">
        <ele>189.04</ele>
        <time>2014-03-22T18:11:19Z</time>
      </trkpt>
      <trkpt lat="41.615491857" lon="2.525749615">
        <ele>187.59</ele>
        <time>2014-03-22T18:11:25Z</time>
      </trkpt>
      <trkpt lat="41.615546088" lon="2.526501974">
        <ele>185.67</ele>
        <time>2014-03-22T18:11:32Z</time>
      </trkpt>
      <trkpt lat="41.615521529" lon="2.527278306">
        <ele>182.31</ele>
        <time>2014-03-22T18:11:39Z</time>
      </trkpt>
      <trkpt lat="41.615504011" lon="2.527397664">
        <ele>182.31</ele>
        <time>2014-03-22T18:11:40Z</time>
      </trkpt>
      <trkpt lat="41.615300917" lon="2.528426627">
        <ele>179.42</ele>
        <time>2014-03-22T18:11:49Z</time>
      </trkpt>
      <trkpt lat="41.615192288" lon="2.529140011">
        <ele>177.50</ele>
        <time>2014-03-22T18:11:56Z</time>
      </trkpt>
      <trkpt lat="41.615154066" lon="2.529942243">
        <ele>175.58</ele>
        <time>2014-03-22T18:12:04Z</time>
      </trkpt>
      <trkpt lat="41.615120706" lon="2.530805076">
        <ele>172.69</ele>
        <time>2014-03-22T18:12:13Z</time>
      </trkpt>
      <trkpt lat="41.615089693" lon="2.531269014">
        <ele>171.73</ele>
        <time>2014-03-22T18:12:18Z</time>
      </trkpt>
      <trkpt lat="41.615183654" lon="2.531769246">
        <ele>168.85</ele>
        <time>2014-03-22T18:12:24Z</time>
      </trkpt>
      <trkpt lat="41.615187929" lon="2.531948535">
        <ele>166.45</ele>
        <time>2014-03-22T18:12:26Z</time>
      </trkpt>
      <trkpt lat="41.615063039" lon="2.532631576">
        <ele>165.96</ele>
        <time>2014-03-22T18:12:34Z</time>
      </trkpt>
      <trkpt lat="41.614901687" lon="2.533237672">
        <ele>164.04</ele>
        <time>2014-03-22T18:12:41Z</time>
      </trkpt>
      <trkpt lat="41.614668083" lon="2.534082651">
        <ele>162.60</ele>
        <time>2014-03-22T18:12:50Z</time>
      </trkpt>
      <trkpt lat="41.614428696" lon="2.534892762">
        <ele>160.20</ele>
        <time>2014-03-22T18:12:59Z</time>
      </trkpt>
      <trkpt lat="41.614367005" lon="2.535059059">
        <ele>158.75</ele>
        <time>2014-03-22T18:13:01Z</time>
      </trkpt>
      <trkpt lat="41.614155614" lon="2.535620731">
        <ele>157.31</ele>
        <time>2014-03-22T18:13:08Z</time>
      </trkpt>
      <trkpt lat="41.614097108" lon="2.535782417">
        <ele>156.83</ele>
        <time>2014-03-22T18:13:10Z</time>
      </trkpt>
      <trkpt lat="41.614073974" lon="2.535865901">
        <ele>156.83</ele>
        <time>2014-03-22T18:13:11Z</time>
      </trkpt>
      <trkpt lat="41.613915640" lon="2.536212074">
        <ele>155.87</ele>
        <time>2014-03-22T18:13:16Z</time>
      </trkpt>
      <trkpt lat="41.613778847" lon="2.536531760">
        <ele>154.43</ele>
        <time>2014-03-22T18:13:22Z</time>
      </trkpt>
      <trkpt lat="41.613638367" lon="2.536781121">
        <ele>153.95</ele>
        <time>2014-03-22T18:13:29Z</time>
      </trkpt>
      <trkpt lat="41.613456144" lon="2.537085803">
        <ele>153.47</ele>
        <time>2014-03-22T18:13:36Z</time>
      </trkpt>
      <trkpt lat="41.613180128" lon="2.537410518">
        <ele>151.54</ele>
        <time>2014-03-22T18:13:44Z</time>
      </trkpt>
      <trkpt lat="41.612858430" lon="2.537765324">
        <ele>150.10</ele>
        <time>2014-03-22T18:13:53Z</time>
      </trkpt>
      <trkpt lat="41.612825657" lon="2.537798852">
        <ele>149.62</ele>
        <time>2014-03-22T18:13:54Z</time>
      </trkpt>
      <trkpt lat="41.612691128" lon="2.537937069">
        <ele>149.62</ele>
        <time>2014-03-22T18:13:58Z</time>
      </trkpt>
      <trkpt lat="41.612412848" lon="2.538278800">
        <ele>148.18</ele>
        <time>2014-03-22T18:14:06Z</time>
      </trkpt>
      <trkpt lat="41.612283348" lon="2.538468147">
        <ele>148.18</ele>
        <time>2014-03-22T18:14:10Z</time>
      </trkpt>
      <trkpt lat="41.612114537" lon="2.538871568">
        <ele>145.78</ele>
        <time>2014-03-22T18:14:18Z</time>
      </trkpt>
      <trkpt lat="41.612027365" lon="2.539042056">
        <ele>144.82</ele>
        <time>2014-03-22T18:14:24Z</time>
      </trkpt>
      <trkpt lat="41.611964500" lon="2.539079523">
        <ele>144.34</ele>
        <time>2014-03-22T18:14:28Z</time>
      </trkpt>
      <trkpt lat="41.611879592" lon="2.538826138">
        <ele>144.34</ele>
        <time>2014-03-22T18:14:36Z</time>
      </trkpt>
      <trkpt lat="41.611859140" lon="2.538761597">
        <ele>145.78</ele>
        <time>2014-03-22T18:14:38Z</time>
      </trkpt>
      <trkpt lat="41.611824020" lon="2.538724130">
        <ele>146.26</ele>
        <time>2014-03-22T18:14:40Z</time>
      </trkpt>
      <trkpt lat="41.611556134" lon="2.538758831">
        <ele>146.74</ele>
        <time>2014-03-22T18:14:47Z</time>
      </trkpt>
      <trkpt lat="41.611495617" lon="2.538760089">
        <ele>146.74</ele>
        <time>2014-03-22T18:14:48Z</time>
      </trkpt>
      <trkpt lat="41.611188588" lon="2.538812727">
        <ele>143.37</ele>
        <time>2014-03-22T18:14:54Z</time>
      </trkpt>
      <trkpt lat="41.610982561" lon="2.538882967">
        <ele>142.89</ele>
        <time>2014-03-22T18:14:58Z</time>
      </trkpt>
      <trkpt lat="41.610710400" lon="2.539031243">
        <ele>141.45</ele>
        <time>2014-03-22T18:15:03Z</time>
      </trkpt>
      <trkpt lat="41.610210755" lon="2.539328549">
        <ele>138.57</ele>
        <time>2014-03-22T18:15:13Z</time>
      </trkpt>
      <trkpt lat="41.610030879" lon="2.539425276">
        <ele>138.57</ele>
        <time>2014-03-22T18:15:17Z</time>
      </trkpt>
      <trkpt lat="41.609722006" lon="2.539620659">
        <ele>137.13</ele>
        <time>2014-03-22T18:15:24Z</time>
      </trkpt>
      <trkpt lat="41.609483960" lon="2.539748818">
        <ele>136.64</ele>
        <time>2014-03-22T18:15:30Z</time>
      </trkpt>
      <trkpt lat="41.609323279" lon="2.539849736">
        <ele>135.20</ele>
        <time>2014-03-22T18:15:34Z</time>
      </trkpt>
      <trkpt lat="41.609169806" lon="2.540100271">
        <ele>134.24</ele>
        <time>2014-03-22T18:15:40Z</time>
      </trkpt>
      <trkpt lat="41.609104511" lon="2.540321386">
        <ele>133.76</ele>
        <time>2014-03-22T18:15:45Z</time>
      </trkpt>
      <trkpt lat="41.609023626" lon="2.540399421">
        <ele>133.76</ele>
        <time>2014-03-22T18:15:47Z</time>
      </trkpt>
      <trkpt lat="41.608892365" lon="2.540493718">
        <ele>133.28</ele>
        <time>2014-03-22T18:15:51Z</time>
      </trkpt>
      <trkpt lat="41.608819275" lon="2.540310405">
        <ele>131.84</ele>
        <time>2014-03-22T18:15:57Z</time>
      </trkpt>
      <trkpt lat="41.608798991" lon="2.540298252">
        <ele>131.36</ele>
        <time>2014-03-22T18:15:59Z</time>
      </trkpt>
      <trkpt lat="41.608662282" lon="2.540307891">
        <ele>131.36</ele>
        <time>2014-03-22T18:16:05Z</time>
      </trkpt>
      <trkpt lat="41.608327593" lon="2.540355751">
        <ele>130.40</ele>
        <time>2014-03-22T18:16:13Z</time>
      </trkpt>
      <trkpt lat="41.607713786" lon="2.540457843">
        <ele>129.43</ele>
        <time>2014-03-22T18:16:24Z</time>
      </trkpt>
      <trkpt lat="41.607569450" lon="2.540450635">
        <ele>128.95</ele>
        <time>2014-03-22T18:16:30Z</time>
      </trkpt>
      <trkpt lat="41.607296451" lon="2.540368240">
        <ele>127.51</ele>
        <time>2014-03-22T18:16:35Z</time>
      </trkpt>
      <trkpt lat="41.606804433" lon="2.540233124">
        <ele>126.07</ele>
        <time>2014-03-22T18:16:44Z</time>
      </trkpt>
      <trkpt lat="41.606371592" lon="2.540166740">
        <ele>124.15</ele>
        <time>2014-03-22T18:16:53Z</time>
      </trkpt>
      <trkpt lat="41.606153914" lon="2.540150730">
        <ele>123.67</ele>
        <time>2014-03-22T18:16:59Z</time>
      </trkpt>
      <trkpt lat="41.606138826" lon="2.540153412">
        <ele>123.67</ele>
        <time>2014-03-22T18:17:00Z</time>
      </trkpt>
      <trkpt lat="41.606094067" lon="2.540231280">
        <ele>123.67</ele>
        <time>2014-03-22T18:17:04Z</time>
      </trkpt>
      <trkpt lat="41.606018797" lon="2.540362960">
        <ele>123.67</ele>
        <time>2014-03-22T18:17:08Z</time>
      </trkpt>
      <trkpt lat="41.605945372" lon="2.540380310">
        <ele>123.67</ele>
        <time>2014-03-22T18:17:12Z</time>
      </trkpt>
      <trkpt lat="41.605902289" lon="2.540441833">
        <ele>123.67</ele>
        <time>2014-03-22T18:17:18Z</time>
      </trkpt>
      <trkpt lat="41.605953670" lon="2.540468236">
        <ele>123.67</ele>
        <time>2014-03-22T18:17:23Z</time>
      </trkpt>
      <trkpt lat="41.605971775" lon="2.540479636">
        <ele>123.67</ele>
        <time>2014-03-22T18:17:25Z</time>
      </trkpt>
      <trkpt lat="41.606066239" lon="2.540627157">
        <ele>123.67</ele>
        <time>2014-03-22T18:17:32Z</time>
      </trkpt>
      <trkpt lat="41.606119296" lon="2.540684825">
        <ele>123.67</ele>
        <time>2014-03-22T18:17:35Z</time>
      </trkpt>
      <trkpt lat="41.606302525" lon="2.540714748">
        <ele>124.63</ele>
        <time>2014-03-22T18:17:43Z</time>
      </trkpt>
      <trkpt lat="41.606460943" lon="2.540765207">
        <ele>125.11</ele>
        <time>2014-03-22T18:17:50Z</time>
      </trkpt>
      <trkpt lat="41.606508301" lon="2.540863695">
        <ele>125.11</ele>
        <time>2014-03-22T18:17:54Z</time>
      </trkpt>
      <trkpt lat="41.606573260" lon="2.540970061">
        <ele>126.07</ele>
        <time>2014-03-22T18:17:58Z</time>
      </trkpt>
      <trkpt lat="41.606658672" lon="2.541279521">
        <ele>127.03</ele>
        <time>2014-03-22T18:18:09Z</time>
      </trkpt>
      <trkpt lat="41.606728661" lon="2.541508515">
        <ele>127.99</ele>
        <time>2014-03-22T18:18:18Z</time>
      </trkpt>
      <trkpt lat="41.606836536" lon="2.541813029">
        <ele>129.92</ele>
        <time>2014-03-22T18:18:29Z</time>
      </trkpt>
      <trkpt lat="41.606913482" lon="2.542057026">
        <ele>131.84</ele>
        <time>2014-03-22T18:18:39Z</time>
      </trkpt>
      <trkpt lat="41.606969473" lon="2.542222988">
        <ele>132.32</ele>
        <time>2014-03-22T18:18:46Z</time>
      </trkpt>
      <trkpt lat="41.607006940" lon="2.542322314">
        <ele>133.28</ele>
        <time>2014-03-22T18:18:50Z</time>
      </trkpt>
      <trkpt lat="41.607047844" lon="2.542374365">
        <ele>134.24</ele>
        <time>2014-03-22T18:18:57Z</time>
      </trkpt>
      <trkpt lat="41.607058321" lon="2.542401187">
        <ele>134.24</ele>
        <time>2014-03-22T18:19:04Z</time>
      </trkpt>
      <trkpt lat="41.607058656" lon="2.542459777">
        <ele>134.24</ele>
        <time>2014-03-22T18:19:26Z</time>
      </trkpt>
      <trkpt lat="41.607045329" lon="2.542494897">
        <ele>134.24</ele>
        <time>2014-03-22T18:19:41Z</time>
      </trkpt>
    </trkseg>
  </trk>
</gpx>
